Provisional Data: Ninemile Run near Walton, PA


Please select a monitoring station.
Please select start date.
Please select start date.

Toggle Unit: C/F Toggle Unit: C/F
Sample Time Temperature (C) Temperature (F) Specific Conductivity (mS/cm) pH   Turbidity (NTU+) DO (mg/L)
10/20/2020 12:00:00 AM 8.77 47.786 0.092 6.88 3.18 10.76
10/20/2020 12:15:00 AM 8.79 47.822 0.093 6.87 3.4 10.74
10/20/2020 12:30:00 AM 8.81 47.858 0.093 6.88 3.99 10.75
10/20/2020 12:45:00 AM 8.84 47.912 0.093 6.89 4.03 10.73
10/20/2020 1:00:00 AM 8.88 47.984 0.093 6.88 3.95 10.73
10/20/2020 1:15:00 AM 8.91 48.038 0.093 6.89 3.56 10.73
10/20/2020 1:30:00 AM 8.93 48.074 0.093 6.89 3.53 10.73
10/20/2020 1:45:00 AM 8.96 48.128 0.093 6.9 3.57 10.72
10/20/2020 2:00:00 AM 8.98 48.164 0.093 6.91 3.46 10.72
10/20/2020 2:15:00 AM 9 48.2 0.093 6.91 3.69 10.71
10/20/2020 2:30:00 AM 9.02 48.236 0.093 6.91 3.74 10.7
10/20/2020 2:45:00 AM 9.02 48.236 0.094 6.9 3.47 10.69
10/20/2020 3:00:00 AM 9.04 48.272 0.094 6.9 3.67 10.68
10/20/2020 3:15:00 AM 9.06 48.308 0.094 6.9 3.42 10.68
10/20/2020 3:30:00 AM 9.06 48.308 0.094 6.9 3.42 10.67
10/20/2020 3:45:00 AM 9.07 48.326 0.094 6.9 3.41 10.67
10/20/2020 4:00:00 AM 9.07 48.326 0.094 6.89 3.41 10.67
10/20/2020 4:15:00 AM 9.08 48.344 0.094 6.89 3.39 10.66
10/20/2020 4:30:00 AM 9.09 48.362 0.094 6.89 3.15 10.66
10/20/2020 4:45:00 AM 9.1 48.38 0.094 6.88 3.09 10.66
10/20/2020 5:00:00 AM 9.11 48.398 0.095 6.88 3.12 10.66
10/20/2020 5:15:00 AM 9.12 48.416 0.095 6.88 3.2 10.66
10/20/2020 5:30:00 AM 9.15 48.47 0.094 6.89 3.45 10.66
10/20/2020 5:45:00 AM 9.18 48.524 0.094 6.89 3.72 10.65
10/20/2020 6:00:00 AM 9.19 48.542 0.094 6.88 3.89 10.63
10/20/2020 6:15:00 AM 9.2 48.56 0.093 6.88 3.89 10.63
10/20/2020 6:30:00 AM 9.21 48.578 0.093 6.87 3.66 10.62
10/20/2020 6:45:00 AM 9.22 48.596 0.093 6.85 3.8 10.62
10/20/2020 7:00:00 AM 9.22 48.596 0.093 6.84 3.69 10.61
10/20/2020 7:15:00 AM 9.23 48.614 0.093 6.85 3.97 10.61
10/20/2020 7:30:00 AM 9.23 48.614 0.094 6.84 4.18 10.61
10/20/2020 7:45:00 AM 9.24 48.632 0.094 6.83 3.58 10.61
10/20/2020 8:00:00 AM 9.25 48.65 0.094 6.83 3.67 10.62
10/20/2020 8:15:00 AM 9.26 48.668 0.094 6.84 3.79 10.61
10/20/2020 8:30:00 AM 9.28 48.704 0.094 6.83 3.3 10.62
10/20/2020 8:45:00 AM 9.3 48.74 0.094 6.84 3.21 10.64
10/20/2020 9:00:00 AM 9.32 48.776 0.094 6.83 3.07 10.65
10/20/2020 9:15:00 AM 9.34 48.812 0.094 6.84 2.97 10.64
10/20/2020 9:30:00 AM 9.37 48.866 0.094 6.83 3.01 10.65
10/20/2020 9:45:00 AM 9.4 48.92 0.094 6.83 2.75 10.67
10/20/2020 10:00:00 AM 9.42 48.956 0.094 6.84 2.91 10.67
10/20/2020 10:15:00 AM 9.48 49.064 0.093 6.85 2.75 10.7
10/20/2020 10:30:00 AM 9.55 49.19 0.093 6.86 2.85 10.74
10/20/2020 10:45:00 AM 9.6 49.28 0.093 6.89 2.87 10.75
10/20/2020 11:00:00 AM 9.65 49.37 0.093 6.89 2.71 10.75
10/20/2020 11:15:00 AM 9.69 49.442 0.093 6.91 3.11 10.72
10/20/2020 11:30:00 AM 9.7 49.46 0.093 6.9 2.87 10.72
10/20/2020 11:45:00 AM 9.72 49.496 0.093 6.89 2.82 10.7
10/20/2020 12:00:00 PM 9.74 49.532 0.093 6.89 2.86 10.69
10/20/2020 12:15:00 PM 9.78 49.604 0.093 6.89 2.92 10.68
10/20/2020 12:30:00 PM 9.86 49.748 0.093 6.89 3.24 10.7
10/20/2020 12:45:00 PM 9.89 49.802 0.093 6.9 3.04 10.71
10/20/2020 1:00:00 PM 9.91 49.838 0.093 6.91 2.92 10.67
10/20/2020 1:15:00 PM 9.96 49.928 0.093 6.91 2.99 10.68
10/20/2020 1:30:00 PM 10 50 0.093 6.92 3 10.68
10/20/2020 1:45:00 PM 10.05 50.09 0.093 6.92 2.96 10.69
10/20/2020 2:00:00 PM 10.11 50.198 0.093 6.93 2.9 10.69
10/20/2020 2:15:00 PM 10.14 50.252 0.093 6.94 3.11 10.67
10/20/2020 2:30:00 PM 10.16 50.288 0.093 6.94 3.21 10.66
10/20/2020 2:45:00 PM 10.15 50.27 0.093 6.94 3.09 10.65
10/20/2020 3:00:00 PM 10.14 50.252 0.093 6.93 3.03 10.61
10/20/2020 3:15:00 PM 10.14 50.252 0.094 6.93 3.04 10.6
10/20/2020 3:30:00 PM 10.14 50.252 0.094 6.92 3.36 10.58
10/20/2020 3:45:00 PM 10.14 50.252 0.094 6.92 3.4 10.59
10/20/2020 4:00:00 PM 10.14 50.252 0.094 6.92 2.92 10.59
10/20/2020 4:15:00 PM 10.16 50.288 0.094 6.92 3.62 10.59
10/20/2020 4:30:00 PM 10.16 50.288 0.095 6.92 4.08 10.58
10/20/2020 4:45:00 PM 10.16 50.288 0.095 6.91 3.34 10.58
10/20/2020 5:00:00 PM 10.16 50.288 0.095 6.91 3.35 10.56
10/20/2020 5:15:00 PM 10.15 50.27 0.095 6.91 3.61 10.55
10/20/2020 5:30:00 PM 10.15 50.27 0.095 6.9 3.49 10.54
10/20/2020 5:45:00 PM 10.14 50.252 0.095 6.9 4.27 10.53
10/20/2020 6:00:00 PM 10.14 50.252 0.095 6.91 3.93 10.52
10/20/2020 6:15:00 PM 10.13 50.234 0.095 6.91 3.69 10.5
10/20/2020 6:30:00 PM 10.12 50.216 0.095 6.9 3.85 10.49
10/20/2020 6:45:00 PM 10.11 50.198 0.095 6.9 3.69 10.48
10/20/2020 7:00:00 PM 10.09 50.162 0.095 6.89 4.02 10.49
10/20/2020 7:15:00 PM 10.08 50.144 0.095 6.89 4.21 10.49
10/20/2020 7:30:00 PM 10.07 50.126 0.095 6.89 4.42 10.5
10/20/2020 7:45:00 PM 10.06 50.108 0.095 6.89 4.27 10.5
10/20/2020 8:00:00 PM 10.05 50.09 0.095 6.89 4.45 10.5
10/20/2020 8:15:00 PM 10.04 50.072 0.095 6.89 4.33 10.5
10/20/2020 8:30:00 PM 10.02 50.036 0.095 6.88 4.29 10.5
10/20/2020 8:45:00 PM 10.01 50.018 0.095 6.88 3.96 10.51
10/20/2020 9:00:00 PM 9.99 49.982 0.095 6.89 3.96 10.51
10/20/2020 9:15:00 PM 9.98 49.964 0.095 6.89 3.9 10.52
10/20/2020 9:30:00 PM 9.97 49.946 0.095 6.88 3.68 10.52
10/20/2020 9:45:00 PM 9.95 49.91 0.095 6.88 3.64 10.52
10/20/2020 10:00:00 PM 9.94 49.892 0.095 6.88 3.42 10.52
10/20/2020 10:15:00 PM 9.93 49.874 0.095 6.89 3.88 10.53
10/20/2020 10:30:00 PM 9.92 49.856 0.095 6.89 3.76 10.52
10/20/2020 10:45:00 PM 9.9 49.82 0.095 6.89 3.47 10.53
10/20/2020 11:00:00 PM 9.89 49.802 0.095 6.9 3.36 10.53
10/20/2020 11:15:00 PM 9.88 49.784 0.095 6.88 3.45 10.52
10/20/2020 11:30:00 PM 9.86 49.748 0.096 6.89 3.31 10.53
10/20/2020 11:45:00 PM 9.85 49.73 0.096 6.89 3.68 10.53
10/21/2020 12:00:00 AM 9.84 49.712 0.096 6.88 3.43 10.53
10/21/2020 12:15:00 AM 9.82 49.676 0.096 6.89 3.5 10.54
10/21/2020 12:30:00 AM 9.81 49.658 0.096 6.88 3.26 10.54
10/21/2020 12:45:00 AM 9.8 49.64 0.096 6.88 3.31 10.54
10/21/2020 1:00:00 AM 9.79 49.622 0.097 6.88 3.3 10.55
10/21/2020 1:15:00 AM 9.78 49.604 0.097 6.88 3.24 10.54
10/21/2020 1:30:00 AM 9.77 49.586 0.097 6.89 3.22 10.54
10/21/2020 1:45:00 AM 9.75 49.55 0.097 6.88 3.36 10.55
10/21/2020 2:00:00 AM 9.74 49.532 0.097 6.87 3.24 10.55
10/21/2020 2:15:00 AM 9.73 49.514 0.098 6.88 3.28 10.57
10/21/2020 2:30:00 AM 9.72 49.496 0.098 6.89 3.18 10.57
10/21/2020 2:45:00 AM 9.71 49.478 0.098 6.89 3.38 10.57
10/21/2020 3:00:00 AM 9.7 49.46 0.098 6.89 3.3 10.57
10/21/2020 3:15:00 AM 9.69 49.442 0.098 6.88 3.39 10.57
10/21/2020 3:30:00 AM 9.68 49.424 0.098 6.88 3.32 10.57
10/21/2020 3:45:00 AM 9.67 49.406 0.099 6.88 3.27 10.58
10/21/2020 4:00:00 AM 9.66 49.388 0.099 6.88 3.27 10.58
10/21/2020 4:15:00 AM 9.65 49.37 0.099 6.89 3.36 10.57
10/21/2020 4:30:00 AM 9.64 49.352 0.099 6.89 3.23 10.57
10/21/2020 4:45:00 AM 9.62 49.316 0.099 6.88 3.23 10.58
10/21/2020 5:00:00 AM 9.62 49.316 0.099 6.88 3.27 10.59
10/21/2020 5:15:00 AM 9.61 49.298 0.099 6.89 3.28 10.57
10/21/2020 5:30:00 AM 9.61 49.298 0.099 6.89 3.73 10.57
10/21/2020 5:45:00 AM 9.6 49.28 0.099 6.88 3.49 10.58
10/21/2020 6:00:00 AM 9.6 49.28 0.099 6.88 4.04 10.57
10/21/2020 6:15:00 AM 9.59 49.262 0.099 6.88 4.07 10.57
10/21/2020 6:30:00 AM 9.58 49.244 0.099 6.87 3.8 10.57
10/21/2020 6:45:00 AM 9.57 49.226 0.099 6.88 3.84 10.57
10/21/2020 7:00:00 AM 9.56 49.208 0.099 6.88 4.24 10.58
10/21/2020 7:15:00 AM 9.54 49.172 0.099 6.89 3.63 10.58
10/21/2020 7:30:00 AM 9.54 49.172 0.099 6.88 3.58 10.59
10/21/2020 7:45:00 AM 9.54 49.172 0.099 6.89 3.18 10.6
10/21/2020 8:00:00 AM 9.54 49.172 0.099 6.88 3 10.6
10/21/2020 8:15:00 AM 9.55 49.19 0.099 6.89 3.04 10.62
10/21/2020 8:30:00 AM 9.59 49.262 0.099 6.89 2.91 10.67
10/21/2020 8:45:00 AM 9.64 49.352 0.099 6.9 3.34 10.71
10/21/2020 9:00:00 AM 9.67 49.406 0.099 6.9 2.85 10.71
10/21/2020 9:15:00 AM 9.68 49.424 0.099 6.91 2.8 10.71
10/21/2020 9:30:00 AM 9.75 49.55 0.099 6.91 2.72 10.73
10/21/2020 9:45:00 AM 9.81 49.658 0.099 6.93 3.12 10.75
10/21/2020 10:00:00 AM 9.85 49.73 0.099 6.93 2.7 10.76
10/21/2020 10:15:00 AM 9.98 49.964 0.099 6.94 2.7 10.78
10/21/2020 10:30:00 AM 10.15 50.27 0.099 6.96 2.69 10.77
10/21/2020 10:45:00 AM 10.32 50.576 0.1 6.97 2.75 10.78
10/21/2020 11:00:00 AM 10.5 50.9 0.1 6.99 2.93 10.73
10/21/2020 11:15:00 AM 10.69 51.242 0.1 7.03 2.8 10.72
10/21/2020 11:30:00 AM 10.87 51.566 0.1 7.03 2.68 10.69
10/21/2020 11:45:00 AM 11.06 51.908 0.1 7.04 2.7 10.67
10/21/2020 12:00:00 PM 11.26 52.268 0.1 7.05 2.59 10.63
10/21/2020 12:15:00 PM 11.47 52.646 0.1 7.06 2.9 10.59
10/21/2020 12:30:00 PM 11.65 52.97 0.1 7.09 2.61 10.59
10/21/2020 12:45:00 PM 11.81 53.258 0.1 7.09 2.63 10.57
10/21/2020 1:00:00 PM 11.94 53.492 0.1 7.08 2.63 10.53
10/21/2020 1:15:00 PM 12.09 53.762 0.1 7.07 2.63 10.5
10/21/2020 1:30:00 PM 12.27 54.086 0.1 7.07 2.63 10.46
10/21/2020 1:45:00 PM 12.45 54.41 0.1 7.07 2.69 10.42
10/21/2020 2:00:00 PM 12.6 54.68 0.1 7.08 2.56 10.4
10/21/2020 2:15:00 PM 12.68 54.824 0.1 7.07 2.57 10.35
10/21/2020 2:30:00 PM 12.77 54.986 0.101 7.06 2.6 10.32
10/21/2020 2:45:00 PM 12.88 55.184 0.101 7.05 2.68 10.3
10/21/2020 3:00:00 PM 12.91 55.238 0.101 7.05 2.72 10.25
10/21/2020 3:15:00 PM 12.93 55.274 0.101 7.03 2.6 10.19
10/21/2020 3:30:00 PM 12.91 55.238 0.101 7 2.63 10.12
10/21/2020 3:45:00 PM 12.87 55.166 0.101 6.99 2.73 10.08
10/21/2020 4:00:00 PM 12.86 55.148 0.101 6.97 2.77 10.04
10/21/2020 4:15:00 PM 12.86 55.148 0.101 6.95 2.91 10.01
10/21/2020 4:30:00 PM 12.88 55.184 0.101 6.95 2.96 9.98
10/21/2020 4:45:00 PM 12.91 55.238 0.101 6.94 2.93 9.96
10/21/2020 5:00:00 PM 12.95 55.31 0.101 6.94 2.95 9.95
10/21/2020 5:15:00 PM 12.98 55.364 0.101 6.94 2.87 9.93
10/21/2020 5:30:00 PM 12.99 55.382 0.101 6.94 3.08 9.89
10/21/2020 5:45:00 PM 12.97 55.346 0.101 6.93 3.3 9.85
10/21/2020 6:00:00 PM 12.93 55.274 0.101 6.91 2.98 9.82
10/21/2020 6:15:00 PM 12.89 55.202 0.101 6.9 2.97 9.8
10/21/2020 6:30:00 PM 12.84 55.112 0.102 6.88 3.01 9.77
10/21/2020 6:45:00 PM 12.78 55.004 0.102 6.86 3.12 9.77
10/21/2020 7:00:00 PM 12.73 54.914 0.102 6.84 3.26 9.76
10/21/2020 7:15:00 PM 12.69 54.842 0.102 6.82 3.41 9.73
10/21/2020 7:30:00 PM 12.65 54.77 0.102 6.81 3.37 9.74
10/21/2020 7:45:00 PM 12.62 54.716 0.102 6.79 3.21 9.74
10/21/2020 8:00:00 PM 12.6 54.68 0.102 6.79 3.29 9.74
10/21/2020 8:15:00 PM 12.58 54.644 0.102 6.78 3.24 9.76
10/21/2020 8:30:00 PM 12.57 54.626 0.102 6.78 3.08 9.75
10/21/2020 8:45:00 PM 12.54 54.572 0.103 6.78 3.13 9.75
10/21/2020 9:00:00 PM 12.49 54.482 0.103 6.78 2.89 9.77
10/21/2020 9:15:00 PM 12.45 54.41 0.103 6.77 2.89 9.76
10/21/2020 9:30:00 PM 12.4 54.32 0.103 6.77 2.86 9.78
10/21/2020 9:45:00 PM 12.34 54.212 0.103 6.78 2.99 9.79
10/21/2020 10:00:00 PM 12.29 54.122 0.103 6.77 2.8 9.8
10/21/2020 10:15:00 PM 12.24 54.032 0.103 6.77 2.8 9.81
10/21/2020 10:30:00 PM 12.2 53.96 0.103 6.78 2.82 9.81
10/21/2020 10:45:00 PM 12.17 53.906 0.104 6.78 2.73 9.81
10/21/2020 11:00:00 PM 12.14 53.852 0.104 6.78 3.12 9.81
10/21/2020 11:15:00 PM 12.13 53.834 0.104 6.78 2.74 9.82
10/21/2020 11:30:00 PM 12.12 53.816 0.104 6.78 2.63 9.82
10/21/2020 11:45:00 PM 12.11 53.798 0.104 6.78 2.9 9.83
10/22/2020 12:00:00 AM 12.09 53.762 0.104 6.79 2.91 9.83
10/22/2020 12:15:00 AM 12.09 53.762 0.104 6.79 2.87 9.82
10/22/2020 12:30:00 AM 12.08 53.744 0.104 6.79 2.88 9.8
10/22/2020 12:45:00 AM 12.08 53.744 0.104 6.8 2.63 9.83
10/22/2020 1:00:00 AM 12.08 53.744 0.105 6.8 2.97 9.81
10/22/2020 1:15:00 AM 12.07 53.726 0.105 6.8 2.91 9.82
10/22/2020 1:30:00 AM 12.07 53.726 0.105 6.8 2.85 9.8
10/22/2020 1:45:00 AM 12.06 53.708 0.105 6.8 2.88 9.81
10/22/2020 2:00:00 AM 12.06 53.708 0.105 6.81 2.89 9.79
10/22/2020 2:15:00 AM 12.05 53.69 0.105 6.81 3.05 9.79
10/22/2020 2:30:00 AM 12.05 53.69 0.105 6.81 2.9 9.8
10/22/2020 2:45:00 AM 12.05 53.69 0.105 6.81 2.9 9.81
10/22/2020 3:00:00 AM 12.04 53.672 0.106 6.8 3.03 9.82
10/22/2020 3:15:00 AM 12.04 53.672 0.106 6.81 3.58 9.82
10/22/2020 3:30:00 AM 12.03 53.654 0.106 6.81 3.07 9.82
10/22/2020 3:45:00 AM 12.03 53.654 0.106 6.81 3.11 9.82
10/22/2020 4:00:00 AM 12.02 53.636 0.106 6.81 2.98 9.83
10/22/2020 4:15:00 AM 12.01 53.618 0.106 6.82 3.05 9.83
10/22/2020 4:30:00 AM 12 53.6 0.106 6.81 11.75 9.79
10/22/2020 4:45:00 AM 11.99 53.582 0.106 6.8 8.74 9.8
10/22/2020 5:00:00 AM 11.98 53.564 0.106 6.81 8.82 9.8
10/22/2020 5:15:00 AM 11.97 53.546 0.106 6.81 4.72 9.8
10/22/2020 5:30:00 AM 11.96 53.528 0.107 6.8 8.52 9.79
10/22/2020 5:45:00 AM 11.95 53.51 0.107 6.79 3.35 9.77
10/22/2020 6:00:00 AM 11.94 53.492 0.107 6.8 3.33 9.79
10/22/2020 6:15:00 AM 11.93 53.474 0.107 6.8 2.96 9.78
10/22/2020 6:30:00 AM 11.92 53.456 0.107 6.8 2.97 9.8
10/22/2020 6:45:00 AM 11.91 53.438 0.107 6.8 2.93 9.83
10/22/2020 7:00:00 AM 11.9 53.42 0.107 6.79 2.98 9.82
10/22/2020 7:15:00 AM 11.89 53.402 0.107 6.79 3.66 9.81
10/22/2020 7:30:00 AM 11.87 53.366 0.107 6.79 3.09 9.82
10/22/2020 7:45:00 AM 11.86 53.348 0.107 6.78 3.11 9.8
10/22/2020 8:00:00 AM 11.86 53.348 0.107 6.78 3.36 9.78
10/22/2020 8:15:00 AM 11.86 53.348 0.107 6.78 3.13 9.84
10/22/2020 8:30:00 AM 11.86 53.348 0.107 6.79 3.19 9.9
10/22/2020 8:45:00 AM 11.87 53.366 0.107 6.79 3.09 9.85
10/22/2020 9:00:00 AM 11.89 53.402 0.107 6.8 3.01 9.91
10/22/2020 9:15:00 AM 11.92 53.456 0.107 6.82 2.9 9.98
10/22/2020 9:30:00 AM 11.95 53.51 0.107 6.83 2.69 10
10/22/2020 9:45:00 AM 11.99 53.582 0.107 6.86 2.59 10.09
10/22/2020 10:00:00 AM 12.07 53.726 0.107 6.88 4.41 10.05
10/22/2020 10:15:00 AM 12.17 53.906 0.107 6.91 6.36 10.1
10/22/2020 10:30:00 AM 12.3 54.14 0.107 6.94 3.08 10.2
10/22/2020 10:45:00 AM 12.43 54.374 0.107 6.96 2.76 10.22
10/22/2020 11:00:00 AM 12.53 54.554 0.107 6.99 2.77 10.22
10/22/2020 11:15:00 AM 12.66 54.788 0.107 6.99 2.59 10.18
10/22/2020 11:30:00 AM 12.75 54.95 0.107 7 2.45 10.17
10/22/2020 11:45:00 AM 12.91 55.238 0.107 6.99 2.46 10.11
10/22/2020 12:00:00 PM 13.22 55.796 0.107 7.02 2.54 10.12
10/22/2020 12:15:00 PM 13.45 56.21 0.107 7.07 2.34 10.16
10/22/2020 12:30:00 PM 13.67 56.606 0.107 7.07 2.69 10.12
10/22/2020 12:45:00 PM 13.89 57.002 0.107 7.08 2.64 10.03
10/22/2020 1:00:00 PM 14.15 57.47 0.107 7.08 2.6 9.97
10/22/2020 1:15:00 PM 14.3 57.74 0.107 7.08 6.56 9.94
10/22/2020 1:30:00 PM 14.52 58.136 0.107 7.09 2.48 9.96
10/22/2020 1:45:00 PM 14.7 58.46 0.107 7.07 2.42 9.91
10/22/2020 2:00:00 PM 14.72 58.496 0.107 7.08 2.4 9.86
10/22/2020 2:15:00 PM 14.74 58.532 0.107 7.05 2.44 9.79
10/22/2020 2:30:00 PM 14.73 58.514 0.107 7.03 2.44 9.75
10/22/2020 2:45:00 PM 14.72 58.496 0.107 7 2.58 9.73
10/22/2020 3:00:00 PM 14.71 58.478 0.107 6.99 2.43 9.74
10/22/2020 3:15:00 PM 14.72 58.496 0.107 6.98 2.48 9.72
10/22/2020 3:30:00 PM 14.78 58.604 0.107 6.98 2.58 9.69
10/22/2020 3:45:00 PM 14.89 58.802 0.107 6.98 2.61 9.65
10/22/2020 4:00:00 PM 14.95 58.91 0.107 6.99 2.68 9.61
10/22/2020 4:15:00 PM 14.99 58.982 0.107 6.99 2.66 9.57
10/22/2020 4:30:00 PM 14.98 58.964 0.107 6.98 2.7 9.53
10/22/2020 4:45:00 PM 14.91 58.838 0.107 6.96 2.68 9.46
10/22/2020 5:00:00 PM 14.84 58.712 0.107 6.94 2.59 9.48
10/22/2020 5:15:00 PM 14.74 58.532 0.107 6.91 2.66 9.42
10/22/2020 5:30:00 PM 14.66 58.388 0.107 6.89 2.63 9.41
10/22/2020 5:45:00 PM 14.56 58.208 0.107 6.88 2.63 9.38
10/22/2020 6:00:00 PM 14.48 58.064 0.107 6.88 2.67 9.37
10/22/2020 6:15:00 PM 14.39 57.902 0.107 6.87 2.88 9.38
10/22/2020 6:30:00 PM 14.3 57.74 0.107 6.85 2.69 9.34
10/22/2020 6:45:00 PM 14.2 57.56 0.107 6.84 2.84 9.32
10/22/2020 7:00:00 PM 14.09 57.362 0.107 6.82 2.91 9.29
10/22/2020 7:15:00 PM 14.01 57.218 0.107 6.81 2.82 9.29
10/22/2020 7:30:00 PM 13.93 57.074 0.107 6.8 2.83 9.32
10/22/2020 7:45:00 PM 13.87 56.966 0.107 6.8 2.87 9.25
10/22/2020 8:00:00 PM 13.8 56.84 0.106 6.8 5.96 9.36
10/22/2020 8:15:00 PM 13.73 56.714 0.106 6.81 2.87 9.39
10/22/2020 8:30:00 PM 13.66 56.588 0.106 6.8 2.96 9.4
10/22/2020 8:45:00 PM 13.58 56.444 0.106 6.79 2.88 9.41
10/22/2020 9:00:00 PM 13.5 56.3 0.106 6.79 2.78 9.41
10/22/2020 9:15:00 PM 13.42 56.156 0.106 6.79 2.78 9.44
10/22/2020 9:30:00 PM 13.34 56.012 0.106 6.79 2.76 9.45
10/22/2020 9:45:00 PM 13.25 55.85 0.106 6.79 2.75 9.48
10/22/2020 10:00:00 PM 13.17 55.706 0.106 6.79 2.91 9.5
10/22/2020 10:15:00 PM 13.09 55.562 0.106 6.78 2.84 9.51
10/22/2020 10:30:00 PM 13.02 55.436 0.106 6.78 2.85 9.52
10/22/2020 10:45:00 PM 12.93 55.274 0.106 6.79 2.7 9.54
10/22/2020 11:00:00 PM 12.86 55.148 0.106 6.79 2.72 9.55
10/22/2020 11:15:00 PM 12.78 55.004 0.106 6.79 2.69 9.57
10/22/2020 11:30:00 PM 12.71 54.878 0.106 6.79 2.64 9.6
10/22/2020 11:45:00 PM 12.63 54.734 0.106 6.79 2.74 9.61
10/23/2020 12:00:00 AM 12.55 54.59 0.106 6.79 2.93 9.63
10/23/2020 12:15:00 AM 12.49 54.482 0.106 6.8 3 9.63
10/23/2020 12:30:00 AM 12.41 54.338 0.107 6.8 3.13 9.65
10/23/2020 12:45:00 AM 12.34 54.212 0.107 6.8 3.02 9.67
10/23/2020 1:00:00 AM 12.27 54.086 0.107 6.8 2.9 9.68
10/23/2020 1:15:00 AM 12.19 53.942 0.107 6.79 3.06 9.69
10/23/2020 1:30:00 AM 12.13 53.834 0.107 6.8 2.92 9.72
10/23/2020 1:45:00 AM 12.06 53.708 0.107 6.8 3.06 9.73
10/23/2020 2:00:00 AM 11.99 53.582 0.107 6.81 3.15 9.74
10/23/2020 2:15:00 AM 11.93 53.474 0.107 6.81 3.13 9.75
10/23/2020 2:30:00 AM 11.87 53.366 0.107 6.81 3.04 9.76
10/23/2020 2:45:00 AM 11.81 53.258 0.107 6.81 3.14 9.78
10/23/2020 3:00:00 AM 11.74 53.132 0.107 6.81 3.35 9.8
10/23/2020 3:15:00 AM 11.68 53.024 0.107 6.81 3.33 9.8
10/23/2020 3:30:00 AM 11.63 52.934 0.107 6.82 3.25 9.83
10/23/2020 3:45:00 AM 11.57 52.826 0.107 6.82 3.5 9.83
10/23/2020 4:00:00 AM 11.52 52.736 0.107 6.82 3.45 9.86
10/23/2020 4:15:00 AM 11.46 52.628 0.107 6.81 3.51 9.86
10/23/2020 4:30:00 AM 11.4 52.52 0.107 6.82 3.65 9.86
10/23/2020 4:45:00 AM 11.36 52.448 0.107 6.82 3.64 9.88
10/23/2020 5:00:00 AM 11.34 52.412 0.107 6.82 3.54 9.9
10/23/2020 5:15:00 AM 11.34 52.412 0.107 6.83 3.38 9.91
10/23/2020 5:30:00 AM 11.33 52.394 0.107 6.83 3.35 9.9
10/23/2020 5:45:00 AM 11.33 52.394 0.107 6.83 3.24 9.91
10/23/2020 6:00:00 AM 11.32 52.376 0.107 6.84 3.21 9.93
10/23/2020 6:15:00 AM 11.3 52.34 0.107 6.84 3.41 9.92
10/23/2020 6:30:00 AM 11.29 52.322 0.107 6.84 3.38 9.91
10/23/2020 6:45:00 AM 11.26 52.268 0.107 6.85 3.39 9.93
10/23/2020 7:00:00 AM 11.2 52.16 0.108 6.85 3.41 9.92
10/23/2020 7:15:00 AM 11.14 52.052 0.108 6.85 3.65 9.96
10/23/2020 7:30:00 AM 11.08 51.944 0.108 6.84 3.28 9.97
10/23/2020 7:45:00 AM 11.02 51.836 0.108 6.84 3.25 9.98
10/23/2020 8:00:00 AM 10.96 51.728 0.108 6.84 3.26 10.01
10/23/2020 8:15:00 AM 10.93 51.674 0.108 6.85 3.01 10.07
10/23/2020 8:30:00 AM 10.92 51.656 0.108 6.85 3.07 10.09
10/23/2020 8:45:00 AM 10.95 51.71 0.108 6.85 3.01 10.14
10/23/2020 9:00:00 AM 11.01 51.818 0.108 6.86 3.04 10.2
10/23/2020 9:15:00 AM 11.08 51.944 0.108 6.88 3.02 10.24
10/23/2020 9:30:00 AM 11.15 52.07 0.107 6.9 2.93 10.3
10/23/2020 9:45:00 AM 11.25 52.25 0.107 6.92 3.02 10.32
10/23/2020 10:00:00 AM 11.42 52.556 0.107 6.93 2.96 10.34
10/23/2020 10:15:00 AM 11.6 52.88 0.107 6.97 2.81 10.35
10/23/2020 10:30:00 AM 11.78 53.204 0.107 7 2.92 10.37
10/23/2020 10:45:00 AM 11.93 53.474 0.107 7.03 2.8 10.36
10/23/2020 11:00:00 AM 12.06 53.708 0.107 7.04 2.74 10.31
10/23/2020 11:15:00 AM 12.21 53.978 0.107 7.04 2.7 10.29
10/23/2020 11:30:00 AM 12.46 54.428 0.107 7.06 2.7 10.28
10/23/2020 11:45:00 AM 12.67 54.806 0.107 7.09 2.73 10.26
10/23/2020 12:00:00 PM 12.9 55.22 0.107 7.09 2.67 10.25
10/23/2020 12:15:00 PM 13.2 55.76 0.107 7.11 2.7 10.22
10/23/2020 12:30:00 PM 13.46 56.228 0.107 7.12 2.62 10.18
10/23/2020 12:45:00 PM 13.65 56.57 0.107 7.11 2.73 10.12
10/23/2020 1:00:00 PM 13.81 56.858 0.107 7.1 2.79 10.06
10/23/2020 1:15:00 PM 13.99 57.182 0.107 7.1 2.68 10.03
10/23/2020 1:30:00 PM 14.09 57.362 0.107 7.1 2.62 9.99
10/23/2020 1:45:00 PM 14.2 57.56 0.106 7.08 2.53 9.96
10/23/2020 2:00:00 PM 14.25 57.65 0.106 7.08 2.6 9.93
10/23/2020 2:15:00 PM 14.24 57.632 0.106 7.05 2.61 9.89
10/23/2020 2:30:00 PM 14.33 57.794 0.106 7.04 2.61 9.87
10/23/2020 2:45:00 PM 14.34 57.812 0.106 7.05 2.49 9.88
10/23/2020 3:00:00 PM 14.32 57.776 0.106 7.03 2.5 9.86
10/23/2020 3:15:00 PM 14.3 57.74 0.106 7.02 2.66 9.81
10/23/2020 3:30:00 PM 14.3 57.74 0.106 7.01 2.59 9.8
10/23/2020 3:45:00 PM 14.33 57.794 0.106 7 2.64 9.76
10/23/2020 4:00:00 PM 14.37 57.866 0.106 7 2.64 9.74
10/23/2020 4:15:00 PM 14.39 57.902 0.106 6.99 2.71 9.73
10/23/2020 4:30:00 PM 14.39 57.902 0.106 6.99 2.5 9.71
10/23/2020 4:45:00 PM 14.36 57.848 0.106 6.98 2.56 9.66
10/23/2020 5:00:00 PM 14.31 57.758 0.106 6.97 2.58 9.6
10/23/2020 5:15:00 PM 14.27 57.686 0.106 6.96 2.57 9.57
10/23/2020 5:30:00 PM 14.21 57.578 0.106 6.95 2.69 9.54
10/23/2020 5:45:00 PM 14.16 57.488 0.106 6.94 2.7 9.5
10/23/2020 6:00:00 PM 14.1 57.38 0.106 6.93 2.61 9.47
10/23/2020 6:15:00 PM 14.03 57.254 0.106 6.92 2.75 9.43
10/23/2020 6:30:00 PM 13.95 57.11 0.106 6.9 2.62 9.41
10/23/2020 6:45:00 PM 13.88 56.984 0.106 6.89 2.74 9.39
10/23/2020 7:00:00 PM 13.81 56.858 0.106 6.89 2.8 9.36
10/23/2020 7:15:00 PM 13.74 56.732 0.106 6.88 2.7 9.33
10/23/2020 7:30:00 PM 13.66 56.588 0.106 6.86 3.1 9.34
10/23/2020 7:45:00 PM 13.59 56.462 0.105 6.86 2.88 9.35
10/23/2020 8:00:00 PM 13.53 56.354 0.105 6.85 3.03 9.34
10/23/2020 8:15:00 PM 13.47 56.246 0.105 6.85 2.95 9.35
10/23/2020 8:30:00 PM 13.42 56.156 0.105 6.85 2.82 9.35
10/23/2020 8:45:00 PM 13.38 56.084 0.105 6.85 2.93 9.36
10/23/2020 9:00:00 PM 13.33 55.994 0.105 6.85 2.81 9.36
10/23/2020 9:15:00 PM 13.29 55.922 0.105 6.85 2.84 9.38
10/23/2020 9:30:00 PM 13.25 55.85 0.105 6.85 2.85 9.4
10/23/2020 9:45:00 PM 13.2 55.76 0.105 6.85 2.82 9.39
10/23/2020 10:00:00 PM 13.15 55.67 0.105 6.84 2.76 9.39
10/23/2020 10:15:00 PM 13.09 55.562 0.105 6.84 2.95 9.4
10/23/2020 10:30:00 PM 13.05 55.49 0.105 6.84 3 9.4
10/23/2020 10:45:00 PM 13 55.4 0.105 6.84 4.24 9.42
10/23/2020 11:00:00 PM 12.96 55.328 0.105 6.84 2.9 9.44
10/23/2020 11:15:00 PM 12.92 55.256 0.105 6.85 3.15 9.46
10/23/2020 11:30:00 PM 12.88 55.184 0.105 6.85 2.92 9.47
10/23/2020 11:45:00 PM 12.86 55.148 0.105 6.84 3.42 9.45
10/24/2020 12:00:00 AM 12.84 55.112 0.105 6.85 2.83 9.46
10/24/2020 12:15:00 AM 12.83 55.094 0.105 6.85 2.95 9.45
10/24/2020 12:30:00 AM 12.81 55.058 0.105 6.85 2.82 9.44
10/24/2020 12:45:00 AM 12.79 55.022 0.105 6.85 2.87 9.48
10/24/2020 1:00:00 AM 12.78 55.004 0.105 6.85 2.98 9.47
10/24/2020 1:15:00 AM 12.77 54.986 0.105 6.86 3.29 9.47
10/24/2020 1:30:00 AM 12.78 55.004 0.105 6.86 3.44 9.47
10/24/2020 1:45:00 AM 12.79 55.022 0.105 6.86 3.29 9.46
10/24/2020 2:00:00 AM 12.8 55.04 0.105 6.86 3.12 9.47
10/24/2020 2:15:00 AM 12.8 55.04 0.105 6.86 3.66 9.46
10/24/2020 2:30:00 AM 12.79 55.022 0.105 6.86 3.07 9.49
10/24/2020 2:45:00 AM 12.79 55.022 0.105 6.86 3.03 9.46
10/24/2020 3:00:00 AM 12.77 54.986 0.105 6.86 2.98 9.45
10/24/2020 3:15:00 AM 12.76 54.968 0.105 6.86 3.31 9.45
10/24/2020 3:30:00 AM 12.75 54.95 0.106 6.86 2.86 9.47
10/24/2020 3:45:00 AM 12.74 54.932 0.106 6.86 2.92 9.48
10/24/2020 4:00:00 AM 12.73 54.914 0.106 6.86 2.86 9.47
10/24/2020 4:15:00 AM 12.73 54.914 0.106 6.86 2.92 9.46
10/24/2020 4:30:00 AM 12.73 54.914 0.106 6.86 2.92 9.47
10/24/2020 4:45:00 AM 12.73 54.914 0.106 6.85 2.82 9.47
10/24/2020 5:00:00 AM 12.73 54.914 0.106 6.86 3 9.47
10/24/2020 5:15:00 AM 12.73 54.914 0.106 6.85 2.9 9.48
10/24/2020 5:30:00 AM 12.74 54.932 0.106 6.86 2.85 9.47
10/24/2020 5:45:00 AM 12.72 54.896 0.106 6.86 2.89 9.47
10/24/2020 6:00:00 AM 12.69 54.842 0.106 6.87 2.92 9.49
10/24/2020 6:15:00 AM 12.65 54.77 0.106 6.88 2.82 9.5
10/24/2020 6:30:00 AM 12.59 54.662 0.106 6.89 3.16 9.5
10/24/2020 6:45:00 AM 12.53 54.554 0.106 6.9 2.92 9.51
10/24/2020 7:00:00 AM 12.46 54.428 0.106 6.89 3.04 9.54
10/24/2020 7:15:00 AM 12.39 54.302 0.106 6.89 2.94 9.55
10/24/2020 7:30:00 AM 12.32 54.176 0.106 6.88 3.1 9.57
10/24/2020 7:45:00 AM 12.27 54.086 0.106 6.89 3.1 9.58
10/24/2020 8:00:00 AM 12.2 53.96 0.106 6.89 2.95 9.64
10/24/2020 8:15:00 AM 12.13 53.834 0.106 6.89 3.12 9.66
10/24/2020 8:30:00 AM 12.08 53.744 0.106 6.9 2.93 9.71
10/24/2020 8:45:00 AM 12.07 53.726 0.106 6.9 2.96 9.77
10/24/2020 9:00:00 AM 12.07 53.726 0.106 6.91 3.09 9.84
10/24/2020 9:15:00 AM 12.03 53.654 0.106 6.91 2.98 9.84
10/24/2020 9:30:00 AM 12.02 53.636 0.106 6.92 3.11 9.89
10/24/2020 9:45:00 AM 12.03 53.654 0.106 6.93 3.09 9.96
10/24/2020 10:00:00 AM 12.06 53.708 0.106 6.94 2.99 9.99
10/24/2020 10:15:00 AM 12.08 53.744 0.106 6.95 2.89 10.05
10/24/2020 10:30:00 AM 12.07 53.726 0.106 6.95 2.86 10.09
10/24/2020 10:45:00 AM 12.06 53.708 0.106 6.96 2.77 10.12
10/24/2020 11:00:00 AM 12.05 53.69 0.105 6.96 2.71 10.13
10/24/2020 11:15:00 AM 12.09 53.762 0.105 6.97 2.91 10.18
10/24/2020 11:30:00 AM 12.13 53.834 0.105 6.98 2.74 10.22
10/24/2020 11:45:00 AM 12.16 53.888 0.105 7 2.7 10.25
10/24/2020 12:00:00 PM 12.19 53.942 0.105 7.01 2.69 10.27
10/24/2020 12:15:00 PM 12.21 53.978 0.105 7.02 2.68 10.29
10/24/2020 12:30:00 PM 12.23 54.014 0.105 7.03 2.61 10.28
10/24/2020 12:45:00 PM 12.27 54.086 0.105 7.03 2.65 10.3
10/24/2020 1:00:00 PM 12.27 54.086 0.105 7.03 2.75 10.3
10/24/2020 1:15:00 PM 12.26 54.068 0.105 7.04 2.67 10.28
10/24/2020 1:30:00 PM 12.24 54.032 0.105 7.04 2.58 10.28
10/24/2020 1:45:00 PM 12.22 53.996 0.105 7.04 2.71 10.29
10/24/2020 2:00:00 PM 12.21 53.978 0.105 7.04 2.76 10.28
10/24/2020 2:15:00 PM 12.22 53.996 0.105 7.04 2.67 10.3
10/24/2020 2:30:00 PM 12.26 54.068 0.105 7.04 3.05 10.31
10/24/2020 2:45:00 PM 12.3 54.14 0.105 7.04 2.81 10.3
10/24/2020 3:00:00 PM 12.31 54.158 0.105 7.04 2.82 10.32
10/24/2020 3:15:00 PM 12.3 54.14 0.105 7.05 2.81 10.29
10/24/2020 3:30:00 PM 12.29 54.122 0.105 7.05 2.77 10.28
10/24/2020 3:45:00 PM 12.27 54.086 0.105 7.05 2.94 10.27
10/24/2020 4:00:00 PM 12.28 54.104 0.105 7.05 2.9 10.25
10/24/2020 4:15:00 PM 12.28 54.104 0.105 7.05 2.89 10.25
10/24/2020 4:30:00 PM 12.28 54.104 0.104 7.04 2.93 10.2
10/24/2020 4:45:00 PM 12.25 54.05 0.104 7.04 2.94 10.18
10/24/2020 5:00:00 PM 12.19 53.942 0.104 7.03 3 10.15
10/24/2020 5:15:00 PM 12.09 53.762 0.105 7.02 2.97 10.11
10/24/2020 5:30:00 PM 11.96 53.528 0.105 7.01 2.95 10.07
10/24/2020 5:45:00 PM 11.85 53.33 0.105 7 3.16 10.05
10/24/2020 6:00:00 PM 11.74 53.132 0.105 6.99 3.06 10.02
10/24/2020 6:15:00 PM 11.63 52.934 0.105 6.98 3.18 10.01
10/24/2020 6:30:00 PM 11.54 52.772 0.104 6.96 3.05 9.98
10/24/2020 6:45:00 PM 11.44 52.592 0.104 6.95 3.32 9.99
10/24/2020 7:00:00 PM 11.37 52.466 0.104 6.94 3.27 9.98
10/24/2020 7:15:00 PM 11.28 52.304 0.104 6.93 3.21 9.96
10/24/2020 7:30:00 PM 11.22 52.196 0.104 6.92 3.46 9.95
10/24/2020 7:45:00 PM 11.15 52.07 0.104 6.91 3.41 9.95
10/24/2020 8:00:00 PM 11.07 51.926 0.104 6.9 3.27 9.97
10/24/2020 8:15:00 PM 11.01 51.818 0.104 6.9 3.3 9.98
10/24/2020 8:30:00 PM 10.96 51.728 0.104 6.91 3.1 10.02
10/24/2020 8:45:00 PM 10.9 51.62 0.104 6.91 3.27 10.04
10/24/2020 9:00:00 PM 10.84 51.512 0.104 6.91 3.4 10.07
10/24/2020 9:15:00 PM 10.78 51.404 0.104 6.91 3.17 10.09
10/24/2020 9:30:00 PM 10.73 51.314 0.104 6.91 3.15 10.09
10/24/2020 9:45:00 PM 10.67 51.206 0.104 6.9 3 10.1
10/24/2020 10:00:00 PM 10.6 51.08 0.103 6.9 3.1 10.12
10/24/2020 10:15:00 PM 10.54 50.972 0.103 6.9 3 10.13
10/24/2020 10:30:00 PM 10.48 50.864 0.103 6.9 3.08 10.17
10/24/2020 10:45:00 PM 10.42 50.756 0.103 6.9 3.27 10.18
10/24/2020 11:00:00 PM 10.37 50.666 0.103 6.9 3.57 10.17
10/24/2020 11:15:00 PM 10.33 50.594 0.103 6.9 3.42 10.17
10/24/2020 11:30:00 PM 10.26 50.468 0.103 6.9 3.66 10.2
10/24/2020 11:45:00 PM 10.22 50.396 0.103 6.9 3.63 10.22
10/25/2020 12:00:00 AM 10.17 50.306 0.103 6.9 3.57 10.24
10/25/2020 12:15:00 AM 10.12 50.216 0.103 6.9 3.84 10.25
10/25/2020 12:30:00 AM 10.07 50.126 0.103 6.9 3.34 10.27
10/25/2020 12:45:00 AM 10.02 50.036 0.103 6.9 3.2 10.27
10/25/2020 1:00:00 AM 9.97 49.946 0.103 6.91 3.17 10.28
10/25/2020 1:15:00 AM 9.92 49.856 0.103 6.9 3.01 10.3
10/25/2020 1:30:00 AM 9.84 49.712 0.103 6.9 3.13 10.33
10/25/2020 1:45:00 AM 9.77 49.586 0.103 6.91 3.2 10.35
10/25/2020 2:00:00 AM 9.71 49.478 0.103 6.91 3 10.36
10/25/2020 2:15:00 AM 9.65 49.37 0.104 6.91 3.26 10.37
10/25/2020 2:30:00 AM 9.57 49.226 0.104 6.91 3.26 10.38
10/25/2020 2:45:00 AM 9.46 49.028 0.104 6.9 3.04 10.4
10/25/2020 3:00:00 AM 9.31 48.758 0.104 6.91 3.08 10.43
10/25/2020 3:15:00 AM 9.2 48.56 0.104 6.9 3.08 10.45
10/25/2020 3:30:00 AM 9.04 48.272 0.104 6.9 3.19 10.5
10/25/2020 3:45:00 AM 8.92 48.056 0.104 6.9 2.97 10.54
10/25/2020 4:00:00 AM 8.77 47.786 0.104 6.89 3.26 10.58
10/25/2020 4:15:00 AM 8.65 47.57 0.104 6.89 3.07 10.6
10/25/2020 4:30:00 AM 8.52 47.336 0.104 6.88 3.13 10.62
10/25/2020 4:45:00 AM 8.41 47.138 0.104 6.88 3.02 10.67
10/25/2020 5:00:00 AM 8.3 46.94 0.104 6.87 3.1 10.7
10/25/2020 5:15:00 AM 8.19 46.742 0.104 6.87 3.17 10.73
10/25/2020 5:30:00 AM 8.08 46.544 0.104 6.87 3.08 10.76
10/25/2020 5:45:00 AM 7.99 46.382 0.104 6.87 3.04 10.8
10/25/2020 6:00:00 AM 7.91 46.238 0.104 6.87 3.12 10.81
10/25/2020 6:15:00 AM 7.79 46.022 0.104 6.87 3.12 10.87
10/25/2020 6:30:00 AM 7.72 45.896 0.104 6.87 3.27 10.87
10/25/2020 6:45:00 AM 7.63 45.734 0.105 6.88 3.39 10.9
10/25/2020 7:00:00 AM 7.55 45.59 0.105 6.88 3.34 10.92
10/25/2020 7:15:00 AM 7.44 45.392 0.105 6.88 3.36 10.97
10/25/2020 7:30:00 AM 7.37 45.266 0.105 6.87 3.33 10.99
10/25/2020 7:45:00 AM 7.29 45.122 0.105 6.88 2.97 11.03
10/25/2020 8:00:00 AM 7.21 44.978 0.105 6.88 3.16 11.06
10/25/2020 8:15:00 AM 7.14 44.852 0.105 6.88 3.03 11.1
10/25/2020 8:30:00 AM 7.09 44.762 0.105 6.89 2.98 11.14
10/25/2020 8:45:00 AM 7.05 44.69 0.105 6.9 3.19 11.2
10/25/2020 9:00:00 AM 7.06 44.708 0.105 6.9 3.09 11.23
10/25/2020 9:15:00 AM 7.11 44.798 0.105 6.91 3.18 11.31
10/25/2020 9:30:00 AM 7.17 44.906 0.105 6.93 3.03 11.35
10/25/2020 9:45:00 AM 7.23 45.014 0.104 6.94 3 11.38
10/25/2020 10:00:00 AM 7.31 45.158 0.104 6.95 2.9 11.42
10/25/2020 10:15:00 AM 7.41 45.338 0.104 6.96 2.95 11.46
10/25/2020 10:30:00 AM 7.5 45.5 0.104 6.98 2.87 11.48
10/25/2020 10:45:00 AM 7.63 45.734 0.104 6.99 2.81 11.48
10/25/2020 11:00:00 AM 7.77 45.986 0.104 7.01 2.74 11.5
10/25/2020 11:15:00 AM 7.91 46.238 0.104 7.03 2.74 11.51
10/25/2020 11:30:00 AM 8.03 46.454 0.104 7.06 2.75 11.5
10/25/2020 11:45:00 AM 8.13 46.634 0.104 7.08 2.7 11.49
10/25/2020 12:00:00 PM 8.31 46.958 0.104 7.1 2.63 11.49
10/25/2020 12:15:00 PM 8.42 47.156 0.104 7.11 2.59 11.48
10/25/2020 12:30:00 PM 8.54 47.372 0.104 7.12 2.55 11.47
10/25/2020 12:45:00 PM 8.66 47.588 0.104 7.12 2.59 11.44
10/25/2020 1:00:00 PM 8.78 47.804 0.104 7.11 2.59 11.4
10/25/2020 1:15:00 PM 8.82 47.876 0.104 7.1 2.56 11.36
10/25/2020 1:30:00 PM 8.93 48.074 0.104 7.11 2.55 11.33
10/25/2020 1:45:00 PM 9.08 48.344 0.104 7.11 2.55 11.31
10/25/2020 2:00:00 PM 9.22 48.596 0.103 7.12 2.63 11.29
10/25/2020 2:15:00 PM 9.35 48.83 0.103 7.13 2.59 11.27
10/25/2020 2:30:00 PM 9.43 48.974 0.103 7.13 2.57 11.25
10/25/2020 2:45:00 PM 9.45 49.01 0.103 7.14 2.56 11.22
10/25/2020 3:00:00 PM 9.46 49.028 0.103 7.13 2.48 11.22
10/25/2020 3:15:00 PM 9.41 48.938 0.103 7.11 2.52 11.21
10/25/2020 3:30:00 PM 9.35 48.83 0.103 7.09 2.51 11.19
10/25/2020 3:45:00 PM 9.26 48.668 0.103 7.07 2.53 11.18
10/25/2020 4:00:00 PM 9.19 48.542 0.103 7.06 2.51 11.18
10/25/2020 4:15:00 PM 9.14 48.452 0.103 7.04 2.47 11.17
10/25/2020 4:30:00 PM 9.1 48.38 0.103 7.04 2.44 11.15
10/25/2020 4:45:00 PM 9.02 48.236 0.103 7.04 2.47 11.16
10/25/2020 5:00:00 PM 8.96 48.128 0.103 7.03 2.48 11.16
10/25/2020 5:15:00 PM 8.9 48.02 0.103 7.02 2.5 11.12
10/25/2020 5:30:00 PM 8.85 47.93 0.103 7.01 2.47 11.09
10/25/2020 5:45:00 PM 8.78 47.804 0.103 7.01 2.57 11.08
10/25/2020 6:00:00 PM 8.7 47.66 0.103 6.99 2.46 11.06
10/25/2020 6:15:00 PM 8.61 47.498 0.103 6.99 2.43 11.03
10/25/2020 6:30:00 PM 8.51 47.318 0.103 6.98 2.46 11.01
10/25/2020 6:45:00 PM 8.43 47.174 0.103 6.97 2.44 11
10/25/2020 7:00:00 PM 8.38 47.084 0.103 6.96 2.58 10.98
10/25/2020 7:15:00 PM 8.35 47.03 0.103 6.95 2.61 10.98
10/25/2020 7:30:00 PM 8.33 46.994 0.103 6.94 2.52 10.96
10/25/2020 7:45:00 PM 8.32 46.976 0.103 6.94 2.71 10.96
10/25/2020 8:00:00 PM 8.31 46.958 0.103 6.94 2.61 10.96
10/25/2020 8:15:00 PM 8.3 46.94 0.103 6.94 2.81 10.93
10/25/2020 8:30:00 PM 8.3 46.94 0.103 6.94 2.82 10.94
10/25/2020 8:45:00 PM 8.28 46.904 0.102 6.94 2.91 10.95
10/25/2020 9:00:00 PM 8.28 46.904 0.102 6.94 3.01 10.94
10/25/2020 9:15:00 PM 8.27 46.886 0.102 6.94 2.97 10.95
10/25/2020 9:30:00 PM 8.26 46.868 0.102 6.95 2.97 10.94
10/25/2020 9:45:00 PM 8.26 46.868 0.102 6.94 3.08 10.95
10/25/2020 10:00:00 PM 8.25 46.85 0.102 6.94 3.11 10.93
10/25/2020 10:15:00 PM 8.24 46.832 0.102 6.94 2.98 10.94
10/25/2020 10:30:00 PM 8.23 46.814 0.102 6.95 2.92 10.95
10/25/2020 10:45:00 PM 8.2 46.76 0.102 6.95 2.9 10.96
10/25/2020 11:00:00 PM 8.18 46.724 0.102 6.95 2.9 10.97
10/25/2020 11:15:00 PM 8.17 46.706 0.102 6.94 2.77 10.96
10/25/2020 11:30:00 PM 8.15 46.67 0.102 6.95 2.81 10.96
10/25/2020 11:45:00 PM 8.13 46.634 0.102 6.94 2.77 10.97
10/26/2020 12:00:00 AM 8.11 46.598 0.102 6.95 2.85 10.96
10/26/2020 12:15:00 AM 8.09 46.562 0.102 6.95 3.15 10.95
10/26/2020 12:30:00 AM 8.07 46.526 0.102 6.95 3.09 10.95
10/26/2020 12:45:00 AM 8.05 46.49 0.102 6.94 3.24 10.95
10/26/2020 1:00:00 AM 8.04 46.472 0.102 6.95 3.18 10.97
10/26/2020 1:15:00 AM 8.02 46.436 0.102 6.95 3.27 10.96
10/26/2020 1:30:00 AM 8 46.4 0.102 6.95 3.19 10.97
10/26/2020 1:45:00 AM 7.99 46.382 0.102 6.94 3.17 10.96
10/26/2020 2:00:00 AM 7.97 46.346 0.102 6.94 3.11 10.95
10/26/2020 2:15:00 AM 7.96 46.328 0.102 6.95 3.08 10.96
10/26/2020 2:30:00 AM 7.95 46.31 0.102 6.94 3.13 10.96
10/26/2020 2:45:00 AM 7.94 46.292 0.102 6.94 2.98 10.97
10/26/2020 3:00:00 AM 7.94 46.292 0.102 6.95 2.97 10.96
10/26/2020 3:15:00 AM 7.93 46.274 0.102 6.95 2.87 10.98
10/26/2020 3:30:00 AM 7.93 46.274 0.102 6.94 2.79 10.98
10/26/2020 3:45:00 AM 7.92 46.256 0.102 6.95 2.88 10.98
10/26/2020 4:00:00 AM 7.92 46.256 0.102 6.95 3.04 10.97
10/26/2020 4:15:00 AM 7.92 46.256 0.102 6.94 2.99 10.96
10/26/2020 4:30:00 AM 7.92 46.256 0.102 6.95 2.84 10.98
10/26/2020 4:45:00 AM 7.92 46.256 0.102 6.95 2.8 10.97
10/26/2020 5:00:00 AM 7.91 46.238 0.102 6.95 3.02 10.99
10/26/2020 5:15:00 AM 7.9 46.22 0.102 6.95 3.31 10.99
10/26/2020 5:30:00 AM 7.89 46.202 0.102 6.95 3.49 10.97
10/26/2020 5:45:00 AM 7.9 46.22 0.102 6.95 3.43 10.98
10/26/2020 6:00:00 AM 7.9 46.22 0.102 6.95 3.37 10.96
10/26/2020 6:15:00 AM 7.9 46.22 0.102 6.94 3.43 10.96
10/26/2020 6:30:00 AM 7.9 46.22 0.102 6.94 3.3 10.95
10/26/2020 6:45:00 AM 7.9 46.22 0.102 6.94 3.2 10.94
10/26/2020 7:00:00 AM 7.91 46.238 0.102 6.94 3.25 10.95
10/26/2020 7:15:00 AM 7.91 46.238 0.103 6.95 3.25 10.95
10/26/2020 7:30:00 AM 7.92 46.256 0.103 6.94 3.08 10.96
10/26/2020 7:45:00 AM 7.92 46.256 0.103 6.94 4.08 10.9
10/26/2020 8:00:00 AM 7.93 46.274 0.103 6.94 3.14 10.95
10/26/2020 8:15:00 AM 7.93 46.274 0.103 6.95 3.02 10.97
10/26/2020 8:30:00 AM 7.94 46.292 0.103 6.94 3.28 10.93
10/26/2020 8:45:00 AM 7.96 46.328 0.103 6.95 2.94 11
10/26/2020 9:00:00 AM 7.97 46.346 0.103 6.95 2.89 11.01
10/26/2020 9:15:00 AM 7.99 46.382 0.102 6.96 2.93 11.03
10/26/2020 9:30:00 AM 8.01 46.418 0.102 6.96 3.17 11.04
10/26/2020 9:45:00 AM 8.03 46.454 0.102 6.96 3.23 11.05
10/26/2020 10:00:00 AM 8.05 46.49 0.102 6.96 2.76 11.07
10/26/2020 10:15:00 AM 8.08 46.544 0.102 6.97 2.62 11.09
10/26/2020 10:30:00 AM 8.13 46.634 0.102 6.97 2.72 11.1
10/26/2020 10:45:00 AM 8.18 46.724 0.102 6.98 2.56 11.15
10/26/2020 11:00:00 AM 8.22 46.796 0.102 6.99 2.92 11.15
10/26/2020 11:15:00 AM 8.26 46.868 0.102 7 3.02 11.15
10/26/2020 11:30:00 AM 8.31 46.958 0.102 7 2.87 11.14
10/26/2020 11:45:00 AM 8.36 47.048 0.102 7.01 2.56 11.17
10/26/2020 12:00:00 PM 8.41 47.138 0.102 7.02 3.51 11.18
10/26/2020 12:15:00 PM 8.45 47.21 0.102 7.02 2.4 11.2
10/26/2020 12:30:00 PM 8.49 47.282 0.102 7.03 2.43 11.21
10/26/2020 12:45:00 PM 8.54 47.372 0.102 7.03 2.5 11.18
10/26/2020 1:00:00 PM 8.59 47.462 0.102 7.02 2.44 11.14
10/26/2020 1:15:00 PM 8.62 47.516 0.102 7.04 2.44 11.19
10/26/2020 1:30:00 PM 8.63 47.534 0.102 7.03 2.36 11.15
10/26/2020 1:45:00 PM 8.65 47.57 0.102 7.03 2.42 11.15
10/26/2020 2:00:00 PM 8.7 47.66 0.102 7.03 2.34 11.13
10/26/2020 2:15:00 PM 8.74 47.732 0.102 7.04 2.39 11.15
10/26/2020 2:30:00 PM 8.78 47.804 0.102 7.03 2.45 11.16
10/26/2020 2:45:00 PM 8.81 47.858 0.102 7.02 2.34 11.13
10/26/2020 3:00:00 PM 8.83 47.894 0.102 7.02 2.35 11.12
10/26/2020 3:15:00 PM 8.85 47.93 0.102 7.02 2.37 11.06
10/26/2020 3:30:00 PM 8.87 47.966 0.102 7.02 2.35 11.08
10/26/2020 3:45:00 PM 8.88 47.984 0.102 7.01 2.41 11.03
10/26/2020 4:00:00 PM 8.89 48.002 0.102 7.01 2.42 11.02
10/26/2020 4:15:00 PM 8.89 48.002 0.102 7 2.39 11.02
10/26/2020 4:30:00 PM 8.9 48.02 0.102 7 2.68 10.95
10/26/2020 4:45:00 PM 8.9 48.02 0.102 6.99 2.47 10.98
10/26/2020 5:00:00 PM 8.9 48.02 0.102 6.98 2.73 10.9
10/26/2020 5:15:00 PM 8.9 48.02 0.102 6.98 2.56 10.92
10/26/2020 5:30:00 PM 8.9 48.02 0.102 6.98 2.44 10.9
10/26/2020 5:45:00 PM 8.9 48.02 0.102 6.97 2.45 10.87
10/26/2020 6:00:00 PM 8.9 48.02 0.102 6.96 2.39 10.85
10/26/2020 6:15:00 PM 8.89 48.002 0.102 6.96 2.55 10.83
10/26/2020 6:30:00 PM 8.89 48.002 0.102 6.95 2.49 10.82
10/26/2020 6:45:00 PM 8.89 48.002 0.101 6.94 2.43 10.81
10/26/2020 7:00:00 PM 8.89 48.002 0.101 6.94 2.57 10.79
10/26/2020 7:15:00 PM 8.89 48.002 0.101 6.93 2.61 10.78
10/26/2020 7:30:00 PM 8.89 48.002 0.101 6.92 2.68 10.76
10/26/2020 7:45:00 PM 8.9 48.02 0.101 6.92 2.66 10.76
10/26/2020 8:00:00 PM 8.91 48.038 0.101 6.92 2.88 10.75
10/26/2020 8:15:00 PM 8.92 48.056 0.101 6.91 2.74 10.74
10/26/2020 8:30:00 PM 8.93 48.074 0.101 6.91 2.9 10.72
10/26/2020 8:45:00 PM 8.94 48.092 0.101 6.92 2.66 10.72
10/26/2020 9:00:00 PM 8.94 48.092 0.101 6.92 2.67 10.71
10/26/2020 9:15:00 PM 8.94 48.092 0.101 6.92 2.72 10.72
10/26/2020 9:30:00 PM 8.95 48.11 0.101 6.93 2.63 10.73
10/26/2020 9:45:00 PM 8.94 48.092 0.101 6.93 2.57 10.73
10/26/2020 10:00:00 PM 8.94 48.092 0.101 6.93 2.55 10.74
10/26/2020 10:15:00 PM 8.92 48.056 0.101 6.94 2.64 10.74
10/26/2020 10:30:00 PM 8.9 48.02 0.101 6.94 2.76 10.76
10/26/2020 10:45:00 PM 8.88 47.984 0.101 6.93 2.62 10.74
10/26/2020 11:00:00 PM 8.85 47.93 0.101 6.92 2.7 10.74
10/26/2020 11:15:00 PM 8.83 47.894 0.101 6.93 2.83 10.75
10/26/2020 11:30:00 PM 8.8 47.84 0.101 6.93 2.88 10.78
10/26/2020 11:45:00 PM 8.78 47.804 0.101 6.93 2.5 10.77
10/27/2020 12:00:00 AM 8.76 47.768 0.101 6.93 2.8 10.78
10/27/2020 12:15:00 AM 8.74 47.732 0.101 6.93 2.66 10.77
10/27/2020 12:30:00 AM 8.72 47.696 0.101 6.93 2.68 10.77
10/27/2020 12:45:00 AM 8.71 47.678 0.101 6.93 2.6 10.78
10/27/2020 1:00:00 AM 8.69 47.642 0.101 6.92 2.76 10.78
10/27/2020 1:15:00 AM 8.67 47.606 0.101 6.92 2.65 10.8
10/27/2020 1:30:00 AM 8.66 47.588 0.101 6.93 2.79 10.79
10/27/2020 1:45:00 AM 8.65 47.57 0.101 6.92 2.79 10.79
10/27/2020 2:00:00 AM 8.63 47.534 0.101 6.92 2.7 10.8
10/27/2020 2:15:00 AM 8.62 47.516 0.101 6.92 2.93 10.8
10/27/2020 2:30:00 AM 8.6 47.48 0.101 6.92 4.3 10.8
10/27/2020 2:45:00 AM 8.59 47.462 0.101 6.92 2.86 10.81
10/27/2020 3:00:00 AM 8.58 47.444 0.101 6.93 2.94 10.81
10/27/2020 3:15:00 AM 8.56 47.408 0.102 6.93 2.97 10.79
10/27/2020 3:30:00 AM 8.55 47.39 0.102 6.93 2.98 10.81
10/27/2020 3:45:00 AM 8.54 47.372 0.102 6.93 2.91 10.81
10/27/2020 4:00:00 AM 8.52 47.336 0.102 6.93 2.86 10.81
10/27/2020 4:15:00 AM 8.51 47.318 0.102 6.93 2.84 10.82
10/27/2020 4:30:00 AM 8.5 47.3 0.102 6.93 2.83 10.81
10/27/2020 4:45:00 AM 8.49 47.282 0.102 6.93 3.11 10.82
10/27/2020 5:00:00 AM 8.47 47.246 0.102 6.93 2.9 10.84
10/27/2020 5:15:00 AM 8.45 47.21 0.102 6.93 3.07 10.84
10/27/2020 5:30:00 AM 8.44 47.192 0.102 6.93 3.12 10.84
10/27/2020 5:45:00 AM 8.43 47.174 0.102 6.93 3.14 10.87
10/27/2020 6:00:00 AM 8.41 47.138 0.102 6.93 3.04 10.86
10/27/2020 6:15:00 AM 8.4 47.12 0.102 6.93 3.13 10.87
10/27/2020 6:30:00 AM 8.38 47.084 0.102 6.94 2.93 10.87
10/27/2020 6:45:00 AM 8.37 47.066 0.102 6.93 2.99 10.88
10/27/2020 7:00:00 AM 8.36 47.048 0.102 6.94 2.8 10.88
10/27/2020 7:15:00 AM 8.34 47.012 0.102 6.93 2.82 10.86
10/27/2020 7:30:00 AM 8.33 46.994 0.102 6.93 2.86 10.89
10/27/2020 7:45:00 AM 8.31 46.958 0.102 6.93 2.8 10.9
10/27/2020 8:00:00 AM 8.3 46.94 0.102 6.93 2.84 10.91
10/27/2020 8:15:00 AM 8.29 46.922 0.102 6.93 2.71 10.92
10/27/2020 8:30:00 AM 8.3 46.94 0.102 6.93 2.74 10.95
10/27/2020 8:45:00 AM 8.31 46.958 0.102 6.94 2.64 10.97
10/27/2020 9:00:00 AM 8.34 47.012 0.102 6.94 2.72 11.04
10/27/2020 9:15:00 AM 8.39 47.102 0.102 6.95 2.59 11.05
10/27/2020 9:30:00 AM 8.46 47.228 0.102 6.96 2.6 11.09
10/27/2020 9:45:00 AM 8.48 47.264 0.101 6.98 2.48 11.15
10/27/2020 10:00:00 AM 8.51 47.318 0.102 6.99 2.53 11.1
10/27/2020 10:15:00 AM 8.59 47.462 0.101 6.99 2.52 11.14
10/27/2020 10:30:00 AM 8.62 47.516 0.101 7.01 2.62 11.2
10/27/2020 10:45:00 AM 8.68 47.624 0.101 7.01 2.57 11.16
10/27/2020 11:00:00 AM 8.79 47.822 0.101 7.02 2.44 11.25
10/27/2020 11:15:00 AM 8.9 48.02 0.101 7.05 2.44 11.25
10/27/2020 11:30:00 AM 8.95 48.11 0.101 7.06 2.5 11.24
10/27/2020 11:45:00 AM 8.99 48.182 0.101 7.06 2.49 11.24
10/27/2020 12:00:00 PM 9.04 48.272 0.101 7.05 2.6 11.23
10/27/2020 12:15:00 PM 9.06 48.308 0.101 7.06 2.46 11.21
10/27/2020 12:30:00 PM 9.08 48.344 0.101 7.05 2.42 11.23
10/27/2020 12:45:00 PM 9.09 48.362 0.101 7.04 2.45 11.2
10/27/2020 1:00:00 PM 9.09 48.362 0.101 7.04 2.52 11.22
10/27/2020 1:15:00 PM 9.11 48.398 0.101 7.04 2.54 11.2
10/27/2020 1:30:00 PM 9.11 48.398 0.101 7.04 2.34 11.21
10/27/2020 1:45:00 PM 9.08 48.344 0.101 7.03 2.54 11.2
10/27/2020 2:00:00 PM 9.06 48.308 0.101 7.02 2.43 11.19
10/27/2020 2:15:00 PM 9.05 48.29 0.101 7.02 2.52 11.16
10/27/2020 2:30:00 PM 9.03 48.254 0.101 7.02 2.47 11.15
10/27/2020 2:45:00 PM 9.01 48.218 0.101 7.01 2.52 11.13
10/27/2020 3:00:00 PM 8.99 48.182 0.101 7.02 2.57 11.11
10/27/2020 3:15:00 PM 8.99 48.182 0.101 7.01 2.6 11.13
10/27/2020 3:30:00 PM 9.01 48.218 0.101 7.01 2.43 11.03
10/27/2020 3:45:00 PM 9.02 48.236 0.101 7.01 2.4 11.08
10/27/2020 4:00:00 PM 9.02 48.236 0.101 7.01 2.52 11.05
10/27/2020 4:15:00 PM 9.02 48.236 0.101 7 2.74 11.04
10/27/2020 4:30:00 PM 9.01 48.218 0.101 7.01 2.52 11.05
10/27/2020 4:45:00 PM 8.99 48.182 0.101 7 2.47 11.05
10/27/2020 5:00:00 PM 8.97 48.146 0.101 7 2.52 11.02
10/27/2020 5:15:00 PM 8.94 48.092 0.101 6.99 2.55 11
10/27/2020 5:30:00 PM 8.9 48.02 0.101 6.98 2.53 10.98
10/27/2020 5:45:00 PM 8.88 47.984 0.101 6.98 2.49 10.94
10/27/2020 6:00:00 PM 8.84 47.912 0.101 6.97 2.53 10.91
10/27/2020 6:15:00 PM 8.82 47.876 0.101 6.97 2.56 10.87
10/27/2020 6:30:00 PM 8.79 47.822 0.101 6.96 2.8 10.83
10/27/2020 6:45:00 PM 8.74 47.732 0.101 6.95 2.73 10.83
10/27/2020 7:00:00 PM 8.71 47.678 0.101 6.94 2.53 10.83
10/27/2020 7:15:00 PM 8.69 47.642 0.101 6.94 2.46 10.83
10/27/2020 7:30:00 PM 8.66 47.588 0.101 6.94 2.56 10.83
10/27/2020 7:45:00 PM 8.62 47.516 0.101 6.94 2.54 10.83
10/27/2020 8:00:00 PM 8.59 47.462 0.1 6.94 2.75 10.82
10/27/2020 8:15:00 PM 8.56 47.408 0.1 6.93 2.74 10.84
10/27/2020 8:30:00 PM 8.54 47.372 0.1 6.93 2.66 10.82
10/27/2020 8:45:00 PM 8.52 47.336 0.1 6.93 3.14 10.83
10/27/2020 9:00:00 PM 8.49 47.282 0.1 6.93 2.68 10.84
10/27/2020 9:15:00 PM 8.47 47.246 0.1 6.92 2.81 10.83
10/27/2020 9:30:00 PM 8.45 47.21 0.1 6.92 2.55 10.85
10/27/2020 9:45:00 PM 8.44 47.192 0.1 6.91 2.65 10.83
10/27/2020 10:00:00 PM 8.4 47.12 0.1 6.92 2.57 10.85
10/27/2020 10:15:00 PM 8.38 47.084 0.1 6.92 2.61 10.83
10/27/2020 10:30:00 PM 8.37 47.066 0.1 6.92 2.59 10.83
10/27/2020 10:45:00 PM 8.35 47.03 0.1 6.91 2.59 10.84
10/27/2020 11:00:00 PM 8.33 46.994 0.1 6.92 2.61 10.83
10/27/2020 11:15:00 PM 8.32 46.976 0.1 6.92 2.48 10.82
10/27/2020 11:30:00 PM 8.3 46.94 0.1 6.92 2.54 10.85
10/27/2020 11:45:00 PM 8.3 46.94 0.1 6.92 2.48 10.82
10/28/2020 12:00:00 AM 8.28 46.904 0.1 6.93 2.54 10.85
10/28/2020 12:15:00 AM 8.27 46.886 0.1 6.92 2.5 10.86
10/28/2020 12:30:00 AM 8.27 46.886 0.1 6.92 2.9 10.86
10/28/2020 12:45:00 AM 8.26 46.868 0.1 6.92 2.57 10.84
10/28/2020 1:00:00 AM 8.25 46.85 0.1 6.92 2.55 10.86
10/28/2020 1:15:00 AM 8.24 46.832 0.1 6.92 2.6 10.84
10/28/2020 1:30:00 AM 8.22 46.796 0.1 6.93 2.63 10.87
10/28/2020 1:45:00 AM 8.22 46.796 0.1 6.92 2.56 10.85
10/28/2020 2:00:00 AM 8.2 46.76 0.1 6.92 2.64 10.85
10/28/2020 2:15:00 AM 8.19 46.742 0.1 6.92 2.77 10.86
10/28/2020 2:30:00 AM 8.18 46.724 0.1 6.92 2.95 10.84
10/28/2020 2:45:00 AM 8.17 46.706 0.1 6.92 2.85 10.84
10/28/2020 3:00:00 AM 8.16 46.688 0.1 6.92 3.04 10.85
10/28/2020 3:15:00 AM 8.14 46.652 0.1 6.91 2.74 10.84
10/28/2020 3:30:00 AM 8.13 46.634 0.1 6.91 3.45 10.86
10/28/2020 3:45:00 AM 8.11 46.598 0.1 6.92 2.97 10.86
10/28/2020 4:00:00 AM 8.1 46.58 0.1 6.92 2.93 10.85
10/28/2020 4:15:00 AM 8.09 46.562 0.1 6.91 2.96 10.84
10/28/2020 4:30:00 AM 8.08 46.544 0.1 6.91 2.97 10.84
10/28/2020 4:45:00 AM 8.07 46.526 0.1 6.91 2.87 10.86
10/28/2020 5:00:00 AM 8.06 46.508 0.1 6.91 2.8 10.87
10/28/2020 5:15:00 AM 8.05 46.49 0.1 6.92 2.84 10.87
10/28/2020 5:30:00 AM 8.04 46.472 0.1 6.91 3.02 10.89
10/28/2020 5:45:00 AM 8.03 46.454 0.1 6.91 2.84 10.89
10/28/2020 6:00:00 AM 8.03 46.454 0.1 6.91 2.91 10.89
10/28/2020 6:15:00 AM 8.02 46.436 0.1 6.91 2.82 10.89
10/28/2020 6:30:00 AM 8.01 46.418 0.1 6.91 2.92 10.88
10/28/2020 6:45:00 AM 8 46.4 0.1 6.92 2.89 10.89
10/28/2020 7:00:00 AM 8 46.4 0.1 6.92 2.91 10.89
10/28/2020 7:15:00 AM 7.99 46.382 0.1 6.91 2.9 10.89
10/28/2020 7:30:00 AM 7.98 46.364 0.1 6.91 3.01 10.91
10/28/2020 7:45:00 AM 7.97 46.346 0.101 6.92 3.04 10.91
10/28/2020 8:00:00 AM 7.96 46.328 0.101 6.92 2.92 10.93
10/28/2020 8:15:00 AM 7.96 46.328 0.101 6.92 2.88 10.94
10/28/2020 8:30:00 AM 7.96 46.328 0.101 6.92 2.78 10.95
10/28/2020 8:45:00 AM 7.96 46.328 0.101 6.92 2.79 10.98
10/28/2020 9:00:00 AM 7.97 46.346 0.101 6.94 2.7 10.99
10/28/2020 9:15:00 AM 7.98 46.364 0.101 6.93 2.83 11.01
10/28/2020 9:30:00 AM 8.01 46.418 0.101 6.93 2.84 11.07
10/28/2020 9:45:00 AM 8.05 46.49 0.101 6.95 2.69 11.11
10/28/2020 10:00:00 AM 8.1 46.58 0.1 6.96 2.67 11.16
10/28/2020 10:15:00 AM 8.15 46.67 0.1 6.97 2.64 11.15
10/28/2020 10:30:00 AM 8.21 46.778 0.1 6.98 2.57 11.2
10/28/2020 10:45:00 AM 8.31 46.958 0.1 6.99 2.53 11.23
10/28/2020 11:00:00 AM 8.38 47.084 0.1 7 2.59 11.26
10/28/2020 11:15:00 AM 8.44 47.192 0.1 7.02 2.4 11.25
10/28/2020 11:30:00 AM 8.54 47.372 0.1 7.03 2.45 11.28
10/28/2020 11:45:00 AM 8.59 47.462 0.1 7.04 2.51 11.26
10/28/2020 12:00:00 PM 8.63 47.534 0.1 7.05 2.5 11.27
10/28/2020 12:15:00 PM 8.7 47.66 0.1 7.04 2.36 11.27
10/28/2020 12:30:00 PM 8.77 47.786 0.1 7.05 2.49 11.27
10/28/2020 12:45:00 PM 8.8 47.84 0.1 7.05 2.47 11.27
10/28/2020 1:00:00 PM 8.83 47.894 0.1 7.05 2.79 11.25
10/28/2020 1:15:00 PM 8.9 48.02 0.1 7.04 2.4 11.25
10/28/2020 1:30:00 PM 8.95 48.11 0.1 7.05 2.43 11.25
10/28/2020 1:45:00 PM 8.99 48.182 0.1 7.05 2.47 11.23
10/28/2020 2:00:00 PM 9.05 48.29 0.1 7.05 2.48 11.23
10/28/2020 2:15:00 PM 9.13 48.434 0.1 7.06 2.52 11.24
10/28/2020 2:30:00 PM 9.27 48.686 0.099 7.06 2.53 11.23
10/28/2020 2:45:00 PM 9.36 48.848 0.099 7.08 2.59 11.21
10/28/2020 3:00:00 PM 9.38 48.884 0.099 7.08 2.69 11.17
10/28/2020 3:15:00 PM 9.36 48.848 0.099 7.08 2.54 11.12
10/28/2020 3:30:00 PM 9.33 48.794 0.099 7.06 2.7 11.08
10/28/2020 3:45:00 PM 9.29 48.722 0.099 7.04 2.74 11.04
10/28/2020 4:00:00 PM 9.29 48.722 0.099 7.03 2.98 11.04
10/28/2020 4:15:00 PM 9.3 48.74 0.099 7.02 2.76 11.05
10/28/2020 4:30:00 PM 9.29 48.722 0.099 7.02 2.91 11.03
10/28/2020 4:45:00 PM 9.3 48.74 0.099 7.01 2.98 11.03
10/28/2020 5:00:00 PM 9.3 48.74 0.099 7.01 3.08 11.01
10/28/2020 5:15:00 PM 9.28 48.704 0.099 7.01 3.09 10.99
10/28/2020 5:30:00 PM 9.22 48.596 0.099 7 3.17 10.96
10/28/2020 5:45:00 PM 9.14 48.452 0.099 6.99 3.09 10.94
10/28/2020 6:00:00 PM 9.06 48.308 0.099 6.98 3.26 10.9
10/28/2020 6:15:00 PM 8.96 48.128 0.099 6.96 3.02 10.87
10/28/2020 6:30:00 PM 8.86 47.948 0.099 6.95 3.2 10.85
10/28/2020 6:45:00 PM 8.77 47.786 0.099 6.94 3.09 10.84
10/28/2020 7:00:00 PM 8.72 47.696 0.099 6.93 3.31 10.81
10/28/2020 7:15:00 PM 8.66 47.588 0.099 6.93 3.08 10.8
10/28/2020 7:30:00 PM 8.61 47.498 0.099 6.91 3.26 10.79
10/28/2020 7:45:00 PM 8.54 47.372 0.099 6.9 3.25 10.81
10/28/2020 8:00:00 PM 8.49 47.282 0.099 6.9 3.08 10.81
10/28/2020 8:15:00 PM 8.43 47.174 0.099 6.9 2.88 10.81
10/28/2020 8:30:00 PM 8.37 47.066 0.099 6.89 3.06 10.85
10/28/2020 8:45:00 PM 8.31 46.958 0.099 6.89 3.54 10.85
10/28/2020 9:00:00 PM 8.26 46.868 0.099 6.88 2.93 10.85
10/28/2020 9:15:00 PM 8.22 46.796 0.099 6.88 2.75 10.88
10/28/2020 9:30:00 PM 8.17 46.706 0.099 6.89 2.78 10.88
10/28/2020 9:45:00 PM 8.11 46.598 0.099 6.88 2.82 10.89
10/28/2020 10:00:00 PM 8.06 46.508 0.099 6.88 2.79 10.91
10/28/2020 10:15:00 PM 7.99 46.382 0.1 6.88 2.66 10.95
10/28/2020 10:30:00 PM 7.94 46.292 0.1 6.88 2.57 10.93
10/28/2020 10:45:00 PM 7.89 46.202 0.1 6.88 2.71 10.95
10/28/2020 11:00:00 PM 7.86 46.148 0.1 6.88 2.69 10.96
10/28/2020 11:15:00 PM 7.81 46.058 0.1 6.88 2.63 10.97
10/28/2020 11:30:00 PM 7.79 46.022 0.1 6.88 2.56 10.97
10/28/2020 11:45:00 PM 7.75 45.95 0.1 6.88 2.55 10.98
10/29/2020 12:00:00 AM 7.72 45.896 0.1 6.89 2.65 10.99
10/29/2020 12:15:00 AM 7.69 45.842 0.1 6.89 2.57 10.99
10/29/2020 12:30:00 AM 7.65 45.77 0.1 6.89 2.6 10.98
10/29/2020 12:45:00 AM 7.62 45.716 0.1 6.88 2.62 11.01
10/29/2020 1:00:00 AM 7.58 45.644 0.1 6.88 2.5 11.02
10/29/2020 1:15:00 AM 7.55 45.59 0.101 6.89 2.51 11.01
10/29/2020 1:30:00 AM 7.52 45.536 0.101 6.89 2.47 11.03
10/29/2020 1:45:00 AM 7.49 45.482 0.101 6.89 2.5 11.03
10/29/2020 2:00:00 AM 7.47 45.446 0.101 6.89 2.5 11.03
10/29/2020 2:15:00 AM 7.44 45.392 0.101 6.89 2.56 11.04
10/29/2020 2:30:00 AM 7.42 45.356 0.101 6.89 2.9 11.05
10/29/2020 2:45:00 AM 7.4 45.32 0.101 6.89 2.52 11.06
10/29/2020 3:00:00 AM 7.39 45.302 0.101 6.89 2.6 11.07
10/29/2020 3:15:00 AM 7.38 45.284 0.101 6.9 2.59 11.06
10/29/2020 3:30:00 AM 7.37 45.266 0.101 6.9 2.58 11.07
10/29/2020 3:45:00 AM 7.36 45.248 0.101 6.9 2.64 11.08
10/29/2020 4:00:00 AM 7.35 45.23 0.102 6.9 2.81 11.05
10/29/2020 4:15:00 AM 7.33 45.194 0.102 6.9 2.67 11.06
10/29/2020 4:30:00 AM 7.32 45.176 0.102 6.9 2.84 11.06
10/29/2020 4:45:00 AM 7.31 45.158 0.102 6.91 2.85 11.07
10/29/2020 5:00:00 AM 7.29 45.122 0.102 6.91 2.82 11.09
10/29/2020 5:15:00 AM 7.28 45.104 0.102 6.91 3.03 11.1
10/29/2020 5:30:00 AM 7.27 45.086 0.102 6.91 2.88 11.11
10/29/2020 5:45:00 AM 7.25 45.05 0.102 6.91 2.83 11.11
10/29/2020 6:00:00 AM 7.24 45.032 0.101 6.91 2.66 11.12
10/29/2020 6:15:00 AM 7.22 44.996 0.101 6.91 3.14 11.12
10/29/2020 6:30:00 AM 7.21 44.978 0.101 6.91 2.81 11.13
10/29/2020 6:45:00 AM 7.19 44.942 0.101 6.92 3.05 11.14
10/29/2020 7:00:00 AM 7.17 44.906 0.101 6.91 2.95 11.14
10/29/2020 7:15:00 AM 7.16 44.888 0.101 6.91 3.15 11.13
10/29/2020 7:30:00 AM 7.14 44.852 0.101 6.91 3.14 11.14
10/29/2020 7:45:00 AM 7.12 44.816 0.1 6.91 3.29 11.15
10/29/2020 8:00:00 AM 7.11 44.798 0.1 6.91 3.31 11.16
10/29/2020 8:15:00 AM 7.09 44.762 0.1 6.91 3.22 11.17
10/29/2020 8:30:00 AM 7.08 44.744 0.1 6.91 3.21 11.2
10/29/2020 8:45:00 AM 7.06 44.708 0.1 6.91 3.09 11.2
10/29/2020 9:00:00 AM 7.05 44.69 0.099 6.91 3.14 11.22
10/29/2020 9:15:00 AM 7.04 44.672 0.099 6.91 3.1 11.24
10/29/2020 9:30:00 AM 7.02 44.636 0.099 6.92 3.04 11.26
10/29/2020 9:45:00 AM 7.01 44.618 0.098 6.92 3.28 11.28
10/29/2020 10:00:00 AM 7 44.6 0.098 6.92 3.53 11.29
10/29/2020 10:15:00 AM 6.98 44.564 0.097 6.92 3.67 11.32
10/29/2020 10:30:00 AM 6.97 44.546 0.097 6.91 3.64 11.33
10/29/2020 10:45:00 AM 6.96 44.528 0.097 6.92 4.12 11.35
10/29/2020 11:00:00 AM 6.96 44.528 0.097 6.91 4.74 11.36
10/29/2020 11:15:00 AM 6.97 44.546 0.097 6.91 4.47 11.37
10/29/2020 11:30:00 AM 6.97 44.546 0.097 6.92 5.1 11.37
10/29/2020 11:45:00 AM 6.98 44.564 0.097 6.92 5.84 11.37
10/29/2020 12:00:00 PM 6.98 44.564 0.097 6.92 6.63 11.38
10/29/2020 12:15:00 PM 6.99 44.582 0.097 6.92 8.15 11.39
10/29/2020 12:30:00 PM 7.02 44.636 0.097 6.94 8.58 11.4
10/29/2020 12:45:00 PM 7.04 44.672 0.097 6.94 9.95 11.4
10/29/2020 1:00:00 PM 7.06 44.708 0.097 6.94 10.57 11.39
10/29/2020 1:15:00 PM 7.07 44.726 0.097 6.94 11.93 11.38
10/29/2020 1:30:00 PM 7.08 44.744 0.097 6.94 12.98 11.37
10/29/2020 1:45:00 PM 7.09 44.762 0.097 6.93 16.19 11.38
10/29/2020 2:00:00 PM 7.11 44.798 0.097 6.92 15.58 11.37
10/29/2020 2:15:00 PM 7.11 44.798 0.097 6.9 21.89 11.36
10/29/2020 2:30:00 PM 7.12 44.816 0.098 6.88 46.32 11.34
10/29/2020 2:45:00 PM 7.14 44.852 0.101 6.87 41.52 11.32
10/29/2020 3:00:00 PM 7.17 44.906 0.105 6.82 45.22 11.29
10/29/2020 3:15:00 PM 7.2 44.96 0.109 6.84 58.91 11.28
10/29/2020 3:30:00 PM 7.22 44.996 0.112 6.82 64.73 11.27
10/29/2020 3:45:00 PM 7.23 45.014 0.113 6.84 63.04 11.27
10/29/2020 4:00:00 PM 7.25 45.05 0.111 6.77 54.51 11.27
10/29/2020 4:15:00 PM 7.27 45.086 0.109 6.7 50.32 11.26
10/29/2020 4:30:00 PM 7.31 45.158 0.108 6.7 27.14 11.24
10/29/2020 4:45:00 PM 7.36 45.248 0.109 6.73 23.31 11.23
10/29/2020 5:00:00 PM 7.41 45.338 0.11 6.68 36.6 11.22
10/29/2020 5:15:00 PM 7.44 45.392 0.111 6.65 30.06 11.2
10/29/2020 5:30:00 PM 7.47 45.446 0.112 6.71 30.49 11.17
10/29/2020 5:45:00 PM 7.5 45.5 0.112 6.74 32.57 11.16
10/29/2020 6:00:00 PM 7.53 45.554 0.112 6.74 31.01 11.15
10/29/2020 6:15:00 PM 7.54 45.572 0.111 6.75 29.78 11.15
10/29/2020 6:30:00 PM 7.56 45.608 0.11 6.74 31.92 11.15
10/29/2020 6:45:00 PM 7.58 45.644 0.109 6.71 24.67 11.14
10/29/2020 7:00:00 PM 7.6 45.68 0.109 6.7 34.47 11.14
10/29/2020 7:15:00 PM 7.61 45.698 0.11 6.69 30.57 11.14
10/29/2020 7:30:00 PM 7.63 45.734 0.11 6.65 22.6 11.14
10/29/2020 7:45:00 PM 7.64 45.752 0.111 6.64 22.86 11.15
10/29/2020 8:00:00 PM 7.65 45.77 0.112 6.64 27.61 11.15
10/29/2020 8:15:00 PM 7.67 45.806 0.113 6.67 20.48 11.15
10/29/2020 8:30:00 PM 7.68 45.824 0.114 6.67 18.57 11.15
10/29/2020 8:45:00 PM 7.69 45.842 0.115 6.69 16.97 11.15
10/29/2020 9:00:00 PM 7.7 45.86 0.115 6.72 15.88 11.16
10/29/2020 9:15:00 PM 7.7 45.86 0.116 6.71 15.62 11.15
10/29/2020 9:30:00 PM 7.7 45.86 0.116 6.71 14.46 11.15
10/29/2020 9:45:00 PM 7.7 45.86 0.117 6.74 13.64 11.14
10/29/2020 10:00:00 PM 7.69 45.842 0.117 6.79 12.63 11.15
10/29/2020 10:15:00 PM 7.68 45.824 0.117 6.79 12.31 11.16
10/29/2020 10:30:00 PM 7.68 45.824 0.118 6.77 11.79 11.16
10/29/2020 10:45:00 PM 7.67 45.806 0.119 6.77 11.04 11.15
10/29/2020 11:00:00 PM 7.66 45.788 0.119 6.81 10.75 11.16
10/29/2020 11:15:00 PM 7.65 45.77 0.119 6.81 10.53 11.16
10/29/2020 11:30:00 PM 7.63 45.734 0.12 6.83 10.15 11.16
10/29/2020 11:45:00 PM 7.62 45.716 0.12 6.84 9.8 11.17
10/30/2020 12:00:00 AM 7.6 45.68 0.12 6.8 9.21 11.17
10/30/2020 12:15:00 AM 7.58 45.644 0.121 6.78 9.16 11.17
10/30/2020 12:30:00 AM 7.56 45.608 0.121 6.77 8.76 11.18
10/30/2020 12:45:00 AM 7.54 45.572 0.121 6.76 9.18 11.18
10/30/2020 1:00:00 AM 7.52 45.536 0.121 6.76 8.71 11.18
10/30/2020 1:15:00 AM 7.49 45.482 0.121 6.75 8.59 11.19
10/30/2020 1:30:00 AM 7.47 45.446 0.121 6.72 8.58 11.19
10/30/2020 1:45:00 AM 7.45 45.41 0.121 6.74 9.1 11.2
10/30/2020 2:00:00 AM 7.43 45.374 0.122 6.76 8.63 11.2
10/30/2020 2:15:00 AM 7.41 45.338 0.122 6.76 8.12 11.2
10/30/2020 2:30:00 AM 7.39 45.302 0.122 6.76 9.6 11.21
10/30/2020 2:45:00 AM 7.37 45.266 0.122 6.77 8.75 11.21
10/30/2020 3:00:00 AM 7.35 45.23 0.122 6.76 7.93 11.22
10/30/2020 3:15:00 AM 7.32 45.176 0.122 6.75 7.68 11.24
10/30/2020 3:30:00 AM 7.29 45.122 0.122 6.74 7.49 11.25
10/30/2020 3:45:00 AM 7.26 45.068 0.122 6.75 7.47 11.26
10/30/2020 4:00:00 AM 7.19 44.942 0.122 6.75 7.68 11.28
10/30/2020 4:15:00 AM 7.12 44.816 0.121 6.75 7.23 11.29
10/30/2020 4:30:00 AM 7.08 44.744 0.121 6.76 7.31 11.31
10/30/2020 4:45:00 AM 7.03 44.654 0.121 6.76 7.15 11.32
10/30/2020 5:00:00 AM 7.02 44.636 0.122 6.76 7.13 11.33
10/30/2020 5:15:00 AM 6.99 44.582 0.122 6.75 6.7 11.34
10/30/2020 5:30:00 AM 6.96 44.528 0.122 6.73 6.52 11.35
10/30/2020 5:45:00 AM 6.94 44.492 0.122 6.73 6.33 11.36
10/30/2020 6:00:00 AM 6.92 44.456 0.122 6.74 7.19 11.37
10/30/2020 6:15:00 AM 6.9 44.42 0.122 6.75 6.27 11.39
10/30/2020 6:30:00 AM 6.88 44.384 0.122 6.74 6.41 11.39
10/30/2020 6:45:00 AM 6.87 44.366 0.122 6.74 6.54 11.4
10/30/2020 7:00:00 AM 6.85 44.33 0.122 6.71 6.57 11.41
10/30/2020 7:15:00 AM 6.84 44.312 0.122 6.73 5.97 11.42
10/30/2020 7:30:00 AM 6.82 44.276 0.122 6.73 5.84 11.43
10/30/2020 7:45:00 AM 6.81 44.258 0.122 6.73 5.86 11.44
10/30/2020 8:00:00 AM 6.8 44.24 0.122 6.73 5.85 11.45
10/30/2020 8:15:00 AM 6.79 44.222 0.123 6.73 5.49 11.46
10/30/2020 8:30:00 AM 6.77 44.186 0.122 6.74 5.58 11.47
10/30/2020 8:45:00 AM 6.76 44.168 0.122 6.73 5.48 11.49
10/30/2020 9:00:00 AM 6.75 44.15 0.122 6.73 5.19 11.5
10/30/2020 9:15:00 AM 6.74 44.132 0.122 6.73 5.1 11.51
10/30/2020 9:30:00 AM 6.73 44.114 0.122 6.75 5.03 11.52
10/30/2020 9:45:00 AM 6.71 44.078 0.122 6.76 4.99 11.54
10/30/2020 10:00:00 AM 6.71 44.078 0.122 6.78 5.02 11.55
10/30/2020 10:15:00 AM 6.7 44.06 0.122 6.78 5.08 11.56
10/30/2020 10:30:00 AM 6.7 44.06 0.122 6.77 4.91 11.58
10/30/2020 10:45:00 AM 6.7 44.06 0.122 6.78 4.92 11.59
10/30/2020 11:00:00 AM 6.71 44.078 0.122 6.79 4.84 11.61
10/30/2020 11:15:00 AM 6.73 44.114 0.122 6.8 5.07 11.62
10/30/2020 11:30:00 AM 6.75 44.15 0.122 6.8 4.87 11.63
10/30/2020 11:45:00 AM 6.76 44.168 0.122 6.81 4.83 11.64
10/30/2020 12:00:00 PM 6.76 44.168 0.121 6.82 4.7 11.64
10/30/2020 12:15:00 PM 6.75 44.15 0.121 6.84 4.67 11.66
10/30/2020 12:30:00 PM 6.77 44.186 0.121 6.83 4.8 11.66
10/30/2020 12:45:00 PM 6.78 44.204 0.121 6.83 4.67 11.67
10/30/2020 1:00:00 PM 6.79 44.222 0.121 6.84 4.99 11.68
10/30/2020 1:15:00 PM 6.8 44.24 0.121 6.84 5.23 11.68
10/30/2020 1:30:00 PM 6.82 44.276 0.121 6.84 4.62 11.69
10/30/2020 1:45:00 PM 6.84 44.312 0.121 6.85 5.37 11.69
10/30/2020 2:00:00 PM 6.83 44.294 0.121 6.84 4.85 11.69
10/30/2020 2:15:00 PM 6.82 44.276 0.121 6.82 4.66 11.68
10/30/2020 2:30:00 PM 6.84 44.312 0.121 6.8 4.47 11.69
10/30/2020 2:45:00 PM 6.87 44.366 0.121 6.79 4.8 11.7
10/30/2020 3:00:00 PM 6.9 44.42 0.121 6.78 4.54 11.71
10/30/2020 3:15:00 PM 6.93 44.474 0.121 6.8 5.07 11.71
10/30/2020 3:30:00 PM 6.95 44.51 0.12 6.82 4.49 11.7
10/30/2020 3:45:00 PM 6.96 44.528 0.12 6.86 4.42 11.7
10/30/2020 4:00:00 PM 6.97 44.546 0.12 6.86 4.76 11.7
10/30/2020 4:15:00 PM 6.98 44.564 0.12 6.88 4.41 11.7
10/30/2020 4:30:00 PM 6.98 44.564 0.12 6.89 4.27 11.71
10/30/2020 4:45:00 PM 6.96 44.528 0.12 6.88 4.34 11.69
10/30/2020 5:00:00 PM 6.94 44.492 0.12 6.89 4.51 11.68
10/30/2020 5:15:00 PM 6.91 44.438 0.12 6.87 4.72 11.67
10/30/2020 5:30:00 PM 6.89 44.402 0.12 6.85 4.52 11.66
10/30/2020 5:45:00 PM 6.86 44.348 0.12 6.86 4.46 11.64
10/30/2020 6:00:00 PM 6.83 44.294 0.12 6.81 4.4 11.64
10/30/2020 6:15:00 PM 6.81 44.258 0.12 6.79 4.59 11.63
10/30/2020 6:30:00 PM 6.79 44.222 0.12 6.79 4.63 11.63
10/30/2020 6:45:00 PM 6.76 44.168 0.12 6.76 5.08 11.63
10/30/2020 7:00:00 PM 6.74 44.132 0.12 6.76 5.17 11.63
10/30/2020 7:15:00 PM 6.71 44.078 0.12 6.81 4.67 11.63
10/30/2020 7:30:00 PM 6.68 44.024 0.12 6.84 4.54 11.63
10/30/2020 7:45:00 PM 6.64 43.952 0.12 6.86 4.45 11.64
10/30/2020 8:00:00 PM 6.61 43.898 0.12 6.86 4.26 11.65
10/30/2020 8:15:00 PM 6.58 43.844 0.12 6.85 4.34 11.65
10/30/2020 8:30:00 PM 6.55 43.79 0.12 6.85 4.27 11.66
10/30/2020 8:45:00 PM 6.5 43.7 0.12 6.83 4.31 11.67
10/30/2020 9:00:00 PM 6.45 43.61 0.12 6.84 4.49 11.68
10/30/2020 9:15:00 PM 6.41 43.538 0.12 6.82 4.19 11.7
10/30/2020 9:30:00 PM 6.38 43.484 0.12 6.83 4.13 11.7
10/30/2020 9:45:00 PM 6.36 43.448 0.12 6.82 4.76 11.71
10/30/2020 10:00:00 PM 6.33 43.394 0.12 6.83 4.3 11.72
10/30/2020 10:15:00 PM 6.31 43.358 0.12 6.85 4.19 11.73
10/30/2020 10:30:00 PM 6.28 43.304 0.12 6.86 4.02 11.74
10/30/2020 10:45:00 PM 6.26 43.268 0.12 6.86 4.22 11.75
10/30/2020 11:00:00 PM 6.23 43.214 0.12 6.86 4.26 11.76
10/30/2020 11:15:00 PM 6.21 43.178 0.12 6.86 4.06 11.77
10/30/2020 11:30:00 PM 6.18 43.124 0.12 6.85 4.1 11.78
10/30/2020 11:45:00 PM 6.16 43.088 0.12 6.84 4.12 11.79
10/31/2020 12:00:00 AM 6.14 43.052 0.12 6.84 4.29 11.8
10/31/2020 12:15:00 AM 6.11 42.998 0.12 6.85 3.96 11.81
10/31/2020 12:30:00 AM 6.08 42.944 0.12 6.84 3.91 11.82
10/31/2020 12:45:00 AM 6.05 42.89 0.119 6.84 3.8 11.83
10/31/2020 1:00:00 AM 6.03 42.854 0.12 6.83 3.77 11.84
10/31/2020 1:15:00 AM 6.01 42.818 0.12 6.83 3.83 11.85
10/31/2020 1:30:00 AM 5.99 42.782 0.119 6.84 4.08 11.85
10/31/2020 1:45:00 AM 5.97 42.746 0.119 6.85 4.05 11.86
10/31/2020 2:00:00 AM 5.94 42.692 0.119 6.84 4.3 11.87
10/31/2020 2:15:00 AM 5.92 42.656 0.119 6.85 4.55 11.88
10/31/2020 2:30:00 AM 5.9 42.62 0.119 6.83 4.31 11.88
10/31/2020 2:45:00 AM 5.87 42.566 0.119 6.83 3.9 11.9
10/31/2020 3:00:00 AM 5.84 42.512 0.119 6.85 3.95 11.9
10/31/2020 3:15:00 AM 5.81 42.458 0.118 6.85 3.77 11.92
10/31/2020 3:30:00 AM 5.78 42.404 0.118 6.84 3.89 11.93
10/31/2020 3:45:00 AM 5.76 42.368 0.118 6.84 3.9 11.94
10/31/2020 4:00:00 AM 5.73 42.314 0.118 6.85 3.76 11.95
10/31/2020 4:15:00 AM 5.7 42.26 0.118 6.84 3.78 11.96
10/31/2020 4:30:00 AM 5.68 42.224 0.118 6.84 3.71 11.96
10/31/2020 4:45:00 AM 5.65 42.17 0.118 6.84 3.63 11.97
10/31/2020 5:00:00 AM 5.62 42.116 0.118 6.85 3.67 11.99
10/31/2020 5:15:00 AM 5.58 42.044 0.118 6.88 3.74 12
10/31/2020 5:30:00 AM 5.54 41.972 0.118 6.86 3.62 12
10/31/2020 5:45:00 AM 5.51 41.918 0.118 6.85 3.44 12.02
10/31/2020 6:00:00 AM 5.47 41.846 0.118 6.84 3.52 12.04
10/31/2020 6:15:00 AM 5.43 41.774 0.118 6.84 3.62 12.05
10/31/2020 6:30:00 AM 5.4 41.72 0.118 6.83 3.68 12.06
10/31/2020 6:45:00 AM 5.36 41.648 0.117 6.83 3.74 12.07
10/31/2020 7:00:00 AM 5.32 41.576 0.117 6.82 3.92 12.08
10/31/2020 7:15:00 AM 5.27 41.486 0.117 6.82 3.89 12.1
10/31/2020 7:30:00 AM 5.24 41.432 0.117 6.81 3.74 12.11
10/31/2020 7:45:00 AM 5.2 41.36 0.117 6.79 4.27 12.12
10/31/2020 8:00:00 AM 5.17 41.306 0.117 6.8 3.9 12.14
10/31/2020 8:15:00 AM 5.13 41.234 0.117 6.82 3.68 12.18
10/31/2020 8:30:00 AM 5.11 41.198 0.117 6.82 3.72 12.22
10/31/2020 8:45:00 AM 5.11 41.198 0.117 6.82 3.48 12.25
10/31/2020 9:00:00 AM 5.13 41.234 0.117 6.83 3.28 12.27
10/31/2020 9:15:00 AM 5.14 41.252 0.117 6.84 3.35 12.31
10/31/2020 9:30:00 AM 5.17 41.306 0.116 6.85 3.21 12.33
10/31/2020 9:45:00 AM 5.2 41.36 0.116 6.85 3.3 12.33
10/31/2020 10:00:00 AM 5.24 41.432 0.116 6.85 3.18 12.34
10/31/2020 10:15:00 AM 5.28 41.504 0.116 6.86 3.16 12.36
10/31/2020 10:30:00 AM 5.3 41.54 0.116 6.88 3.19 12.36
10/31/2020 10:45:00 AM 5.32 41.576 0.116 6.89 3.03 12.37
10/31/2020 11:00:00 AM 5.41 41.738 0.116 6.9 2.92 12.37
10/31/2020 11:15:00 AM 5.61 42.098 0.116 6.91 3.08 12.37
10/31/2020 11:30:00 AM 5.67 42.206 0.116 6.93 3.15 12.34
10/31/2020 11:45:00 AM 5.74 42.332 0.115 6.94 3.13 12.33
10/31/2020 12:00:00 PM 5.84 42.512 0.115 6.95 2.99 12.32
10/31/2020 12:15:00 PM 5.92 42.656 0.115 6.97 3.01 12.29
10/31/2020 12:30:00 PM 5.97 42.746 0.115 6.96 2.96 12.27
10/31/2020 12:45:00 PM 6.07 42.926 0.115 6.95 3.07 12.26
10/31/2020 1:00:00 PM 6.18 43.124 0.115 6.96 2.97 12.24
10/31/2020 1:15:00 PM 6.26 43.268 0.115 6.96 3.21 12.2
10/31/2020 1:30:00 PM 6.34 43.412 0.115 6.96 3.03 12.18
10/31/2020 1:45:00 PM 6.47 43.646 0.115 6.96 3.02 12.16
10/31/2020 2:00:00 PM 6.49 43.682 0.115 6.95 2.89 12.13
10/31/2020 2:15:00 PM 6.55 43.79 0.114 6.96 3.15 12.11
10/31/2020 2:30:00 PM 6.58 43.844 0.114 6.95 3.02 12.1
10/31/2020 2:45:00 PM 6.59 43.862 0.114 6.95 2.93 12.1
10/31/2020 3:00:00 PM 6.62 43.916 0.114 6.95 2.96 12.09
10/31/2020 3:15:00 PM 6.65 43.97 0.114 6.94 2.97 12.07
10/31/2020 3:30:00 PM 6.67 44.006 0.114 6.94 3 12.06
10/31/2020 3:45:00 PM 6.69 44.042 0.114 6.93 3.03 12.05
10/31/2020 4:00:00 PM 6.69 44.042 0.114 6.94 2.99 12.04
10/31/2020 4:15:00 PM 6.69 44.042 0.114 6.94 3.1 12.02
10/31/2020 4:30:00 PM 6.66 43.988 0.114 6.93 3.21 12.01
10/31/2020 4:45:00 PM 6.59 43.862 0.114 6.89 3.06 11.99
10/31/2020 5:00:00 PM 6.52 43.736 0.114 6.9 3.08 11.97
10/31/2020 5:15:00 PM 6.46 43.628 0.114 6.9 3.05 11.96
10/31/2020 5:30:00 PM 6.4 43.52 0.113 6.89 2.92 11.95
10/31/2020 5:45:00 PM 6.34 43.412 0.113 6.9 2.96 11.94
10/31/2020 6:00:00 PM 6.28 43.304 0.113 6.9 2.95 11.93
10/31/2020 6:15:00 PM 6.22 43.196 0.113 6.86 3.07 11.91
10/31/2020 6:30:00 PM 6.15 43.07 0.113 6.86 3.11 11.91
10/31/2020 6:45:00 PM 6.09 42.962 0.113 6.87 3.62 11.9
10/31/2020 7:00:00 PM 6.02 42.836 0.113 6.86 3.34 11.91
10/31/2020 7:15:00 PM 5.96 42.728 0.113 6.85 3.2 11.91
10/31/2020 7:30:00 PM 5.9 42.62 0.113 6.85 3.24 11.91
10/31/2020 7:45:00 PM 5.83 42.494 0.113 6.85 3.36 11.92
10/31/2020 8:00:00 PM 5.77 42.386 0.113 6.85 3.14 11.93
10/31/2020 8:15:00 PM 5.7 42.26 0.113 6.86 3.18 11.94
10/31/2020 8:30:00 PM 5.63 42.134 0.113 6.86 3.16 11.96
10/31/2020 8:45:00 PM 5.57 42.026 0.113 6.85 3.03 11.97
10/31/2020 9:00:00 PM 5.5 41.9 0.113 6.86 3.11 11.99
10/31/2020 9:15:00 PM 5.44 41.792 0.113 6.85 3.08 12
10/31/2020 9:30:00 PM 5.37 41.666 0.113 6.85 3.23 12.01
10/31/2020 9:45:00 PM 5.31 41.558 0.113 6.86 3.19 12.03
10/31/2020 10:00:00 PM 5.25 41.45 0.114 6.85 3.08 12.04
10/31/2020 10:15:00 PM 5.19 41.342 0.114 6.85 3.28 12.05
10/31/2020 10:30:00 PM 5.13 41.234 0.114 6.85 3.11 12.06
10/31/2020 10:45:00 PM 5.07 41.126 0.114 6.84 3.16 12.09
10/31/2020 11:00:00 PM 5.01 41.018 0.114 6.84 3.01 12.1
10/31/2020 11:15:00 PM 4.95 40.91 0.113 6.84 3.05 12.11
10/31/2020 11:30:00 PM 4.88 40.784 0.113 6.85 3.14 12.13
10/31/2020 11:45:00 PM 4.82 40.676 0.114 6.84 3.22 12.15
11/1/2020 12:00:00 AM 4.75 40.55 0.114 6.84 3.07 12.17
11/1/2020 12:15:00 AM 4.68 40.424 0.114 6.85 3.02 12.19
11/1/2020 12:30:00 AM 4.62 40.316 0.113 6.85 2.9 12.21
11/1/2020 12:45:00 AM 4.56 40.208 0.113 6.85 2.96 12.23
11/1/2020 1:00:00 AM 4.5 40.1 0.114 6.85 3.02 12.25
11/1/2020 1:15:00 AM 4.44 39.992 0.114 6.85 2.99 12.27
11/1/2020 1:30:00 AM 4.38 39.884 0.114 6.86 3.13 12.29
11/1/2020 1:45:00 AM 4.33 39.794 0.113 6.85 3.07 12.31
11/1/2020 2:00:00 AM 4.29 39.722 0.113 6.86 3.05 12.32
11/1/2020 2:15:00 AM 4.28 39.704 0.113 6.86 2.97 12.34
11/1/2020 2:30:00 AM 4.28 39.704 0.113 6.85 3.09 12.34
11/1/2020 2:45:00 AM 4.28 39.704 0.113 6.86 3.24 12.35
11/1/2020 3:00:00 AM 4.29 39.722 0.113 6.86 3.33 12.34
11/1/2020 3:15:00 AM 4.29 39.722 0.113 6.89 4.14 12.36
11/1/2020 3:30:00 AM 4.29 39.722 0.113 6.89 4.28 12.35
11/1/2020 3:45:00 AM 4.29 39.722 0.113 6.88 3.62 12.35
11/1/2020 4:00:00 AM 4.28 39.704 0.113 6.88 3.37 12.36
11/1/2020 4:15:00 AM 4.29 39.722 0.113 6.88 3.23 12.35
11/1/2020 4:30:00 AM 4.29 39.722 0.113 6.88 3.22 12.35
11/1/2020 4:45:00 AM 4.29 39.722 0.113 6.89 3.94 12.35
11/1/2020 5:00:00 AM 4.3 39.74 0.113 6.9 4.21 12.34
11/1/2020 5:15:00 AM 4.31 39.758 0.113 6.9 3.73 12.34
11/1/2020 5:30:00 AM 4.31 39.758 0.113 6.9 3.57 12.34
11/1/2020 5:45:00 AM 4.32 39.776 0.113 6.9 3.29 12.33
11/1/2020 6:00:00 AM 4.33 39.794 0.113 6.92 3.19 12.33
11/1/2020 6:15:00 AM 4.34 39.812 0.113 6.92 3.26 12.32
11/1/2020 6:30:00 AM 4.35 39.83 0.113 6.91 3.42 12.31
11/1/2020 6:45:00 AM 4.37 39.866 0.114 6.9 3.36 12.3
11/1/2020 7:00:00 AM 4.39 39.902 0.114 6.9 3.18 12.3
11/1/2020 7:15:00 AM 4.41 39.938 0.114 6.91 3.18 12.29
11/1/2020 7:30:00 AM 4.45 40.01 0.113 6.92 2.96 12.3
11/1/2020 7:45:00 AM 4.5 40.1 0.113 6.92 2.85 12.31
11/1/2020 8:00:00 AM 4.56 40.208 0.113 6.93 2.73 12.32
11/1/2020 8:15:00 AM 4.6 40.28 0.113 6.94 2.79 12.3
11/1/2020 8:30:00 AM 4.64 40.352 0.113 6.95 2.79 12.29
11/1/2020 8:45:00 AM 4.7 40.46 0.113 6.94 2.8 12.3
11/1/2020 9:00:00 AM 4.75 40.55 0.113 6.95 2.69 12.29
11/1/2020 9:15:00 AM 4.78 40.604 0.113 6.96 2.68 12.27
11/1/2020 9:30:00 AM 4.83 40.694 0.113 6.95 2.76 12.26
11/1/2020 9:45:00 AM 4.88 40.784 0.113 6.96 2.69 12.25
11/1/2020 10:00:00 AM 4.96 40.928 0.113 6.96 2.78 12.25
11/1/2020 10:15:00 AM 4.99 40.982 0.113 6.96 2.96 12.23
11/1/2020 10:30:00 AM 5.03 41.054 0.112 6.96 2.75 12.21
11/1/2020 10:45:00 AM 5.07 41.126 0.112 6.96 2.71 12.2
11/1/2020 11:00:00 AM 5.11 41.198 0.112 6.97 2.69 12.18
11/1/2020 11:15:00 AM 5.14 41.252 0.112 6.96 2.58 12.15
11/1/2020 11:30:00 AM 5.2 41.36 0.112 6.96 2.56 12.14
11/1/2020 11:45:00 AM 5.25 41.45 0.112 6.96 2.66 12.14
11/1/2020 12:00:00 PM 5.29 41.522 0.111 6.97 2.6 12.12
11/1/2020 12:15:00 PM 5.35 41.63 0.111 6.96 2.64 12.11
11/1/2020 12:30:00 PM 5.39 41.702 0.111 6.96 2.65 12.09
11/1/2020 12:45:00 PM 5.43 41.774 0.111 6.97 2.64 12.06
11/1/2020 1:00:00 PM 5.47 41.846 0.11 6.96 2.81 12.02
11/1/2020 1:15:00 PM 5.52 41.936 0.11 6.95 2.77 12
11/1/2020 1:30:00 PM 5.56 42.008 0.11 6.95 2.76 11.99
11/1/2020 1:45:00 PM 5.61 42.098 0.11 6.95 2.7 11.99
11/1/2020 2:00:00 PM 5.71 42.278 0.11 6.95 2.69 11.99
11/1/2020 2:15:00 PM 5.78 42.404 0.11 6.96 2.75 11.98
11/1/2020 2:30:00 PM 5.83 42.494 0.11 6.95 3.06 11.94
11/1/2020 2:45:00 PM 5.83 42.494 0.11 6.95 2.85 11.93
11/1/2020 3:00:00 PM 5.8 42.44 0.11 6.96 2.76 11.93
11/1/2020 3:15:00 PM 5.79 42.422 0.11 6.94 2.76 11.91
11/1/2020 3:30:00 PM 5.81 42.458 0.11 6.92 2.68 11.91
11/1/2020 3:45:00 PM 5.82 42.476 0.11 6.93 2.63 11.91
11/1/2020 4:00:00 PM 5.83 42.494 0.11 6.93 2.63 11.9
11/1/2020 4:15:00 PM 5.86 42.548 0.11 6.93 2.75 11.88
11/1/2020 4:30:00 PM 5.84 42.512 0.11 6.92 2.81 11.86
11/1/2020 4:45:00 PM 5.75 42.35 0.11 6.91 2.81 11.84
11/1/2020 5:00:00 PM 5.7 42.26 0.11 6.89 3.16 11.81
11/1/2020 5:15:00 PM 5.67 42.206 0.109 6.89 2.95 11.81
11/1/2020 5:30:00 PM 5.65 42.17 0.109 6.87 3.2 11.8
11/1/2020 5:45:00 PM 5.66 42.188 0.109 6.88 3.25 11.8
11/1/2020 6:00:00 PM 5.59 42.062 0.109 6.88 3.26 11.8
11/1/2020 6:15:00 PM 5.48 41.864 0.109 6.88 3.15 11.81
11/1/2020 6:30:00 PM 5.44 41.792 0.109 6.86 3.32 11.82
11/1/2020 6:45:00 PM 5.4 41.72 0.109 6.85 3.29 11.83
11/1/2020 7:00:00 PM 5.42 41.756 0.109 6.84 3.27 11.83
11/1/2020 7:15:00 PM 5.39 41.702 0.11 6.84 3.22 11.85
11/1/2020 7:30:00 PM 5.34 41.612 0.11 6.84 3.17 11.85
11/1/2020 7:45:00 PM 5.31 41.558 0.11 6.83 3.31 11.86
11/1/2020 8:00:00 PM 5.27 41.486 0.11 6.83 3.32 11.87
11/1/2020 8:15:00 PM 5.22 41.396 0.111 6.84 3.24 11.88
11/1/2020 8:30:00 PM 5.13 41.234 0.111 6.83 3.35 11.9
11/1/2020 8:45:00 PM 5.04 41.072 0.11 6.83 3.27 11.93
11/1/2020 9:00:00 PM 4.98 40.964 0.111 6.83 3.24 11.95
11/1/2020 9:15:00 PM 4.95 40.91 0.111 6.84 3.11 11.97
11/1/2020 9:30:00 PM 4.92 40.856 0.111 6.84 4.18 11.98
11/1/2020 9:45:00 PM 4.88 40.784 0.111 6.82 3.59 11.99
11/1/2020 10:00:00 PM 4.83 40.694 0.111 6.82 3.65 12.01
11/1/2020 10:15:00 PM 4.77 40.586 0.111 6.82 3.38 12.03
11/1/2020 10:30:00 PM 4.71 40.478 0.111 6.82 3.81 12.05
11/1/2020 10:45:00 PM 4.67 40.406 0.11 6.82 3.81 12.06
11/1/2020 11:00:00 PM 4.58 40.244 0.11 6.82 4.92 12.07
11/1/2020 11:15:00 PM 4.52 40.136 0.11 6.82 4.15 12.1
11/1/2020 11:30:00 PM 4.49 40.082 0.11 6.82 3.38 12.12
11/1/2020 11:45:00 PM 4.47 40.046 0.11 6.82 3.19 12.14
11/2/2020 12:00:00 AM 4.46 40.028 0.11 6.81 3.19 12.15
11/2/2020 12:15:00 AM 4.43 39.974 0.111 6.81 3.51 12.16
11/2/2020 12:30:00 AM 4.39 39.902 0.111 6.82 3.23 12.18
11/2/2020 12:45:00 AM 4.35 39.83 0.111 6.82 3.04 12.19
11/2/2020 1:00:00 AM 4.3 39.74 0.111 6.83 3.09 12.2
11/2/2020 1:15:00 AM 4.24 39.632 0.111 6.84 3.09 12.21
11/2/2020 1:30:00 AM 4.15 39.47 0.111 6.82 3.42 12.23
11/2/2020 1:45:00 AM 4.12 39.416 0.111 6.83 3.04 12.25
11/2/2020 2:00:00 AM 4.1 39.38 0.111 6.81 3.21 12.27
11/2/2020 2:15:00 AM 4.08 39.344 0.111 6.82 2.92 12.27
11/2/2020 2:30:00 AM 4.05 39.29 0.111 6.82 2.94 12.29
11/2/2020 2:45:00 AM 4.03 39.254 0.111 6.82 2.91 12.31
11/2/2020 3:00:00 AM 4 39.2 0.111 6.83 2.93 12.32
11/2/2020 3:15:00 AM 3.95 39.11 0.111 6.83 2.81 12.33
11/2/2020 3:30:00 AM 3.9 39.02 0.111 6.83 2.8 12.35
11/2/2020 3:45:00 AM 3.7 38.66 0.111 6.84 2.8 12.35
11/2/2020 4:00:00 AM 3.31 37.958 0.11 6.83 2.85 12.37
11/2/2020 4:15:00 AM 3.07 37.526 0.11 6.82 2.95 12.43
11/2/2020 4:30:00 AM 3.07 37.526 0.11 6.81 2.94 12.48
11/2/2020 4:45:00 AM 3.17 37.706 0.11 6.8 3.17 12.5
11/2/2020 5:00:00 AM 3.17 37.706 0.11 6.82 3.39 12.51
11/2/2020 5:15:00 AM 3.21 37.778 0.11 6.81 3.51 12.53
11/2/2020 5:30:00 AM 3.26 37.868 0.11 6.82 3.19 12.54
11/2/2020 5:45:00 AM 3.27 37.886 0.11 6.82 3.09 12.55
11/2/2020 6:00:00 AM 3.25 37.85 0.11 6.82 3.43 12.56
11/2/2020 6:15:00 AM 3.21 37.778 0.11 6.83 3.32 12.58
11/2/2020 6:30:00 AM 3.16 37.688 0.11 6.83 3.18 12.61
11/2/2020 6:45:00 AM 3.13 37.634 0.11 6.83 2.98 12.63
11/2/2020 7:00:00 AM 3.08 37.544 0.11 6.84 2.91 12.66
11/2/2020 7:15:00 AM 3.02 37.436 0.11 6.84 2.81 12.7
11/2/2020 7:30:00 AM 2.98 37.364 0.11 6.84 2.69 12.74
11/2/2020 7:45:00 AM 2.98 37.364 0.11 6.85 2.74 12.78
11/2/2020 8:00:00 AM 2.98 37.364 0.11 6.86 2.69 12.81
11/2/2020 8:15:00 AM 3 37.4 0.11 6.87 2.72 12.83
11/2/2020 8:30:00 AM 3 37.4 0.11 6.87 2.65 12.86
11/2/2020 8:45:00 AM 3.03 37.454 0.11 6.88 2.7 12.87
11/2/2020 9:00:00 AM 3.06 37.508 0.11 6.88 2.72 12.89
11/2/2020 9:15:00 AM 3.09 37.562 0.11 6.9 2.7 12.9
11/2/2020 9:30:00 AM 3.13 37.634 0.11 6.89 2.83 12.91
11/2/2020 9:45:00 AM 3.19 37.742 0.11 6.91 2.67 12.92
11/2/2020 10:00:00 AM 3.24 37.832 0.11 6.91 2.71 12.92
11/2/2020 10:15:00 AM 3.32 37.976 0.11 6.92 2.59 12.92
11/2/2020 10:30:00 AM 3.39 38.102 0.11 6.94 2.67 12.91
11/2/2020 10:45:00 AM 3.47 38.246 0.11 6.94 2.62 12.91
11/2/2020 11:00:00 AM 3.62 38.516 0.11 6.96 2.71 12.89
11/2/2020 11:15:00 AM 3.72 38.696 0.11 6.97 2.62 12.86
11/2/2020 11:30:00 AM 3.78 38.804 0.11 6.97 2.66 12.84
11/2/2020 11:45:00 AM 3.83 38.894 0.11 6.97 2.65 12.83
11/2/2020 12:00:00 PM 3.94 39.092 0.11 6.99 2.67 12.81
11/2/2020 12:15:00 PM 4.09 39.362 0.11 6.99 2.66 12.79
11/2/2020 12:30:00 PM 4.18 39.524 0.11 7 2.56 12.76
11/2/2020 12:45:00 PM 4.22 39.596 0.11 7 2.62 12.74
11/2/2020 1:00:00 PM 4.22 39.596 0.11 7 2.64 12.73
11/2/2020 1:15:00 PM 4.24 39.632 0.11 7 2.62 12.71
11/2/2020 1:30:00 PM 4.25 39.65 0.11 6.99 2.68 12.7
11/2/2020 1:45:00 PM 4.28 39.704 0.11 6.98 2.81 12.68
11/2/2020 2:00:00 PM 4.33 39.794 0.11 6.99 2.72 12.67
11/2/2020 2:15:00 PM 4.36 39.848 0.11 6.99 2.68 12.65
11/2/2020 2:30:00 PM 4.36 39.848 0.11 6.99 2.66 12.63
11/2/2020 2:45:00 PM 4.37 39.866 0.11 6.98 2.64 12.61
11/2/2020 3:00:00 PM 4.37 39.866 0.11 6.98 2.67 12.61
11/2/2020 3:15:00 PM 4.37 39.866 0.11 6.98 2.6 12.6
11/2/2020 3:30:00 PM 4.37 39.866 0.11 6.98 2.67 12.6
11/2/2020 3:45:00 PM 4.35 39.83 0.11 6.99 2.59 12.6
11/2/2020 4:00:00 PM 4.32 39.776 0.11 6.98 2.56 12.6
11/2/2020 4:15:00 PM 4.29 39.722 0.11 6.98 2.59 12.59
11/2/2020 4:30:00 PM 4.25 39.65 0.11 6.97 2.62 12.56
11/2/2020 4:45:00 PM 4.21 39.578 0.111 6.96 2.65 12.55
11/2/2020 5:00:00 PM 4.17 39.506 0.111 6.95 2.62 12.52
11/2/2020 5:15:00 PM 4.12 39.416 0.111 6.95 2.83 12.5
11/2/2020 5:30:00 PM 4.07 39.326 0.111 6.95 2.69 12.48
11/2/2020 5:45:00 PM 4.04 39.272 0.111 6.93 2.75 12.47
11/2/2020 6:00:00 PM 4 39.2 0.111 6.92 2.89 12.48
11/2/2020 6:15:00 PM 3.97 39.146 0.111 6.92 2.88 12.48
11/2/2020 6:30:00 PM 3.95 39.11 0.111 6.91 2.88 12.48
11/2/2020 6:45:00 PM 3.93 39.074 0.111 6.92 3.09 12.47
11/2/2020 7:00:00 PM 3.92 39.056 0.112 6.92 3.17 12.47
11/2/2020 7:15:00 PM 3.89 39.002 0.112 6.92 3 12.47
11/2/2020 7:30:00 PM 3.84 38.912 0.112 6.91 2.9 12.48
11/2/2020 7:45:00 PM 3.79 38.822 0.112 6.92 2.93 12.48
11/2/2020 8:00:00 PM 3.75 38.75 0.112 6.92 3.12 12.48
11/2/2020 8:15:00 PM 3.69 38.642 0.112 6.91 2.96 12.49
11/2/2020 8:30:00 PM 3.63 38.534 0.112 6.9 3 12.5
11/2/2020 8:45:00 PM 3.58 38.444 0.112 6.9 2.91 12.51
11/2/2020 9:00:00 PM 3.52 38.336 0.112 6.91 2.99 12.52
11/2/2020 9:15:00 PM 3.46 38.228 0.113 6.88 2.95 12.53
11/2/2020 9:30:00 PM 3.4 38.12 0.113 6.88 2.95 12.54
11/2/2020 9:45:00 PM 3.36 38.048 0.113 6.89 2.92 12.55
11/2/2020 10:00:00 PM 3.33 37.994 0.113 6.89 2.83 12.56
11/2/2020 10:15:00 PM 3.3 37.94 0.113 6.9 2.87 12.57
11/2/2020 10:30:00 PM 3.27 37.886 0.113 6.89 2.83 12.58
11/2/2020 10:45:00 PM 3.26 37.868 0.113 6.9 2.85 12.59
11/2/2020 11:00:00 PM 3.24 37.832 0.113 6.9 2.79 12.6
11/2/2020 11:15:00 PM 3.24 37.832 0.113 6.9 2.84 12.61
11/2/2020 11:30:00 PM 3.22 37.796 0.113 6.9 2.78 12.62
11/2/2020 11:45:00 PM 3.2 37.76 0.113 6.89 2.69 12.63
11/3/2020 12:00:00 AM 3.18 37.724 0.113 6.89 2.71 12.64
11/3/2020 12:15:00 AM 3.17 37.706 0.113 6.9 2.95 12.64
11/3/2020 12:30:00 AM 3.15 37.67 0.113 6.91 2.76 12.65
11/3/2020 12:45:00 AM 3.14 37.652 0.114 6.91 2.74 12.66
11/3/2020 1:00:00 AM 3.11 37.598 0.114 6.91 2.91 12.67
11/3/2020 1:15:00 AM 3.07 37.526 0.114 6.9 2.76 12.68
11/3/2020 1:30:00 AM 3.03 37.454 0.114 6.91 2.68 12.69
11/3/2020 1:45:00 AM 2.99 37.382 0.114 6.91 2.66 12.7
11/3/2020 2:00:00 AM 2.96 37.328 0.114 6.92 2.58 12.72
11/3/2020 2:15:00 AM 2.93 37.274 0.114 6.92 2.57 12.73
11/3/2020 2:30:00 AM 2.91 37.238 0.114 6.92 2.6 12.74
11/3/2020 2:45:00 AM 2.89 37.202 0.113 6.91 2.55 12.74
11/3/2020 3:00:00 AM 2.87 37.166 0.113 6.91 2.6 12.75
11/3/2020 3:15:00 AM 2.85 37.13 0.113 6.92 2.49 12.76
11/3/2020 3:30:00 AM 2.82 37.076 0.113 6.92 2.68 12.77
11/3/2020 3:45:00 AM 2.81 37.058 0.113 6.91 2.71 12.77
11/3/2020 4:00:00 AM 2.79 37.022 0.113 6.91 2.73 12.77
11/3/2020 4:15:00 AM 2.78 37.004 0.113 6.92 2.87 12.78
11/3/2020 4:30:00 AM 2.77 36.986 0.113 6.92 2.8 12.79
11/3/2020 4:45:00 AM 2.75 36.95 0.113 6.92 2.73 12.79
11/3/2020 5:00:00 AM 2.74 36.932 0.113 6.92 2.8 12.8
11/3/2020 5:15:00 AM 2.73 36.914 0.113 6.92 2.81 12.81
11/3/2020 5:30:00 AM 2.72 36.896 0.113 6.92 2.75 12.82
11/3/2020 5:45:00 AM 2.71 36.878 0.113 6.92 2.67 12.82
11/3/2020 6:00:00 AM 2.71 36.878 0.113 6.93 2.73 12.83
11/3/2020 6:15:00 AM 2.71 36.878 0.113 6.93 2.67 12.83
11/3/2020 6:30:00 AM 2.7 36.86 0.113 6.89 3.03 12.84
11/3/2020 6:45:00 AM 2.69 36.842 0.113 6.91 2.62 12.85
11/3/2020 7:00:00 AM 2.67 36.806 0.113 6.92 2.58 12.87
11/3/2020 7:15:00 AM 2.68 36.824 0.113 6.93 2.59 12.9
11/3/2020 7:30:00 AM 2.7 36.86 0.113 6.94 2.58 12.92
11/3/2020 7:45:00 AM 2.74 36.932 0.113 6.94 2.47 12.94
11/3/2020 8:00:00 AM 2.8 37.04 0.113 6.95 2.47 12.96
11/3/2020 8:15:00 AM 2.86 37.148 0.113 6.96 2.45 12.97
11/3/2020 8:30:00 AM 2.94 37.292 0.113 6.98 2.41 12.97
11/3/2020 8:45:00 AM 3.02 37.436 0.113 6.98 2.38 12.97
11/3/2020 9:00:00 AM 3.12 37.616 0.112 7 2.37 12.97
11/3/2020 9:15:00 AM 3.23 37.814 0.112 7 2.38 12.97
11/3/2020 9:30:00 AM 3.33 37.994 0.112 7.02 2.41 12.95
11/3/2020 9:45:00 AM 3.46 38.228 0.112 7.02 2.38 12.94
11/3/2020 10:00:00 AM 3.58 38.444 0.112 7.04 2.36 12.92
11/3/2020 10:15:00 AM 3.7 38.66 0.112 7.04 2.43 12.9
11/3/2020 10:30:00 AM 3.86 38.948 0.112 7.05 2.35 12.87
11/3/2020 10:45:00 AM 4 39.2 0.112 7.05 2.44 12.83
11/3/2020 11:00:00 AM 4.1 39.38 0.112 7.07 2.41 12.8
11/3/2020 11:15:00 AM 4.2 39.56 0.112 7.06 2.36 12.76
11/3/2020 11:30:00 AM 4.32 39.776 0.112 7.07 2.38 12.75
11/3/2020 11:45:00 AM 4.47 40.046 0.112 7.08 2.43 12.72
11/3/2020 12:00:00 PM 4.66 40.388 0.112 7.1 2.39 12.69
11/3/2020 12:15:00 PM 4.88 40.784 0.111 7.1 2.4 12.65
11/3/2020 12:30:00 PM 5.06 41.108 0.111 7.09 2.41 12.6
11/3/2020 12:45:00 PM 5.12 41.216 0.111 7.1 2.43 12.55
11/3/2020 1:00:00 PM 5.16 41.288 0.111 7.09 2.42 12.53
11/3/2020 1:15:00 PM 5.21 41.378 0.111 7.07 2.49 12.51
11/3/2020 1:30:00 PM 5.3 41.54 0.111 7.07 2.47 12.49
11/3/2020 1:45:00 PM 5.39 41.702 0.111 7.08 2.47 12.45
11/3/2020 2:00:00 PM 5.48 41.864 0.111 7.07 2.47 12.41
11/3/2020 2:15:00 PM 5.56 42.008 0.111 7.07 2.51 12.36
11/3/2020 2:30:00 PM 5.63 42.134 0.111 7.06 2.5 12.32
11/3/2020 2:45:00 PM 5.69 42.242 0.111 7.05 2.45 12.28
11/3/2020 3:00:00 PM 5.74 42.332 0.111 7.06 2.45 12.26
11/3/2020 3:15:00 PM 5.78 42.404 0.111 7.05 2.46 12.25
11/3/2020 3:30:00 PM 5.78 42.404 0.111 7.04 2.51 12.22
11/3/2020 3:45:00 PM 5.76 42.368 0.111 7.04 2.53 12.19
11/3/2020 4:00:00 PM 5.73 42.314 0.111 7.04 2.45 12.17
11/3/2020 4:15:00 PM 5.69 42.242 0.111 7.01 2.56 12.16
11/3/2020 4:30:00 PM 5.68 42.224 0.111 7 2.54 12.14
11/3/2020 4:45:00 PM 5.66 42.188 0.11 6.99 2.62 12.12
11/3/2020 5:00:00 PM 5.63 42.134 0.111 6.98 2.75 12.09
11/3/2020 5:15:00 PM 5.59 42.062 0.111 6.97 2.82 12.07
11/3/2020 5:30:00 PM 5.55 41.99 0.11 6.96 2.96 12.06
11/3/2020 5:45:00 PM 5.5 41.9 0.11 6.96 2.87 12.05
11/3/2020 6:00:00 PM 5.46 41.828 0.11 6.95 2.94 12.05
11/3/2020 6:15:00 PM 5.41 41.738 0.11 6.95 3.06 12.05
11/3/2020 6:30:00 PM 5.36 41.648 0.11 6.94 3.02 12.06
11/3/2020 6:45:00 PM 5.31 41.558 0.11 6.94 2.85 12.07
11/3/2020 7:00:00 PM 5.26 41.468 0.11 6.93 2.8 12.08
11/3/2020 7:15:00 PM 5.21 41.378 0.11 6.94 2.76 12.09
11/3/2020 7:30:00 PM 5.15 41.27 0.11 6.94 2.7 12.1
11/3/2020 7:45:00 PM 5.1 41.18 0.11 6.93 2.64 12.11
11/3/2020 8:00:00 PM 5.06 41.108 0.11 6.94 2.61 12.12
11/3/2020 8:15:00 PM 5.01 41.018 0.11 6.93 2.63 12.13
11/3/2020 8:30:00 PM 4.96 40.928 0.11 6.92 2.58 12.14
11/3/2020 8:45:00 PM 4.91 40.838 0.11 6.92 2.58 12.15
11/3/2020 9:00:00 PM 4.87 40.766 0.11 6.93 2.54 12.16
11/3/2020 9:15:00 PM 4.84 40.712 0.11 6.92 2.73 12.17
11/3/2020 9:30:00 PM 4.8 40.64 0.111 6.92 2.63 12.18
11/3/2020 9:45:00 PM 4.76 40.568 0.111 6.92 2.57 12.18
11/3/2020 10:00:00 PM 4.72 40.496 0.111 6.92 2.71 12.2
11/3/2020 10:15:00 PM 4.68 40.424 0.111 6.93 2.71 12.2
11/3/2020 10:30:00 PM 4.64 40.352 0.111 6.93 2.79 12.22
11/3/2020 10:45:00 PM 4.6 40.28 0.111 6.92 2.79 12.23
11/3/2020 11:00:00 PM 4.55 40.19 0.111 6.92 2.87 12.25
11/3/2020 11:15:00 PM 4.5 40.1 0.111 6.93 2.71 12.27
11/3/2020 11:30:00 PM 4.45 40.01 0.111 6.92 2.81 12.28
11/3/2020 11:45:00 PM 4.39 39.902 0.111 6.92 2.82 12.3
11/4/2020 12:00:00 AM 4.34 39.812 0.111 6.92 3.19 12.32
11/4/2020 12:15:00 AM 4.29 39.722 0.111 6.92 3.05 12.34
11/4/2020 12:30:00 AM 4.23 39.614 0.111 6.92 2.93 12.36
11/4/2020 12:45:00 AM 4.17 39.506 0.111 6.92 2.89 12.38
11/4/2020 1:00:00 AM 4.12 39.416 0.111 6.92 2.78 12.41
11/4/2020 1:15:00 AM 4.06 39.308 0.111 6.92 2.75 12.43
11/4/2020 1:30:00 AM 4 39.2 0.111 6.91 2.66 12.45
11/4/2020 1:45:00 AM 3.95 39.11 0.111 6.91 2.7 12.47
11/4/2020 2:00:00 AM 3.89 39.002 0.111 6.91 2.69 12.49
11/4/2020 2:15:00 AM 3.84 38.912 0.111 6.92 2.82 12.5
11/4/2020 2:30:00 AM 3.78 38.804 0.111 6.91 2.95 12.53
11/4/2020 2:45:00 AM 3.73 38.714 0.111 6.91 2.89 12.54
11/4/2020 3:00:00 AM 3.67 38.606 0.111 6.91 2.78 12.57
11/4/2020 3:15:00 AM 3.63 38.534 0.111 6.91 2.65 12.59
11/4/2020 3:30:00 AM 3.58 38.444 0.111 6.91 2.61 12.61
11/4/2020 3:45:00 AM 3.53 38.354 0.111 6.91 2.69 12.64
11/4/2020 4:00:00 AM 3.48 38.264 0.111 6.91 2.85 12.65
11/4/2020 4:15:00 AM 3.43 38.174 0.111 6.91 2.74 12.67
11/4/2020 4:30:00 AM 3.38 38.084 0.111 6.91 3.31 12.69
11/4/2020 4:45:00 AM 3.34 38.012 0.111 6.91 3.24 12.71
11/4/2020 5:00:00 AM 3.29 37.922 0.111 6.91 3.01 12.73
11/4/2020 5:15:00 AM 3.25 37.85 0.111 6.91 3.01 12.75
11/4/2020 5:30:00 AM 3.2 37.76 0.111 6.92 3.12 12.76
11/4/2020 5:45:00 AM 3.16 37.688 0.111 6.91 2.83 12.78
11/4/2020 6:00:00 AM 3.11 37.598 0.111 6.91 2.75 12.8
11/4/2020 6:15:00 AM 3.07 37.526 0.111 6.92 2.81 12.83
11/4/2020 6:30:00 AM 3.03 37.454 0.111 6.91 2.89 12.84
11/4/2020 6:45:00 AM 3 37.4 0.11 6.92 2.71 12.85
11/4/2020 7:00:00 AM 2.96 37.328 0.11 6.91 2.69 12.88
11/4/2020 7:15:00 AM 2.93 37.274 0.11 6.92 2.72 12.9
11/4/2020 7:30:00 AM 2.91 37.238 0.11 6.91 2.64 12.93
11/4/2020 7:45:00 AM 2.91 37.238 0.11 6.92 2.88 12.96
11/4/2020 8:00:00 AM 2.91 37.238 0.11 6.93 2.49 12.99
11/4/2020 8:15:00 AM 2.94 37.292 0.11 6.93 2.41 13.01
11/4/2020 8:30:00 AM 2.97 37.346 0.11 6.94 2.36 13.03
11/4/2020 8:45:00 AM 3.03 37.454 0.11 6.95 2.35 13.04
11/4/2020 9:00:00 AM 3.1 37.58 0.11 6.96 2.98 13.05
11/4/2020 9:15:00 AM 3.17 37.706 0.11 6.97 2.53 13.05
11/4/2020 9:30:00 AM 3.25 37.85 0.11 6.98 2.47 13.05
11/4/2020 9:45:00 AM 3.35 38.03 0.11 6.99 2.38 13.05
11/4/2020 10:00:00 AM 3.48 38.264 0.11 7 2.39 13.04
11/4/2020 10:15:00 AM 3.64 38.552 0.109 7.02 2.39 13.01
11/4/2020 10:30:00 AM 3.83 38.894 0.109 7.03 2.34 12.98
11/4/2020 10:45:00 AM 4.02 39.236 0.109 7.05 2.41 12.94
11/4/2020 11:00:00 AM 4.21 39.578 0.109 7.06 2.31 12.9
11/4/2020 11:15:00 AM 4.4 39.92 0.109 7.07 2.27 12.85
11/4/2020 11:30:00 AM 4.59 40.262 0.109 7.07 2.28 12.82
11/4/2020 11:45:00 AM 4.76 40.568 0.109 7.08 2.23 12.77
11/4/2020 12:00:00 PM 4.94 40.892 0.108 7.08 2.3 12.72
11/4/2020 12:15:00 PM 5.11 41.198 0.108 7.08 2.24 12.68
11/4/2020 12:30:00 PM 5.27 41.486 0.108 7.08 2.31 12.63
11/4/2020 12:45:00 PM 5.42 41.756 0.108 7.08 2.32 12.58
11/4/2020 1:00:00 PM 5.56 42.008 0.108 7.08 2.3 12.53
11/4/2020 1:15:00 PM 5.68 42.224 0.108 7.08 2.3 12.49
11/4/2020 1:30:00 PM 5.77 42.386 0.108 7.08 2.37 12.45
11/4/2020 1:45:00 PM 5.88 42.584 0.108 7.07 2.36 12.4
11/4/2020 2:00:00 PM 5.98 42.764 0.108 7.07 2.32 12.36
11/4/2020 2:15:00 PM 6.07 42.926 0.108 7.07 2.39 12.32
11/4/2020 2:30:00 PM 6.15 43.07 0.107 7.07 2.44 12.28
11/4/2020 2:45:00 PM 6.23 43.214 0.107 7.07 2.41 12.24
11/4/2020 3:00:00 PM 6.29 43.322 0.107 7.06 2.45 12.2
11/4/2020 3:15:00 PM 6.34 43.412 0.107 7.05 2.44 12.15
11/4/2020 3:30:00 PM 6.39 43.502 0.107 7.04 2.52 12.12
11/4/2020 3:45:00 PM 6.41 43.538 0.107 7.04 2.55 12.09
11/4/2020 4:00:00 PM 6.41 43.538 0.107 7.02 2.55 12.05
11/4/2020 4:15:00 PM 6.4 43.52 0.107 7.01 2.6 12.03
11/4/2020 4:30:00 PM 6.38 43.484 0.107 7 2.59 12
11/4/2020 4:45:00 PM 6.35 43.43 0.107 7 2.69 11.98
11/4/2020 5:00:00 PM 6.31 43.358 0.107 6.98 2.71 11.96
11/4/2020 5:15:00 PM 6.27 43.286 0.107 6.96 2.78 11.93
11/4/2020 5:30:00 PM 6.23 43.214 0.107 6.95 2.72 11.92
11/4/2020 5:45:00 PM 6.18 43.124 0.107 6.94 2.67 11.91
11/4/2020 6:00:00 PM 6.14 43.052 0.107 6.94 2.81 11.91
11/4/2020 6:15:00 PM 6.1 42.98 0.107 6.93 2.89 11.91
11/4/2020 6:30:00 PM 6.06 42.908 0.107 6.93 2.95 11.91
11/4/2020 6:45:00 PM 6.02 42.836 0.107 6.93 2.85 11.91
11/4/2020 7:00:00 PM 5.99 42.782 0.107 6.93 2.69 11.91
11/4/2020 7:15:00 PM 5.95 42.71 0.107 6.92 2.68 11.92
11/4/2020 7:30:00 PM 5.91 42.638 0.107 6.92 2.58 11.93
11/4/2020 7:45:00 PM 5.88 42.584 0.106 6.92 2.66 11.93
11/4/2020 8:00:00 PM 5.84 42.512 0.106 6.91 2.57 11.93
11/4/2020 8:15:00 PM 5.8 42.44 0.106 6.91 2.6 11.94
11/4/2020 8:30:00 PM 5.76 42.368 0.106 6.91 2.48 11.94
11/4/2020 8:45:00 PM 5.74 42.332 0.106 6.91 3.21 11.94
11/4/2020 9:00:00 PM 5.71 42.278 0.106 6.92 3.42 11.95
11/4/2020 9:15:00 PM 5.68 42.224 0.107 6.91 3.6 11.94
11/4/2020 9:30:00 PM 5.65 42.17 0.107 6.9 4.24 11.94
11/4/2020 9:45:00 PM 5.62 42.116 0.107 6.91 4.17 11.95
11/4/2020 10:00:00 PM 5.59 42.062 0.107 6.92 4.24 11.95
11/4/2020 10:15:00 PM 5.56 42.008 0.107 6.91 4.8 11.96
11/4/2020 10:30:00 PM 5.53 41.954 0.107 6.91 4.16 11.96
11/4/2020 10:45:00 PM 5.51 41.918 0.107 6.9 5.5 11.97
11/4/2020 11:00:00 PM 5.48 41.864 0.107 6.91 5.15 11.98
11/4/2020 11:15:00 PM 5.45 41.81 0.107 6.91 4.12 11.99
11/4/2020 11:30:00 PM 5.42 41.756 0.106 6.92 4.34 12
11/4/2020 11:45:00 PM 5.38 41.684 0.106 6.93 3.43 12.01
11/5/2020 12:00:00 AM 5.33 41.594 0.107 6.92 3.23 12.02
11/5/2020 12:15:00 AM 5.29 41.522 0.107 6.91 4.49 12.04
11/5/2020 12:30:00 AM 5.24 41.432 0.107 6.91 3.67 12.05
11/5/2020 12:45:00 AM 5.2 41.36 0.107 6.9 4.3 12.06
11/5/2020 1:00:00 AM 5.15 41.27 0.107 6.9 3.86 12.08
11/5/2020 1:15:00 AM 5.09 41.162 0.106 6.9 3.16 12.1
11/5/2020 1:30:00 AM 5.04 41.072 0.106 6.91 3.11 12.12
11/5/2020 1:45:00 AM 4.98 40.964 0.107 6.91 3.12 12.15
11/5/2020 2:00:00 AM 4.92 40.856 0.106 6.91 3.21 12.16
11/5/2020 2:15:00 AM 4.87 40.766 0.106 6.9 3.43 12.17
11/5/2020 2:30:00 AM 4.82 40.676 0.106 6.9 3.57 12.19
11/5/2020 2:45:00 AM 4.76 40.568 0.106 6.91 3.58 12.21
11/5/2020 3:00:00 AM 4.71 40.478 0.106 6.9 3.23 12.23
11/5/2020 3:15:00 AM 4.65 40.37 0.106 6.91 3.07 12.25
11/5/2020 3:30:00 AM 4.6 40.28 0.106 6.9 4.09 12.26
11/5/2020 3:45:00 AM 4.55 40.19 0.106 6.9 3.38 12.28
11/5/2020 4:00:00 AM 4.49 40.082 0.106 6.9 3.3 12.3
11/5/2020 4:15:00 AM 4.44 39.992 0.106 6.9 3.31 12.32
11/5/2020 4:30:00 AM 4.39 39.902 0.106 6.9 3.05 12.34
11/5/2020 4:45:00 AM 4.35 39.83 0.106 6.9 3.26 12.35
11/5/2020 5:00:00 AM 4.3 39.74 0.106 6.89 3.27 12.37
11/5/2020 5:15:00 AM 4.25 39.65 0.106 6.9 3.49 12.39
11/5/2020 5:30:00 AM 4.2 39.56 0.106 6.89 3.17 12.41
11/5/2020 5:45:00 AM 4.16 39.488 0.106 6.89 3.13 12.42
11/5/2020 6:00:00 AM 4.11 39.398 0.106 6.89 3.16 12.44
11/5/2020 6:15:00 AM 4.06 39.308 0.106 6.89 3.7 12.46
11/5/2020 6:30:00 AM 4.01 39.218 0.106 6.91 3.27 12.47
11/5/2020 6:45:00 AM 3.97 39.146 0.106 6.92 3.2 12.49
11/5/2020 7:00:00 AM 3.92 39.056 0.106 6.91 2.97 12.51
11/5/2020 7:15:00 AM 3.89 39.002 0.106 6.9 2.8 12.55
11/5/2020 7:30:00 AM 3.88 38.984 0.106 6.9 2.8 12.59
11/5/2020 7:45:00 AM 3.9 39.02 0.106 6.91 2.74 12.62
11/5/2020 8:00:00 AM 3.93 39.074 0.106 6.91 2.6 12.66
11/5/2020 8:15:00 AM 3.98 39.164 0.106 6.93 2.56 12.69
11/5/2020 8:30:00 AM 4.03 39.254 0.106 6.94 2.49 12.7
11/5/2020 8:45:00 AM 4.07 39.326 0.106 6.96 2.44 12.71
11/5/2020 9:00:00 AM 4.14 39.452 0.106 6.96 2.53 12.71
11/5/2020 9:15:00 AM 4.23 39.614 0.106 6.97 2.57 12.72
11/5/2020 9:30:00 AM 4.33 39.794 0.106 6.99 2.51 12.73
11/5/2020 9:45:00 AM 4.42 39.956 0.106 7 2.47 12.72
11/5/2020 10:00:00 AM 4.51 40.118 0.106 7.01 2.42 12.72
11/5/2020 10:15:00 AM 4.59 40.262 0.105 7.02 2.4 12.7
11/5/2020 10:30:00 AM 4.68 40.424 0.105 7.03 2.32 12.69
11/5/2020 10:45:00 AM 4.78 40.604 0.105 7.03 2.41 12.68
11/5/2020 11:00:00 AM 4.92 40.856 0.105 7.04 2.34 12.66
11/5/2020 11:15:00 AM 5.09 41.162 0.105 7.05 2.33 12.64
11/5/2020 11:30:00 AM 5.3 41.54 0.105 7.06 2.3 12.61
11/5/2020 11:45:00 AM 5.51 41.918 0.105 7.07 2.39 12.56
11/5/2020 12:00:00 PM 5.69 42.242 0.105 7.08 2.44 12.51
11/5/2020 12:15:00 PM 5.81 42.458 0.105 7.08 2.47 12.47
11/5/2020 12:30:00 PM 5.89 42.602 0.105 7.09 2.44 12.43
11/5/2020 12:45:00 PM 5.98 42.764 0.105 7.07 2.57 12.41
11/5/2020 1:00:00 PM 6.11 42.998 0.105 7.07 2.4 12.39
11/5/2020 1:15:00 PM 6.3 43.34 0.105 6.88 1.77 11.92
11/5/2020 1:30:00 PM 6.39 43.502 0.105 7.04 1.82 11.91
11/5/2020 1:45:00 PM 6.48 43.664 0.105 7.17 1.86 11.88
11/5/2020 2:00:00 PM 6.56 43.808 0.105 7.23 1.73 11.85
11/5/2020 2:15:00 PM 6.64 43.952 0.104 7.24 1.76 11.82
11/5/2020 2:30:00 PM 6.68 44.024 0.104 7.22 1.86 11.8
11/5/2020 2:45:00 PM 6.7 44.06 0.104 7.22 1.73 11.75
11/5/2020 3:00:00 PM 6.74 44.132 0.104 7.2 1.87 11.71
11/5/2020 3:15:00 PM 6.76 44.168 0.104 7.21 1.91 11.66
11/5/2020 3:30:00 PM 6.79 44.222 0.104 7.19 1.89 11.62
11/5/2020 3:45:00 PM 6.82 44.276 0.104 7.19 2 11.59
11/5/2020 4:00:00 PM 6.82 44.276 0.104 7.17 2 11.55
11/5/2020 4:15:00 PM 6.82 44.276 0.104 7.15 1.91 11.51
11/5/2020 4:30:00 PM 6.79 44.222 0.104 7.15 1.94 11.49
11/5/2020 4:45:00 PM 6.76 44.168 0.104 7.14 2.13 11.46
11/5/2020 5:00:00 PM 6.71 44.078 0.104 7.12 2.11 11.44
11/5/2020 5:15:00 PM 6.67 44.006 0.104 7.09 2.15 11.41
11/5/2020 5:30:00 PM 6.63 43.934 0.104 7.1 2.2 11.38
11/5/2020 5:45:00 PM 6.6 43.88 0.104 7.09 2.17 11.37
11/5/2020 6:00:00 PM 6.58 43.844 0.104 7.07 2.11 11.36
11/5/2020 6:15:00 PM 6.56 43.808 0.104 7.07 2.12 11.36
11/5/2020 6:30:00 PM 6.55 43.79 0.104 7.07 2.32 11.35
11/5/2020 6:45:00 PM 6.54 43.772 0.104 7.07 2.26 11.35
11/5/2020 7:00:00 PM 6.54 43.772 0.104 7.07 2.14 11.34
11/5/2020 7:15:00 PM 6.54 43.772 0.104 7.07 2.26 11.34
11/5/2020 7:30:00 PM 6.53 43.754 0.104 7.04 2.38 11.33
11/5/2020 7:45:00 PM 6.52 43.736 0.104 7.06 2.25 11.32
11/5/2020 8:00:00 PM 6.52 43.736 0.104 7.04 2 11.32
11/5/2020 8:15:00 PM 6.52 43.736 0.104 7.05 2.13 11.31
11/5/2020 8:30:00 PM 6.52 43.736 0.104 7.04 2.21 11.31
11/5/2020 8:45:00 PM 6.52 43.736 0.104 7.05 2.38 11.31
11/5/2020 9:00:00 PM 6.52 43.736 0.104 7.05 2.35 11.31
11/5/2020 9:15:00 PM 6.51 43.718 0.104 7.03 2.18 11.3
11/5/2020 9:30:00 PM 6.49 43.682 0.104 7.05 2.27 11.3
11/5/2020 9:45:00 PM 6.48 43.664 0.104 7.02 2.35 11.3
11/5/2020 10:00:00 PM 6.47 43.646 0.104 7.03 2.43 11.3
11/5/2020 10:15:00 PM 6.47 43.646 0.104 7.03 2.37 11.3
11/5/2020 10:30:00 PM 6.47 43.646 0.104 7.04 2.35 11.3
11/5/2020 10:45:00 PM 6.47 43.646 0.104 7.04 2.7 11.3
11/5/2020 11:00:00 PM 6.47 43.646 0.104 7.04 2.42 11.29
11/5/2020 11:15:00 PM 6.47 43.646 0.104 7.04 2.1 11.29
11/5/2020 11:30:00 PM 6.46 43.628 0.104 7.02 2.14 11.29
11/5/2020 11:45:00 PM 6.44 43.592 0.104 7.03 2.35 11.29
11/6/2020 12:00:00 AM 6.42 43.556 0.104 7.01 2.13 11.3
11/6/2020 12:15:00 AM 6.4 43.52 0.104 7.03 2.22 11.31
11/6/2020 12:30:00 AM 6.38 43.484 0.104 7.01 2.15 11.32
11/6/2020 12:45:00 AM 6.36 43.448 0.104 7.02 2.39 11.33
11/6/2020 1:00:00 AM 6.34 43.412 0.104 7.03 2.1 11.33
11/6/2020 1:15:00 AM 6.31 43.358 0.104 7.02 2.19 11.33
11/6/2020 1:30:00 AM 6.29 43.322 0.104 7.02 2.07 11.34
11/6/2020 1:45:00 AM 6.28 43.304 0.104 7.02 2.04 11.35
11/6/2020 2:00:00 AM 6.26 43.268 0.104 7.01 2.28 11.35
11/6/2020 2:15:00 AM 6.22 43.196 0.104 7.02 2.64 11.36
11/6/2020 2:30:00 AM 6.17 43.106 0.104 7.01 2.91 11.37
11/6/2020 2:45:00 AM 6.12 43.016 0.104 7.01 2.63 11.38
11/6/2020 3:00:00 AM 6.06 42.908 0.104 7 2.72 11.39
11/6/2020 3:15:00 AM 6 42.8 0.104 7.01 2.62 11.4
11/6/2020 3:30:00 AM 5.93 42.674 0.104 7.01 2.47 11.42
11/6/2020 3:45:00 AM 5.87 42.566 0.104 6.99 2.38 11.44
11/6/2020 4:00:00 AM 5.8 42.44 0.104 7 2.29 11.46
11/6/2020 4:15:00 AM 5.73 42.314 0.104 6.99 2.33 11.48
11/6/2020 4:30:00 AM 5.67 42.206 0.104 7.01 2.43 11.49
11/6/2020 4:45:00 AM 5.62 42.116 0.104 7 2.42 11.5
11/6/2020 5:00:00 AM 5.57 42.026 0.104 7.01 2.41 11.52
11/6/2020 5:15:00 AM 5.51 41.918 0.104 7.01 2.32 11.53
11/6/2020 5:30:00 AM 5.46 41.828 0.104 6.99 2.32 11.56
11/6/2020 5:45:00 AM 5.4 41.72 0.104 7.01 2.18 11.57
11/6/2020 6:00:00 AM 5.35 41.63 0.104 7.01 2.15 11.59
11/6/2020 6:15:00 AM 5.3 41.54 0.104 7 2.21 11.61
11/6/2020 6:30:00 AM 5.26 41.468 0.104 7.02 2.3 11.62
11/6/2020 6:45:00 AM 5.21 41.378 0.104 7 2.08 11.64
11/6/2020 7:00:00 AM 5.18 41.324 0.104 7.02 2.07 11.66
11/6/2020 7:15:00 AM 5.15 41.27 0.104 7.02 2.07 11.68
11/6/2020 7:30:00 AM 5.12 41.216 0.104 7.02 2.02 11.72
11/6/2020 7:45:00 AM 5.12 41.216 0.103 7.03 2.04 11.75
11/6/2020 8:00:00 AM 5.13 41.234 0.103 7.04 1.97 11.79
11/6/2020 8:15:00 AM 5.16 41.288 0.103 7.03 1.95 11.82
11/6/2020 8:30:00 AM 5.19 41.342 0.103 7.06 1.94 11.85
11/6/2020 8:45:00 AM 5.26 41.468 0.103 7.07 1.93 11.86
11/6/2020 9:00:00 AM 5.34 41.612 0.103 7.07 1.91 11.87
11/6/2020 9:15:00 AM 5.43 41.774 0.103 7.08 1.88 11.88
11/6/2020 9:30:00 AM 5.53 41.954 0.103 7.09 1.86 11.88
11/6/2020 9:45:00 AM 5.65 42.17 0.103 7.1 1.83 11.88
11/6/2020 10:00:00 AM 5.79 42.422 0.103 7.1 1.8 11.87
11/6/2020 10:15:00 AM 5.93 42.674 0.103 7.1 1.73 11.86
11/6/2020 10:30:00 AM 6.1 42.98 0.103 7.12 1.76 11.84
11/6/2020 10:45:00 AM 6.27 43.286 0.103 7.11 1.76 11.82
11/6/2020 11:00:00 AM 6.45 43.61 0.102 7.14 1.79 11.78
11/6/2020 11:15:00 AM 6.64 43.952 0.102 7.13 1.83 11.75
11/6/2020 11:30:00 AM 6.81 44.258 0.102 7.14 1.71 11.71
11/6/2020 11:45:00 AM 6.99 44.582 0.102 7.14 1.83 11.67
11/6/2020 12:00:00 PM 7.16 44.888 0.102 7.14 1.77 11.63
11/6/2020 12:15:00 PM 7.33 45.194 0.102 7.13 3.96 11.58
11/6/2020 12:30:00 PM 7.48 45.464 0.102 7.13 2.43 11.55
11/6/2020 12:45:00 PM 7.62 45.716 0.102 7.13 2.04 11.51
11/6/2020 1:00:00 PM 7.74 45.932 0.102 7.14 1.96 11.47
11/6/2020 1:15:00 PM 7.86 46.148 0.102 7.13 1.94 11.43
11/6/2020 1:30:00 PM 7.94 46.292 0.102 7.12 2 11.39
11/6/2020 1:45:00 PM 8.03 46.454 0.102 7.13 2.01 11.35
11/6/2020 2:00:00 PM 8.1 46.58 0.102 7.12 2.24 11.32
11/6/2020 2:15:00 PM 8.18 46.724 0.102 7.11 2.24 11.28
11/6/2020 2:30:00 PM 8.26 46.868 0.102 7.12 2.81 11.24
11/6/2020 2:45:00 PM 8.3 46.94 0.102 7.12 3.13 11.21
11/6/2020 3:00:00 PM 8.34 47.012 0.102 7.11 3.06 11.18
11/6/2020 3:15:00 PM 8.37 47.066 0.102 7.09 2.41 11.15
11/6/2020 3:30:00 PM 8.4 47.12 0.102 7.09 2.77 11.11
11/6/2020 3:45:00 PM 8.4 47.12 0.102 7.09 2.56 11.09
11/6/2020 4:00:00 PM 8.39 47.102 0.102 7.07 2.59 11.07
11/6/2020 4:15:00 PM 8.36 47.048 0.102 7.06 2.59 11.04
11/6/2020 4:30:00 PM 8.33 46.994 0.102 7.06 2.44 11.02
11/6/2020 4:45:00 PM 8.28 46.904 0.102 7.05 2.5 11
11/6/2020 5:00:00 PM 8.22 46.796 0.102 7.01 2.49 10.97
11/6/2020 5:15:00 PM 8.16 46.688 0.102 7.01 2.53 10.94
11/6/2020 5:30:00 PM 8.1 46.58 0.102 7.01 2.58 10.93
11/6/2020 5:45:00 PM 8.04 46.472 0.102 7.01 2.63 10.92
11/6/2020 6:00:00 PM 7.99 46.382 0.101 7 2.63 10.93
11/6/2020 6:15:00 PM 7.94 46.292 0.101 7 2.69 10.93
11/6/2020 6:30:00 PM 7.88 46.184 0.101 7 3.18 10.94
11/6/2020 6:45:00 PM 7.83 46.094 0.101 6.99 2.56 10.95
11/6/2020 7:00:00 PM 7.78 46.004 0.101 6.99 2.44 10.96
11/6/2020 7:15:00 PM 7.72 45.896 0.101 7 2.39 10.97
11/6/2020 7:30:00 PM 7.67 45.806 0.101 7 2.36 10.97
11/6/2020 7:45:00 PM 7.62 45.716 0.101 6.99 2.17 10.99
11/6/2020 8:00:00 PM 7.56 45.608 0.101 6.98 2.12 10.99
11/6/2020 8:15:00 PM 7.51 45.518 0.101 6.98 2.19 11
11/6/2020 8:30:00 PM 7.45 45.41 0.101 6.98 2.13 11.02
11/6/2020 8:45:00 PM 7.4 45.32 0.101 6.99 2.21 11.02
11/6/2020 9:00:00 PM 7.35 45.23 0.101 6.99 2.18 11.03
11/6/2020 9:15:00 PM 7.3 45.14 0.101 7 2.22 11.04
11/6/2020 9:30:00 PM 7.25 45.05 0.101 6.99 2.2 11.05
11/6/2020 9:45:00 PM 7.2 44.96 0.101 6.98 2.56 11.06
11/6/2020 10:00:00 PM 7.15 44.87 0.101 7 2.09 11.07
11/6/2020 10:15:00 PM 7.1 44.78 0.101 7 1.95 11.08
11/6/2020 10:30:00 PM 7.05 44.69 0.101 6.99 2.11 11.09
11/6/2020 10:45:00 PM 7 44.6 0.101 7 2.41 11.1
11/6/2020 11:00:00 PM 6.96 44.528 0.101 6.99 2.32 11.11
11/6/2020 11:15:00 PM 6.91 44.438 0.101 7 2.24 11.12
11/6/2020 11:30:00 PM 6.85 44.33 0.101 6.99 2.22 11.13
11/6/2020 11:45:00 PM 6.8 44.24 0.101 6.98 2.16 11.15
11/7/2020 12:00:00 AM 6.74 44.132 0.101 7 2.15 11.16
11/7/2020 12:15:00 AM 6.69 44.042 0.101 6.99 2.09 11.18
11/7/2020 12:30:00 AM 6.63 43.934 0.101 7 2.07 11.2
11/7/2020 12:45:00 AM 6.58 43.844 0.101 7 2.12 11.22
11/7/2020 1:00:00 AM 6.52 43.736 0.101 6.98 2.19 11.24
11/7/2020 1:15:00 AM 6.46 43.628 0.102 7 2.2 11.25
11/7/2020 1:30:00 AM 6.4 43.52 0.102 7 2.06 11.27
11/7/2020 1:45:00 AM 6.35 43.43 0.102 7 2.16 11.28
11/7/2020 2:00:00 AM 6.29 43.322 0.102 7 2.1 11.3
11/7/2020 2:15:00 AM 6.24 43.232 0.102 6.99 2.12 11.32
11/7/2020 2:30:00 AM 6.19 43.142 0.102 6.98 2.73 11.34
11/7/2020 2:45:00 AM 6.13 43.034 0.102 6.99 2.95 11.36
11/7/2020 3:00:00 AM 6.07 42.926 0.102 7 2.81 11.37
11/7/2020 3:15:00 AM 6.01 42.818 0.102 7 2.33 11.4
11/7/2020 3:30:00 AM 5.95 42.71 0.102 7 2.25 11.42
11/7/2020 3:45:00 AM 5.89 42.602 0.102 7.01 2.29 11.44
11/7/2020 4:00:00 AM 5.83 42.494 0.102 7 2.51 11.46
11/7/2020 4:15:00 AM 5.77 42.386 0.102 6.99 2.28 11.48
11/7/2020 4:30:00 AM 5.72 42.296 0.102 7.01 2.24 11.5
11/7/2020 4:45:00 AM 5.66 42.188 0.102 6.98 2.25 11.52
11/7/2020 5:00:00 AM 5.6 42.08 0.102 6.99 2.47 11.54
11/7/2020 5:15:00 AM 5.55 41.99 0.102 7.01 2.21 11.56
11/7/2020 5:30:00 AM 5.49 41.882 0.102 7 2.28 11.57
11/7/2020 5:45:00 AM 5.44 41.792 0.102 7 2.52 11.6
11/7/2020 6:00:00 AM 5.39 41.702 0.102 7.01 2.27 11.62
11/7/2020 6:15:00 AM 5.33 41.594 0.102 7 2.16 11.64
11/7/2020 6:30:00 AM 5.28 41.504 0.102 7.01 2.24 11.66
11/7/2020 6:45:00 AM 5.22 41.396 0.102 6.99 2.07 11.68
11/7/2020 7:00:00 AM 5.17 41.306 0.102 7.01 1.96 11.7
11/7/2020 7:15:00 AM 5.13 41.234 0.102 7.01 2 11.74
11/7/2020 7:30:00 AM 5.1 41.18 0.102 7 1.9 11.78
11/7/2020 7:45:00 AM 5.08 41.144 0.102 7.03 1.95 11.82
11/7/2020 8:00:00 AM 5.07 41.126 0.102 7.03 1.92 11.87
11/7/2020 8:15:00 AM 5.07 41.126 0.102 7.02 1.91 11.9
11/7/2020 8:30:00 AM 5.09 41.162 0.102 7.05 1.88 11.93
11/7/2020 8:45:00 AM 5.13 41.234 0.101 7.05 1.88 11.96
11/7/2020 9:00:00 AM 5.21 41.378 0.101 7.07 1.93 11.98
11/7/2020 9:15:00 AM 5.29 41.522 0.101 7.07 1.83 11.99
11/7/2020 9:30:00 AM 5.39 41.702 0.101 7.08 1.88 12
11/7/2020 9:45:00 AM 5.5 41.9 0.101 7.09 1.88 12
11/7/2020 10:00:00 AM 5.62 42.116 0.101 7.1 1.82 12
11/7/2020 10:15:00 AM 5.76 42.368 0.101 7.09 1.84 11.98
11/7/2020 10:30:00 AM 5.91 42.638 0.101 7.11 1.86 11.96
11/7/2020 10:45:00 AM 6.09 42.962 0.101 7.11 1.81 11.94
11/7/2020 11:00:00 AM 6.26 43.268 0.101 7.12 1.82 11.91
11/7/2020 11:15:00 AM 6.46 43.628 0.101 7.12 1.81 11.87
11/7/2020 11:30:00 AM 6.63 43.934 0.101 7.12 1.94 11.84
11/7/2020 11:45:00 AM 6.78 44.204 0.1 7.12 1.8 11.8
11/7/2020 12:00:00 PM 6.93 44.474 0.1 7.13 1.81 11.76
11/7/2020 12:15:00 PM 7.09 44.762 0.1 7.13 1.73 11.73
11/7/2020 12:30:00 PM 7.25 45.05 0.1 7.13 1.85 11.68
11/7/2020 12:45:00 PM 7.4 45.32 0.1 7.13 1.96 11.65
11/7/2020 1:00:00 PM 7.53 45.554 0.1 7.13 1.88 11.61
11/7/2020 1:15:00 PM 7.66 45.788 0.1 7.13 1.92 11.57
11/7/2020 1:30:00 PM 7.77 45.986 0.1 7.13 1.92 11.53
11/7/2020 1:45:00 PM 7.86 46.148 0.1 7.11 1.97 11.5
11/7/2020 2:00:00 PM 7.98 46.364 0.1 7.13 1.97 11.48
11/7/2020 2:15:00 PM 8.08 46.544 0.1 7.13 1.99 11.44
11/7/2020 2:30:00 PM 8.17 46.706 0.1 7.11 2.14 11.42
11/7/2020 2:45:00 PM 8.24 46.832 0.1 7.12 2.1 11.39
11/7/2020 3:00:00 PM 8.28 46.904 0.1 7.12 2.2 11.36
11/7/2020 3:15:00 PM 8.31 46.958 0.1 7.11 2.53 11.32
11/7/2020 3:30:00 PM 8.32 46.976 0.1 7.1 2.47 11.27
11/7/2020 3:45:00 PM 8.31 46.958 0.1 7.09 2.29 11.25
11/7/2020 4:00:00 PM 8.3 46.94 0.1 7.08 2.56 11.22
11/7/2020 4:15:00 PM 8.27 46.886 0.1 7.07 2.35 11.2
11/7/2020 4:30:00 PM 8.25 46.85 0.1 7.05 2.29 11.16
11/7/2020 4:45:00 PM 8.21 46.778 0.1 7.05 2.27 11.13
11/7/2020 5:00:00 PM 8.15 46.67 0.1 7.03 2.43 11.09
11/7/2020 5:15:00 PM 8.08 46.544 0.1 7 2.49 11.05
11/7/2020 5:30:00 PM 8 46.4 0.1 6.99 2.4 11.03
11/7/2020 5:45:00 PM 7.93 46.274 0.1 6.99 2.43 11.02
11/7/2020 6:00:00 PM 7.86 46.148 0.1 6.99 2.66 11.02
11/7/2020 6:15:00 PM 7.8 46.04 0.1 6.99 2.45 11.04
11/7/2020 6:30:00 PM 7.74 45.932 0.099 6.98 2.95 11.05
11/7/2020 6:45:00 PM 7.68 45.824 0.099 6.97 2.45 11.05
11/7/2020 7:00:00 PM 7.63 45.734 0.099 6.98 2.45 11.05
11/7/2020 7:15:00 PM 7.58 45.644 0.099 6.97 2.4 11.06
11/7/2020 7:30:00 PM 7.52 45.536 0.099 6.97 2.52 11.06
11/7/2020 7:45:00 PM 7.47 45.446 0.099 6.97 2.38 11.07
11/7/2020 8:00:00 PM 7.42 45.356 0.099 6.96 2.3 11.08
11/7/2020 8:15:00 PM 7.37 45.266 0.099 6.98 2.37 11.09
11/7/2020 8:30:00 PM 7.32 45.176 0.099 6.96 2.28 11.1
11/7/2020 8:45:00 PM 7.27 45.086 0.099 6.98 2.28 11.11
11/7/2020 9:00:00 PM 7.22 44.996 0.099 6.97 2.34 11.12
11/7/2020 9:15:00 PM 7.17 44.906 0.099 6.98 2.2 11.13
11/7/2020 9:30:00 PM 7.13 44.834 0.099 6.96 2.3 11.14
11/7/2020 9:45:00 PM 7.08 44.744 0.099 6.97 2.24 11.15
11/7/2020 10:00:00 PM 7.04 44.672 0.099 6.97 2.38 11.16
11/7/2020 10:15:00 PM 6.99 44.582 0.099 6.98 2.2 11.17
11/7/2020 10:30:00 PM 6.94 44.492 0.099 6.98 2.16 11.17
11/7/2020 10:45:00 PM 6.89 44.402 0.099 6.97 2.24 11.18
11/7/2020 11:00:00 PM 6.84 44.312 0.1 6.98 2.17 11.19
11/7/2020 11:15:00 PM 6.79 44.222 0.1 6.98 2.02 11.2
11/7/2020 11:30:00 PM 6.74 44.132 0.1 6.98 2.26 11.21
11/7/2020 11:45:00 PM 6.69 44.042 0.1 6.98 2.12 11.24
11/8/2020 12:00:00 AM 6.63 43.934 0.1 6.98 2.23 11.25
11/8/2020 12:15:00 AM 6.58 43.844 0.1 6.97 2.09 11.26
11/8/2020 12:30:00 AM 6.52 43.736 0.1 6.98 2.19 11.28
11/8/2020 12:45:00 AM 6.47 43.646 0.1 6.99 2.35 11.3
11/8/2020 1:00:00 AM 6.41 43.538 0.1 6.99 2.14 11.31
11/8/2020 1:15:00 AM 6.35 43.43 0.1 6.99 2.17 11.33
11/8/2020 1:30:00 AM 6.29 43.322 0.1 6.97 2.2 11.35
11/8/2020 1:45:00 AM 6.23 43.214 0.1 6.98 2.16 11.37
11/8/2020 2:00:00 AM 6.17 43.106 0.1 6.99 2.07 11.39
11/8/2020 2:15:00 AM 6.1 42.98 0.1 6.97 2.05 11.41
11/8/2020 2:30:00 AM 6.04 42.872 0.1 6.98 2.25 11.43
11/8/2020 2:45:00 AM 5.97 42.746 0.1 6.98 2.09 11.46
11/8/2020 3:00:00 AM 5.91 42.638 0.1 6.99 2.17 11.48
11/8/2020 3:15:00 AM 5.84 42.512 0.1 6.99 2.21 11.5
11/8/2020 3:30:00 AM 5.78 42.404 0.1 6.97 2.19 11.52
11/8/2020 3:45:00 AM 5.72 42.296 0.1 6.99 2.17 11.54
11/8/2020 4:00:00 AM 5.65 42.17 0.1 6.98 2.3 11.57
11/8/2020 4:15:00 AM 5.59 42.062 0.1 6.98 2.19 11.58
11/8/2020 4:30:00 AM 5.53 41.954 0.1 6.99 2.41 11.6
11/8/2020 4:45:00 AM 5.47 41.846 0.1 6.99 2.43 11.62
11/8/2020 5:00:00 AM 5.4 41.72 0.1 6.99 2.48 11.64
11/8/2020 5:15:00 AM 5.34 41.612 0.1 6.99 2.59 11.66
11/8/2020 5:30:00 AM 5.28 41.504 0.1 6.99 2.68 11.68
11/8/2020 5:45:00 AM 5.22 41.396 0.1 6.99 2.84 11.71
11/8/2020 6:00:00 AM 5.15 41.27 0.1 6.98 2.78 11.73
11/8/2020 6:15:00 AM 5.09 41.162 0.1 7 3.04 11.75
11/8/2020 6:30:00 AM 5.03 41.054 0.1 7 2.96 11.78
11/8/2020 6:45:00 AM 4.97 40.946 0.1 7 2.59 11.8
11/8/2020 7:00:00 AM 4.91 40.838 0.1 6.98 2.53 11.83
11/8/2020 7:15:00 AM 4.86 40.748 0.1 7 2.52 11.86
11/8/2020 7:30:00 AM 4.82 40.676 0.1 7 2.53 11.91
11/8/2020 7:45:00 AM 4.79 40.622 0.1 7.01 2.44 11.96
11/8/2020 8:00:00 AM 4.77 40.586 0.1 7 2.28 12
11/8/2020 8:15:00 AM 4.78 40.604 0.1 7.03 2.21 12.05
11/8/2020 8:30:00 AM 4.8 40.64 0.1 7.03 2.19 12.08
11/8/2020 8:45:00 AM 4.84 40.712 0.1 7.04 2.18 12.11
11/8/2020 9:00:00 AM 4.91 40.838 0.1 7.06 2.18 12.14
11/8/2020 9:15:00 AM 4.98 40.964 0.1 7.07 2.05 12.15
11/8/2020 9:30:00 AM 5.07 41.126 0.099 7.06 2.28 12.16
11/8/2020 9:45:00 AM 5.18 41.324 0.099 7.09 1.93 12.16
11/8/2020 10:00:00 AM 5.3 41.54 0.099 7.09 1.93 12.16
11/8/2020 10:15:00 AM 5.42 41.756 0.099 7.08 2.02 12.15
11/8/2020 10:30:00 AM 5.56 42.008 0.099 7.1 1.91 12.14
11/8/2020 10:45:00 AM 5.7 42.26 0.099 7.1 1.94 12.13
11/8/2020 11:00:00 AM 5.86 42.548 0.099 7.09 1.88 12.11
11/8/2020 11:15:00 AM 6.02 42.836 0.099 7.1 1.85 12.08
11/8/2020 11:30:00 AM 6.18 43.124 0.099 7.11 1.99 12.05
11/8/2020 11:45:00 AM 6.34 43.412 0.099 7.11 2.13 12.01
11/8/2020 12:00:00 PM 6.51 43.718 0.099 7.11 1.85 11.97
11/8/2020 12:15:00 PM 6.67 44.006 0.099 7.11 1.86 11.93
11/8/2020 12:30:00 PM 6.83 44.294 0.099 7.1 1.84 11.89
11/8/2020 12:45:00 PM 6.97 44.546 0.098 7.12 1.9 11.85
11/8/2020 1:00:00 PM 7.11 44.798 0.098 7.12 1.86 11.8
11/8/2020 1:15:00 PM 7.22 44.996 0.098 7.12 1.84 11.77
11/8/2020 1:30:00 PM 7.31 45.158 0.098 7.12 1.92 11.73
11/8/2020 1:45:00 PM 7.37 45.266 0.098 7.11 2.1 11.69
11/8/2020 2:00:00 PM 7.44 45.392 0.098 7.11 2 11.67
11/8/2020 2:15:00 PM 7.5 45.5 0.098 7.11 2.03 11.64
11/8/2020 2:30:00 PM 7.55 45.59 0.098 7.11 2 11.61
11/8/2020 2:45:00 PM 7.59 45.662 0.098 7.1 2.17 11.57
11/8/2020 3:00:00 PM 7.62 45.716 0.098 7.09 2.05 11.55
11/8/2020 3:15:00 PM 7.62 45.716 0.098 7.08 2.05 11.51
11/8/2020 3:30:00 PM 7.62 45.716 0.098 7.06 2.22 11.48
11/8/2020 3:45:00 PM 7.6 45.68 0.098 7.06 2.14 11.45
11/8/2020 4:00:00 PM 7.57 45.626 0.098 7.05 2.12 11.43
11/8/2020 4:15:00 PM 7.53 45.554 0.098 7.04 2.06 11.42
11/8/2020 4:30:00 PM 7.49 45.482 0.098 7.04 2.11 11.4
11/8/2020 4:45:00 PM 7.44 45.392 0.098 7.03 2.24 11.37
11/8/2020 5:00:00 PM 7.38 45.284 0.098 7.02 2.13 11.34
11/8/2020 5:15:00 PM 7.32 45.176 0.098 7.01 2.47 11.32
11/8/2020 5:30:00 PM 7.26 45.068 0.098 7 2.25 11.3
11/8/2020 5:45:00 PM 7.21 44.978 0.098 6.97 2.44 11.29
11/8/2020 6:00:00 PM 7.16 44.888 0.098 6.98 2.38 11.29
11/8/2020 6:15:00 PM 7.11 44.798 0.098 6.99 2.7 11.29
11/8/2020 6:30:00 PM 7.07 44.726 0.098 6.98 2.51 11.29
11/8/2020 6:45:00 PM 7.03 44.654 0.098 6.97 2.33 11.3
11/8/2020 7:00:00 PM 6.99 44.582 0.098 6.98 2.28 11.3
11/8/2020 7:15:00 PM 6.95 44.51 0.098 6.98 2.34 11.3
11/8/2020 7:30:00 PM 6.91 44.438 0.098 6.98 2.37 11.31
11/8/2020 7:45:00 PM 6.86 44.348 0.098 6.95 2.39 11.31
11/8/2020 8:00:00 PM 6.82 44.276 0.098 6.97 2.37 11.32
11/8/2020 8:15:00 PM 6.77 44.186 0.098 6.98 2.41 11.34
11/8/2020 8:30:00 PM 6.72 44.096 0.098 6.95 2.5 11.33
11/8/2020 8:45:00 PM 6.68 44.024 0.098 6.98 2.44 11.35
11/8/2020 9:00:00 PM 6.63 43.934 0.098 6.97 2.69 11.35
11/8/2020 9:15:00 PM 6.58 43.844 0.098 6.95 2.57 11.36
11/8/2020 9:30:00 PM 6.53 43.754 0.098 6.96 2.47 11.37
11/8/2020 9:45:00 PM 6.49 43.682 0.098 6.98 2.51 11.38
11/8/2020 10:00:00 PM 6.44 43.592 0.098 6.97 2.25 11.39
11/8/2020 10:15:00 PM 6.4 43.52 0.098 6.97 2.4 11.4
11/8/2020 10:30:00 PM 6.36 43.448 0.098 6.96 2.15 11.41
11/8/2020 10:45:00 PM 6.31 43.358 0.098 6.98 2.2 11.41
11/8/2020 11:00:00 PM 6.27 43.286 0.098 6.96 2.16 11.42
11/8/2020 11:15:00 PM 6.23 43.214 0.098 6.97 2.15 11.43
11/8/2020 11:30:00 PM 6.2 43.16 0.098 6.97 2.2 11.44
11/8/2020 11:45:00 PM 6.16 43.088 0.098 6.98 2.16 11.45
11/9/2020 12:00:00 AM 6.12 43.016 0.098 6.98 2.08 11.46
11/9/2020 12:15:00 AM 6.08 42.944 0.099 6.96 2.1 11.47
11/9/2020 12:30:00 AM 6.04 42.872 0.099 6.98 2.28 11.48
11/9/2020 12:45:00 AM 6 42.8 0.099 6.98 2.49 11.49
11/9/2020 1:00:00 AM 5.96 42.728 0.099 6.98 2.32 11.5
11/9/2020 1:15:00 AM 5.92 42.656 0.099 6.98 2.3 11.51
11/9/2020 1:30:00 AM 5.87 42.566 0.099 6.98 2.29 11.52
11/9/2020 1:45:00 AM 5.82 42.476 0.099 6.96 2.24 11.54
11/9/2020 2:00:00 AM 5.78 42.404 0.099 6.98 2.51 11.56
11/9/2020 2:15:00 AM 5.73 42.314 0.099 6.98 2.55 11.57
11/9/2020 2:30:00 AM 5.68 42.224 0.099 6.96 2.45 11.59
11/9/2020 2:45:00 AM 5.63 42.134 0.099 6.98 2.49 11.61
11/9/2020 3:00:00 AM 5.58 42.044 0.099 6.96 2.56 11.62
11/9/2020 3:15:00 AM 5.53 41.954 0.099 6.97 2.64 11.63
11/9/2020 3:30:00 AM 5.47 41.846 0.099 6.97 2.55 11.65
11/9/2020 3:45:00 AM 5.42 41.756 0.099 6.98 2.62 11.67
11/9/2020 4:00:00 AM 5.36 41.648 0.099 6.98 2.66 11.68
11/9/2020 4:15:00 AM 5.31 41.558 0.099 6.98 2.58 11.7
11/9/2020 4:30:00 AM 5.26 41.468 0.099 6.96 2.84 11.72
11/9/2020 4:45:00 AM 5.2 41.36 0.099 6.97 2.78 11.74
11/9/2020 5:00:00 AM 5.15 41.27 0.099 6.98 2.84 11.76
11/9/2020 5:15:00 AM 5.09 41.162 0.099 6.96 2.8 11.78
11/9/2020 5:30:00 AM 5.04 41.072 0.099 6.98 2.77 11.8
11/9/2020 5:45:00 AM 4.98 40.964 0.099 6.98 2.44 11.82
11/9/2020 6:00:00 AM 4.93 40.874 0.099 6.98 2.43 11.83
11/9/2020 6:15:00 AM 4.88 40.784 0.099 6.98 2.4 11.86
11/9/2020 6:30:00 AM 4.83 40.694 0.099 6.97 2.45 11.87
11/9/2020 6:45:00 AM 4.78 40.604 0.099 6.97 2.35 11.9
11/9/2020 7:00:00 AM 4.73 40.514 0.099 6.99 2.14 11.91
11/9/2020 7:15:00 AM 4.68 40.424 0.099 6.99 2.33 11.95
11/9/2020 7:30:00 AM 4.64 40.352 0.099 6.99 2.89 11.98
11/9/2020 7:45:00 AM 4.62 40.316 0.099 7 2.18 12.03
11/9/2020 8:00:00 AM 4.61 40.298 0.099 7 2.22 12.08
11/9/2020 8:15:00 AM 4.62 40.316 0.099 7 2.05 12.11
11/9/2020 8:30:00 AM 4.65 40.37 0.099 7.03 1.97 12.15
11/9/2020 8:45:00 AM 4.69 40.442 0.099 7.04 2.05 12.17
11/9/2020 9:00:00 AM 4.76 40.568 0.099 7.05 1.96 12.19
11/9/2020 9:15:00 AM 4.85 40.73 0.098 7.06 1.86 12.21
11/9/2020 9:30:00 AM 4.94 40.892 0.098 7.06 1.96 12.22
11/9/2020 9:45:00 AM 5.05 41.09 0.098 7.06 1.8 12.22
11/9/2020 10:00:00 AM 5.16 41.288 0.098 7.08 1.87 12.22
11/9/2020 10:15:00 AM 5.3 41.54 0.098 7.08 2.01 12.21
11/9/2020 10:30:00 AM 5.45 41.81 0.098 7.08 1.82 12.19
11/9/2020 10:45:00 AM 5.6 42.08 0.098 7.09 1.9 12.18
11/9/2020 11:00:00 AM 5.76 42.368 0.098 7.08 1.88 12.15
11/9/2020 11:15:00 AM 5.92 42.656 0.098 7.09 1.79 12.12
11/9/2020 11:30:00 AM 6.08 42.944 0.098 7.1 1.79 12.08
11/9/2020 11:45:00 AM 6.24 43.232 0.098 7.1 1.92 12.05
11/9/2020 12:00:00 PM 6.41 43.538 0.098 7.11 1.81 12.01
11/9/2020 12:15:00 PM 6.58 43.844 0.098 7.09 1.78 11.97
11/9/2020 12:30:00 PM 6.75 44.15 0.097 7.11 1.85 11.93
11/9/2020 12:45:00 PM 6.91 44.438 0.097 7.09 1.83 11.88
11/9/2020 1:00:00 PM 7.05 44.69 0.097 7.11 1.77 11.83
11/9/2020 1:15:00 PM 7.17 44.906 0.097 7.1 1.8 11.79
11/9/2020 1:30:00 PM 7.27 45.086 0.097 7.11 1.8 11.75
11/9/2020 1:45:00 PM 7.35 45.23 0.097 7.11 1.78 11.71
11/9/2020 2:00:00 PM 7.41 45.338 0.097 7.11 2.06 11.68
11/9/2020 2:15:00 PM 7.49 45.482 0.097 7.11 1.93 11.65
11/9/2020 2:30:00 PM 7.54 45.572 0.097 7.1 1.95 11.61
11/9/2020 2:45:00 PM 7.57 45.626 0.097 7.1 2.25 11.58
11/9/2020 3:00:00 PM 7.58 45.644 0.097 7.09 1.85 11.55
11/9/2020 3:15:00 PM 7.58 45.644 0.097 7.08 2.08 11.52
11/9/2020 3:30:00 PM 7.57 45.626 0.097 7.06 1.99 11.49
11/9/2020 3:45:00 PM 7.55 45.59 0.097 7.06 1.92 11.46
11/9/2020 4:00:00 PM 7.52 45.536 0.097 7.05 1.93 11.44
11/9/2020 4:15:00 PM 7.49 45.482 0.097 7.04 2.02 11.41
11/9/2020 4:30:00 PM 7.45 45.41 0.097 7.04 2.01 11.38
11/9/2020 4:45:00 PM 7.41 45.338 0.097 7.03 2.16 11.35
11/9/2020 5:00:00 PM 7.36 45.248 0.097 7 2.19 11.32
11/9/2020 5:15:00 PM 7.3 45.14 0.097 6.99 2.14 11.3
11/9/2020 5:30:00 PM 7.24 45.032 0.097 6.99 2.18 11.27
11/9/2020 5:45:00 PM 7.19 44.942 0.097 6.98 2.28 11.26
11/9/2020 6:00:00 PM 7.15 44.87 0.097 6.98 2.25 11.26
11/9/2020 6:15:00 PM 7.11 44.798 0.097 6.98 2.35 11.26
11/9/2020 6:30:00 PM 7.07 44.726 0.097 6.97 3.17 11.25
11/9/2020 6:45:00 PM 7.04 44.672 0.097 6.97 2.34 11.26
11/9/2020 7:00:00 PM 7.01 44.618 0.097 6.96 2.31 11.26
11/9/2020 7:15:00 PM 6.97 44.546 0.097 6.95 2.37 11.27
11/9/2020 7:30:00 PM 6.94 44.492 0.097 6.97 2.3 11.27
11/9/2020 7:45:00 PM 6.9 44.42 0.097 6.96 2.2 11.28
11/9/2020 8:00:00 PM 6.87 44.366 0.097 6.96 2.31 11.28
11/9/2020 8:15:00 PM 6.82 44.276 0.097 6.94 2.27 11.29
11/9/2020 8:30:00 PM 6.78 44.204 0.097 6.96 2.19 11.29
11/9/2020 8:45:00 PM 6.74 44.132 0.097 6.96 2.28 11.3
11/9/2020 9:00:00 PM 6.69 44.042 0.097 6.96 2.26 11.3
11/9/2020 9:15:00 PM 6.65 43.97 0.097 6.96 2.43 11.31
11/9/2020 9:30:00 PM 6.61 43.898 0.097 6.96 2.11 11.32
11/9/2020 9:45:00 PM 6.56 43.808 0.097 6.96 2.15 11.33
11/9/2020 10:00:00 PM 6.53 43.754 0.097 6.94 2.2 11.33
11/9/2020 10:15:00 PM 6.49 43.682 0.097 6.96 2.12 11.34
11/9/2020 10:30:00 PM 6.45 43.61 0.097 6.96 2.11 11.35
11/9/2020 10:45:00 PM 6.41 43.538 0.097 6.96 2.21 11.36
11/9/2020 11:00:00 PM 6.37 43.466 0.097 6.96 2.05 11.36
11/9/2020 11:15:00 PM 6.34 43.412 0.097 6.96 2.27 11.37
11/9/2020 11:30:00 PM 6.31 43.358 0.097 6.95 2.05 11.37
11/9/2020 11:45:00 PM 6.28 43.304 0.097 6.96 2.1 11.38
11/10/2020 12:00:00 AM 6.25 43.25 0.097 6.96 2.05 11.38
11/10/2020 12:15:00 AM 6.22 43.196 0.097 6.94 2.16 11.39
11/10/2020 12:30:00 AM 6.19 43.142 0.097 6.96 2.03 11.39
11/10/2020 12:45:00 AM 6.17 43.106 0.097 6.96 2.2 11.4
11/10/2020 1:00:00 AM 6.14 43.052 0.097 6.96 2.12 11.41
11/10/2020 1:15:00 AM 6.1 42.98 0.097 6.95 2.23 11.41
11/10/2020 1:30:00 AM 6.07 42.926 0.097 6.96 2.17 11.42
11/10/2020 1:45:00 AM 6.04 42.872 0.097 6.96 2.18 11.43
11/10/2020 2:00:00 AM 6.01 42.818 0.097 6.96 2.27 11.44
11/10/2020 2:15:00 AM 5.97 42.746 0.097 6.96 2.16 11.44
11/10/2020 2:30:00 AM 5.93 42.674 0.097 6.94 2.07 11.46
11/10/2020 2:45:00 AM 5.89 42.602 0.097 6.96 2.03 11.47
11/10/2020 3:00:00 AM 5.85 42.53 0.097 6.96 2.14 11.49
11/10/2020 3:15:00 AM 5.81 42.458 0.097 6.95 2.09 11.5
11/10/2020 3:30:00 AM 5.77 42.386 0.097 6.96 2.03 11.52
11/10/2020 3:45:00 AM 5.73 42.314 0.098 6.96 2.05 11.53
11/10/2020 4:00:00 AM 5.68 42.224 0.098 6.96 2.14 11.54
11/10/2020 4:15:00 AM 5.64 42.152 0.098 6.96 2.14 11.55
11/10/2020 4:30:00 AM 5.6 42.08 0.098 6.96 2.24 11.57
11/10/2020 4:45:00 AM 5.55 41.99 0.098 6.96 2.28 11.58
11/10/2020 5:00:00 AM 5.51 41.918 0.098 6.96 2.23 11.6
11/10/2020 5:15:00 AM 5.47 41.846 0.098 6.96 2.31 11.6
11/10/2020 5:30:00 AM 5.42 41.756 0.098 6.96 2.21 11.62
11/10/2020 5:45:00 AM 5.39 41.702 0.098 6.95 2.21 11.63
11/10/2020 6:00:00 AM 5.35 41.63 0.098 6.96 2.42 11.64
11/10/2020 6:15:00 AM 5.31 41.558 0.098 6.94 2.56 11.65
11/10/2020 6:30:00 AM 5.27 41.486 0.098 6.96 2.61 11.66
11/10/2020 6:45:00 AM 5.25 41.45 0.098 6.95 2.61 11.68
11/10/2020 7:00:00 AM 5.23 41.414 0.098 6.94 2.68 11.7
11/10/2020 7:15:00 AM 5.23 41.414 0.098 6.95 2.53 11.72
11/10/2020 7:30:00 AM 5.25 41.45 0.098 6.97 2.36 11.76
11/10/2020 7:45:00 AM 5.27 41.486 0.098 6.96 2.28 11.79
11/10/2020 8:00:00 AM 5.31 41.558 0.097 6.99 2.21 11.84
11/10/2020 8:15:00 AM 5.35 41.63 0.097 7 2.01 11.88
11/10/2020 8:30:00 AM 5.4 41.72 0.097 7.01 2.28 11.92
11/10/2020 8:45:00 AM 5.45 41.81 0.097 7.02 2.11 11.95
11/10/2020 9:00:00 AM 5.51 41.918 0.097 7.03 2.05 11.96
11/10/2020 9:15:00 AM 5.61 42.098 0.097 7.04 2.02 11.97
11/10/2020 9:30:00 AM 5.71 42.278 0.097 7.05 1.96 11.96
11/10/2020 9:45:00 AM 5.82 42.476 0.097 7.05 1.93 11.96
11/10/2020 10:00:00 AM 5.94 42.692 0.097 7.06 1.87 11.95
11/10/2020 10:15:00 AM 6.08 42.944 0.097 7.05 1.88 11.94
11/10/2020 10:30:00 AM 6.24 43.232 0.097 7.07 1.93 11.93
11/10/2020 10:45:00 AM 6.42 43.556 0.097 7.08 2.37 11.91
11/10/2020 11:00:00 AM 6.65 43.97 0.097 7.09 1.89 11.87
11/10/2020 11:15:00 AM 6.89 44.402 0.096 7.1 1.9 11.82
11/10/2020 11:30:00 AM 7.12 44.816 0.096 7.1 1.94 11.78
11/10/2020 11:45:00 AM 7.34 45.212 0.096 7.09 1.78 11.72
11/10/2020 12:00:00 PM 7.52 45.536 0.096 7.11 1.85 11.67
11/10/2020 12:15:00 PM 7.67 45.806 0.096 7.1 1.91 11.64
11/10/2020 12:30:00 PM 7.83 46.094 0.096 7.09 1.82 11.59
11/10/2020 12:45:00 PM 7.99 46.382 0.096 7.11 1.9 11.54
11/10/2020 1:00:00 PM 8.11 46.598 0.096 7.1 2.01 11.51
11/10/2020 1:15:00 PM 8.23 46.814 0.096 7.09 1.89 11.46
11/10/2020 1:30:00 PM 8.35 47.03 0.096 7.1 1.96 11.41
11/10/2020 1:45:00 PM 8.43 47.174 0.096 7.08 2.21 11.37
11/10/2020 2:00:00 PM 8.52 47.336 0.096 7.09 2.03 11.33
11/10/2020 2:15:00 PM 8.58 47.444 0.096 7.08 2.07 11.29
11/10/2020 2:30:00 PM 8.67 47.606 0.096 7.08 2.17 11.25
11/10/2020 2:45:00 PM 8.73 47.714 0.096 7.08 2.13 11.21
11/10/2020 3:00:00 PM 8.76 47.768 0.096 7.06 2.3 11.17
11/10/2020 3:15:00 PM 8.77 47.786 0.096 7.07 2.31 11.13
11/10/2020 3:30:00 PM 8.8 47.84 0.096 7.04 2.32 11.1
11/10/2020 3:45:00 PM 8.8 47.84 0.096 7.05 3.04 11.05
11/10/2020 4:00:00 PM 8.8 47.84 0.095 7.04 2.31 11.03
11/10/2020 4:15:00 PM 8.77 47.786 0.095 7.03 2.26 11
11/10/2020 4:30:00 PM 8.76 47.768 0.095 7.02 2.38 10.97
11/10/2020 4:45:00 PM 8.72 47.696 0.095 7 2.33 10.94
11/10/2020 5:00:00 PM 8.67 47.606 0.095 6.99 2.22 10.9
11/10/2020 5:15:00 PM 8.62 47.516 0.095 6.97 2.42 10.87
11/10/2020 5:30:00 PM 8.55 47.39 0.095 6.96 2.38 10.85
11/10/2020 5:45:00 PM 8.49 47.282 0.095 6.94 2.5 10.84
11/10/2020 6:00:00 PM 8.43 47.174 0.095 6.94 2.71 10.83
11/10/2020 6:15:00 PM 8.39 47.102 0.095 6.94 2.6 10.83
11/10/2020 6:30:00 PM 8.36 47.048 0.095 6.93 2.49 10.83
11/10/2020 6:45:00 PM 8.33 46.994 0.095 6.93 2.38 10.83
11/10/2020 7:00:00 PM 8.31 46.958 0.095 6.93 2.29 10.83
11/10/2020 7:15:00 PM 8.29 46.922 0.095 6.93 2.24 10.82
11/10/2020 7:30:00 PM 8.28 46.904 0.095 6.92 2.29 10.82
11/10/2020 7:45:00 PM 8.27 46.886 0.095 6.93 2.19 10.82
11/10/2020 8:00:00 PM 8.26 46.868 0.095 6.93 2.36 10.82
11/10/2020 8:15:00 PM 8.24 46.832 0.095 6.91 2.41 10.82
11/10/2020 8:30:00 PM 8.22 46.796 0.095 6.93 2.53 10.81
11/10/2020 8:45:00 PM 8.2 46.76 0.095 6.92 2.35 10.82
11/10/2020 9:00:00 PM 8.18 46.724 0.095 6.92 2.25 10.82
11/10/2020 9:15:00 PM 8.15 46.67 0.095 6.92 2.35 10.82
11/10/2020 9:30:00 PM 8.13 46.634 0.095 6.92 2.39 10.82
11/10/2020 9:45:00 PM 8.1 46.58 0.095 6.92 2.32 10.83
11/10/2020 10:00:00 PM 8.08 46.544 0.095 6.92 2.25 10.83
11/10/2020 10:15:00 PM 8.05 46.49 0.095 6.9 2.26 10.83
11/10/2020 10:30:00 PM 8.02 46.436 0.096 6.92 2.27 10.83
11/10/2020 10:45:00 PM 8 46.4 0.096 6.92 2.33 10.83
11/10/2020 11:00:00 PM 7.97 46.346 0.096 6.92 2.14 10.83
11/10/2020 11:15:00 PM 7.94 46.292 0.096 6.92 2.19 10.84
11/10/2020 11:30:00 PM 7.92 46.256 0.096 6.92 2.14 10.84
11/10/2020 11:45:00 PM 7.91 46.238 0.096 6.91 2.19 10.84
11/11/2020 12:00:00 AM 7.89 46.202 0.096 6.91 2.19 10.85
11/11/2020 12:15:00 AM 7.87 46.166 0.096 6.93 2.2 10.85
11/11/2020 12:30:00 AM 7.85 46.13 0.096 6.92 2.31 10.85
11/11/2020 12:45:00 AM 7.84 46.112 0.096 6.92 2.2 10.85
11/11/2020 1:00:00 AM 7.81 46.058 0.096 6.92 2.1 10.86
11/11/2020 1:15:00 AM 7.79 46.022 0.096 6.92 2.09 10.86
11/11/2020 1:30:00 AM 7.77 45.986 0.096 6.9 2.06 10.86
11/11/2020 1:45:00 AM 7.75 45.95 0.096 6.93 2.09 10.87
11/11/2020 2:00:00 AM 7.73 45.914 0.096 6.92 2.23 10.87
11/11/2020 2:15:00 AM 7.72 45.896 0.096 6.93 2.21 10.88
11/11/2020 2:30:00 AM 7.7 45.86 0.096 6.93 2.12 10.88
11/11/2020 2:45:00 AM 7.68 45.824 0.096 6.91 2.15 10.89
11/11/2020 3:00:00 AM 7.66 45.788 0.096 6.93 2.21 10.89
11/11/2020 3:15:00 AM 7.64 45.752 0.096 6.93 2.19 10.89
11/11/2020 3:30:00 AM 7.62 45.716 0.096 6.93 2.15 10.9
11/11/2020 3:45:00 AM 7.6 45.68 0.096 6.93 2.2 10.91
11/11/2020 4:00:00 AM 7.58 45.644 0.096 6.93 2.2 10.91
11/11/2020 4:15:00 AM 7.58 45.644 0.096 6.93 2.27 10.91
11/11/2020 4:30:00 AM 7.57 45.626 0.096 6.93 2.28 10.91
11/11/2020 4:45:00 AM 7.58 45.644 0.096 6.93 2.42 10.92
11/11/2020 5:00:00 AM 7.61 45.698 0.096 6.93 2.38 10.92
11/11/2020 5:15:00 AM 7.64 45.752 0.096 6.93 2.53 10.91
11/11/2020 5:30:00 AM 7.67 45.806 0.096 6.93 2.52 10.91
11/11/2020 5:45:00 AM 7.7 45.86 0.096 6.92 2.59 10.9
11/11/2020 6:00:00 AM 7.72 45.896 0.096 6.92 2.52 10.9
11/11/2020 6:15:00 AM 7.75 45.95 0.096 6.9 2.8 10.9
11/11/2020 6:30:00 AM 7.78 46.004 0.096 6.91 2.75 10.9
11/11/2020 6:45:00 AM 7.81 46.058 0.095 6.91 2.77 10.89
11/11/2020 7:00:00 AM 7.87 46.166 0.094 6.9 3.15 10.88
11/11/2020 7:15:00 AM 7.91 46.238 0.093 6.89 3.59 10.85
11/11/2020 7:30:00 AM 7.95 46.31 0.092 6.86 3.71 10.83
11/11/2020 7:45:00 AM 7.98 46.364 0.092 6.86 4 10.83
11/11/2020 8:00:00 AM 7.99 46.382 0.092 6.85 4.3 10.83
11/11/2020 8:15:00 AM 8.02 46.436 0.092 6.84 4.42 10.83
11/11/2020 8:30:00 AM 8.03 46.454 0.092 6.84 4.27 10.83
11/11/2020 8:45:00 AM 8.03 46.454 0.092 6.83 4.02 10.84
11/11/2020 9:00:00 AM 8.02 46.436 0.093 6.83 3.64 10.86
11/11/2020 9:15:00 AM 8.03 46.454 0.093 6.83 3.33 10.87
11/11/2020 9:30:00 AM 8.06 46.508 0.094 6.82 3.53 10.9
11/11/2020 9:45:00 AM 8.09 46.562 0.094 6.83 4.3 10.9
11/11/2020 10:00:00 AM 8.14 46.652 0.093 6.84 3.87 10.9
11/11/2020 10:15:00 AM 8.19 46.742 0.093 6.83 4.53 10.89
11/11/2020 10:30:00 AM 8.25 46.85 0.093 6.8 5.92 10.87
11/11/2020 10:45:00 AM 8.28 46.904 0.092 6.81 5.99 10.86
11/11/2020 11:00:00 AM 8.32 46.976 0.092 6.81 5.72 10.86
11/11/2020 11:15:00 AM 8.4 47.12 0.092 6.81 7.81 10.86
11/11/2020 11:30:00 AM 8.51 47.318 0.091 6.81 10.29 10.84
11/11/2020 11:45:00 AM 8.59 47.462 0.09 6.8 13 10.79
11/11/2020 12:00:00 PM 8.64 47.552 0.09 6.77 13.2 10.77
11/11/2020 12:15:00 PM 8.7 47.66 0.092 6.75 14.46 10.75
11/11/2020 12:30:00 PM 8.79 47.822 0.093 6.72 10.74 10.72
11/11/2020 12:45:00 PM 8.87 47.966 0.095 6.75 14.93 10.7
11/11/2020 1:00:00 PM 8.96 48.128 0.097 6.74 13.6 10.68
11/11/2020 1:15:00 PM 9.04 48.272 0.098 6.74 13.31 10.66
11/11/2020 1:30:00 PM 9.12 48.416 0.098 6.74 14.86 10.65
11/11/2020 1:45:00 PM 9.21 48.578 0.098 6.73 16.12 10.64
11/11/2020 2:00:00 PM 9.28 48.704 0.099 6.73 15.46 10.63
11/11/2020 2:15:00 PM 9.36 48.848 0.1 6.73 13.5 10.62
11/11/2020 2:30:00 PM 9.44 48.992 0.101 6.77 12.22 10.62
11/11/2020 2:45:00 PM 9.5 49.1 0.102 6.76 13.16 10.59
11/11/2020 3:00:00 PM 9.57 49.226 0.101 6.76 11.43 10.58
11/11/2020 3:15:00 PM 9.64 49.352 0.101 6.75 11.28 10.58
11/11/2020 3:30:00 PM 9.7 49.46 0.1 6.76 11.45 10.56
11/11/2020 3:45:00 PM 9.75 49.55 0.099 6.76 11.05 10.52
11/11/2020 4:00:00 PM 9.79 49.622 0.099 6.75 10.32 10.49
11/11/2020 4:15:00 PM 9.84 49.712 0.098 6.74 10.93 10.47
11/11/2020 4:30:00 PM 9.87 49.766 0.097 6.74 9.6 10.45
11/11/2020 4:45:00 PM 9.9 49.82 0.097 6.72 8.88 10.43
11/11/2020 5:00:00 PM 9.93 49.874 0.097 6.71 8.3 10.41
11/11/2020 5:15:00 PM 9.95 49.91 0.097 6.72 8.14 10.39
11/11/2020 5:30:00 PM 9.98 49.964 0.097 6.71 7.52 10.38
11/11/2020 5:45:00 PM 10 50 0.097 6.7 7.45 10.37
11/11/2020 6:00:00 PM 10.01 50.018 0.097 6.68 7.27 10.35
11/11/2020 6:15:00 PM 10.01 50.018 0.098 6.68 7.27 10.34
11/11/2020 6:30:00 PM 10.02 50.036 0.098 6.67 6.65 10.34
11/11/2020 6:45:00 PM 10.04 50.072 0.098 6.66 6.61 10.33
11/11/2020 7:00:00 PM 10.05 50.09 0.099 6.66 6.32 10.33
11/11/2020 7:15:00 PM 10.05 50.09 0.099 6.65 6.17 10.33
11/11/2020 7:30:00 PM 10.06 50.108 0.1 6.65 6.03 10.32
11/11/2020 7:45:00 PM 10.05 50.09 0.101 6.64 5.69 10.32
11/11/2020 8:00:00 PM 10.05 50.09 0.102 6.63 5.96 10.32
11/11/2020 8:15:00 PM 10.06 50.108 0.102 6.65 5.59 10.32
11/11/2020 8:30:00 PM 10.07 50.126 0.103 6.66 5.64 10.32
11/11/2020 8:45:00 PM 10.09 50.162 0.104 6.68 5.54 10.32
11/11/2020 9:00:00 PM 10.1 50.18 0.105 6.69 5.73 10.32
11/11/2020 9:15:00 PM 10.11 50.198 0.106 6.71 5.27 10.32
11/11/2020 9:30:00 PM 10.11 50.198 0.107 6.7 5.27 10.32
11/11/2020 9:45:00 PM 10.1 50.18 0.108 6.72 5.39 10.32
11/11/2020 10:00:00 PM 10.09 50.162 0.109 6.72 5.48 10.32
11/11/2020 10:15:00 PM 10.07 50.126 0.11 6.71 5.42 10.33
11/11/2020 10:30:00 PM 10.04 50.072 0.111 6.72 5.21 10.33
11/11/2020 10:45:00 PM 10.02 50.036 0.112 6.72 5.09 10.33
11/11/2020 11:00:00 PM 10.01 50.018 0.112 6.72 5.23 10.34
11/11/2020 11:15:00 PM 10 50 0.113 6.74 5.1 10.34
11/11/2020 11:30:00 PM 9.99 49.982 0.114 6.74 5.09 10.34
11/11/2020 11:45:00 PM 9.97 49.946 0.114 6.71 4.93 10.34
11/12/2020 12:00:00 AM 9.95 49.91 0.115 6.75 4.96 10.35
11/12/2020 12:15:00 AM 9.92 49.856 0.115 6.75 4.79 10.36
11/12/2020 12:30:00 AM 9.89 49.802 0.115 6.75 4.85 10.36
11/12/2020 12:45:00 AM 9.84 49.712 0.116 6.74 4.71 10.37
11/12/2020 1:00:00 AM 9.8 49.64 0.116 6.76 4.91 10.39
11/12/2020 1:15:00 AM 9.77 49.586 0.116 6.76 4.91 10.39
11/12/2020 1:30:00 AM 9.73 49.514 0.116 6.77 4.89 10.4
11/12/2020 1:45:00 AM 9.69 49.442 0.117 6.77 4.91 10.41
11/12/2020 2:00:00 AM 9.65 49.37 0.117 6.77 4.68 10.43
11/12/2020 2:15:00 AM 9.61 49.298 0.117 6.77 4.36 10.44
11/12/2020 2:30:00 AM 9.58 49.244 0.117 6.78 4.46 10.44
11/12/2020 2:45:00 AM 9.55 49.19 0.117 6.77 4.49 10.45
11/12/2020 3:00:00 AM 9.51 49.118 0.117 6.78 4.5 10.46
11/12/2020 3:15:00 AM 9.45 49.01 0.116 6.77 4.37 10.48
11/12/2020 3:30:00 AM 9.4 48.92 0.116 6.78 4.12 10.49
11/12/2020 3:45:00 AM 9.34 48.812 0.116 6.78 4.21 10.5
11/12/2020 4:00:00 AM 9.29 48.722 0.116 6.79 4.08 10.51
11/12/2020 4:15:00 AM 9.25 48.65 0.116 6.79 4.08 10.53
11/12/2020 4:30:00 AM 9.2 48.56 0.116 6.79 4.22 10.54
11/12/2020 4:45:00 AM 9.15 48.47 0.115 6.79 4.14 10.56
11/12/2020 5:00:00 AM 9.09 48.362 0.115 6.79 4.16 10.57
11/12/2020 5:15:00 AM 9.04 48.272 0.115 6.8 3.96 10.59
11/12/2020 5:30:00 AM 9 48.2 0.115 6.8 4.07 10.6
11/12/2020 5:45:00 AM 8.95 48.11 0.115 6.8 3.87 10.62
11/12/2020 6:00:00 AM 8.89 48.002 0.115 6.78 3.81 10.63
11/12/2020 6:15:00 AM 8.84 47.912 0.114 6.8 3.8 10.65
11/12/2020 6:30:00 AM 8.78 47.804 0.114 6.8 3.72 10.67
11/12/2020 6:45:00 AM 8.73 47.714 0.114 6.81 3.57 10.68
11/12/2020 7:00:00 AM 8.68 47.624 0.114 6.81 3.5 10.7
11/12/2020 7:15:00 AM 8.63 47.534 0.114 6.82 3.49 10.71
11/12/2020 7:30:00 AM 8.59 47.462 0.114 6.8 3.48 10.74
11/12/2020 7:45:00 AM 8.54 47.372 0.113 6.83 3.4 10.77
11/12/2020 8:00:00 AM 8.5 47.3 0.113 6.82 3.32 10.81
11/12/2020 8:15:00 AM 8.46 47.228 0.113 6.84 3.28 10.84
11/12/2020 8:30:00 AM 8.41 47.138 0.113 6.84 3.25 10.87
11/12/2020 8:45:00 AM 8.37 47.066 0.113 6.83 3.18 10.9
11/12/2020 9:00:00 AM 8.33 46.994 0.112 6.84 3.13 10.92
11/12/2020 9:15:00 AM 8.29 46.922 0.112 6.86 3.41 10.96
11/12/2020 9:30:00 AM 8.27 46.886 0.112 6.87 3.14 10.99
11/12/2020 9:45:00 AM 8.25 46.85 0.112 6.85 3 11.02
11/12/2020 10:00:00 AM 8.23 46.814 0.111 6.87 3.09 11.05
11/12/2020 10:15:00 AM 8.22 46.796 0.111 6.89 3.11 11.08
11/12/2020 10:30:00 AM 8.2 46.76 0.111 6.89 3.01 11.11
11/12/2020 10:45:00 AM 8.2 46.76 0.111 6.9 2.96 11.13
11/12/2020 11:00:00 AM 8.17 46.706 0.111 6.9 2.98 11.13
11/12/2020 11:15:00 AM 8.17 46.706 0.11 6.89 3.04 11.16
11/12/2020 11:30:00 AM 8.18 46.724 0.11 6.92 2.92 11.19
11/12/2020 11:45:00 AM 8.22 46.796 0.11 6.92 2.89 11.22
11/12/2020 12:00:00 PM 8.23 46.814 0.11 6.93 3.09 11.24
11/12/2020 12:15:00 PM 8.27 46.886 0.109 6.94 2.88 11.24
11/12/2020 12:30:00 PM 8.33 46.994 0.109 6.93 3.03 11.25
11/12/2020 12:45:00 PM 8.36 47.048 0.109 6.95 2.96 11.25
11/12/2020 1:00:00 PM 8.39 47.102 0.109 6.95 3.05 11.25
11/12/2020 1:15:00 PM 8.41 47.138 0.108 6.95 2.97 11.24
11/12/2020 1:30:00 PM 8.41 47.138 0.108 6.95 2.91 11.25
11/12/2020 1:45:00 PM 8.43 47.174 0.108 6.95 2.96 11.24
11/12/2020 2:00:00 PM 8.42 47.156 0.108 6.95 2.94 11.24
11/12/2020 2:15:00 PM 8.42 47.156 0.107 6.95 2.69 11.23
11/12/2020 2:30:00 PM 8.42 47.156 0.107 6.94 2.8 11.23
11/12/2020 2:45:00 PM 8.42 47.156 0.107 6.95 3.02 11.21
11/12/2020 3:00:00 PM 8.42 47.156 0.107 6.95 2.81 11.21
11/12/2020 3:15:00 PM 8.38 47.084 0.107 6.94 2.78 11.17
11/12/2020 3:30:00 PM 8.35 47.03 0.106 6.94 2.95 11.17
11/12/2020 3:45:00 PM 8.3 46.94 0.106 6.94 2.86 11.16
11/12/2020 4:00:00 PM 8.24 46.832 0.106 6.93 3.07 11.14
11/12/2020 4:15:00 PM 8.18 46.724 0.106 6.92 2.88 11.11
11/12/2020 4:30:00 PM 8.12 46.616 0.106 6.91 3 11.1
11/12/2020 4:45:00 PM 8.05 46.49 0.106 6.91 2.99 11.09
11/12/2020 5:00:00 PM 7.97 46.346 0.105 6.89 2.91 11.07
11/12/2020 5:15:00 PM 7.87 46.166 0.105 6.87 3.19 11.06
11/12/2020 5:30:00 PM 7.77 45.986 0.105 6.88 2.94 11.06
11/12/2020 5:45:00 PM 7.67 45.806 0.105 6.88 2.94 11.08
11/12/2020 6:00:00 PM 7.56 45.608 0.105 6.87 2.98 11.09
11/12/2020 6:15:00 PM 7.47 45.446 0.105 6.87 3.05 11.1
11/12/2020 6:30:00 PM 7.37 45.266 0.105 6.87 3 11.12
11/12/2020 6:45:00 PM 7.29 45.122 0.105 6.87 2.99 11.13
11/12/2020 7:00:00 PM 7.2 44.96 0.105 6.86 2.9 11.15
11/12/2020 7:15:00 PM 7.12 44.816 0.105 6.87 3.23 11.16
11/12/2020 7:30:00 PM 7.04 44.672 0.105 6.86 3.01 11.18
11/12/2020 7:45:00 PM 6.96 44.528 0.105 6.86 3.07 11.2
11/12/2020 8:00:00 PM 6.88 44.384 0.104 6.86 2.9 11.21
11/12/2020 8:15:00 PM 6.8 44.24 0.104 6.86 2.96 11.23
11/12/2020 8:30:00 PM 6.71 44.078 0.104 6.86 2.96 11.25
11/12/2020 8:45:00 PM 6.63 43.934 0.104 6.85 2.95 11.27
11/12/2020 9:00:00 PM 6.54 43.772 0.104 6.86 3.07 11.29
11/12/2020 9:15:00 PM 6.45 43.61 0.104 6.86 2.72 11.32
11/12/2020 9:30:00 PM 6.36 43.448 0.104 6.85 3.35 11.35
11/12/2020 9:45:00 PM 6.27 43.286 0.104 6.86 3.27 11.37
11/12/2020 10:00:00 PM 6.19 43.142 0.104 6.85 3.24 11.39
11/12/2020 10:15:00 PM 6.1 42.98 0.104 6.86 3.62 11.42
11/12/2020 10:30:00 PM 6.01 42.818 0.104 6.86 4.22 11.44
11/12/2020 10:45:00 PM 5.92 42.656 0.104 6.86 4.37 11.47
11/12/2020 11:00:00 PM 5.84 42.512 0.104 6.86 5.58 11.49
11/12/2020 11:15:00 PM 5.75 42.35 0.103 6.86 4.97 11.52
11/12/2020 11:30:00 PM 5.67 42.206 0.103 6.87 3.32 11.55
11/12/2020 11:45:00 PM 5.58 42.044 0.103 6.87 3.28 11.58
11/13/2020 12:00:00 AM 5.5 41.9 0.103 6.87 3.07 11.6
11/13/2020 12:15:00 AM 5.42 41.756 0.103 6.85 3.15 11.62
11/13/2020 12:30:00 AM 5.34 41.612 0.103 6.86 2.9 11.64
11/13/2020 12:45:00 AM 5.27 41.486 0.103 6.88 2.98 11.67
11/13/2020 1:00:00 AM 5.19 41.342 0.103 6.87 2.94 11.69
11/13/2020 1:15:00 AM 5.11 41.198 0.103 6.87 2.94 11.71
11/13/2020 1:30:00 AM 5.03 41.054 0.103 6.86 3 11.74
11/13/2020 1:45:00 AM 4.96 40.928 0.103 6.88 2.97 11.76
11/13/2020 2:00:00 AM 4.89 40.802 0.103 6.88 2.7 11.79
11/13/2020 2:15:00 AM 4.81 40.658 0.103 6.88 3.07 11.81
11/13/2020 2:30:00 AM 4.74 40.532 0.102 6.88 2.79 11.83
11/13/2020 2:45:00 AM 4.67 40.406 0.102 6.89 2.61 11.86
11/13/2020 3:00:00 AM 4.6 40.28 0.102 6.87 2.66 11.88
11/13/2020 3:15:00 AM 4.53 40.154 0.102 6.89 2.52 11.91
11/13/2020 3:30:00 AM 4.47 40.046 0.102 6.87 2.53 11.93
11/13/2020 3:45:00 AM 4.41 39.938 0.102 6.89 2.64 11.95
11/13/2020 4:00:00 AM 4.35 39.83 0.102 6.88 2.69 11.96
11/13/2020 4:15:00 AM 4.29 39.722 0.102 6.89 3.14 11.98
11/13/2020 4:30:00 AM 4.23 39.614 0.102 6.87 3.12 11.99
11/13/2020 4:45:00 AM 4.17 39.506 0.102 6.9 3.28 12.02
11/13/2020 5:00:00 AM 4.11 39.398 0.102 6.9 3.21 12.04
11/13/2020 5:15:00 AM 4.06 39.308 0.101 6.89 3.72 12.05
11/13/2020 5:30:00 AM 4.02 39.236 0.101 6.9 4.32 12.07
11/13/2020 5:45:00 AM 3.97 39.146 0.101 6.89 3.25 12.09
11/13/2020 6:00:00 AM 3.93 39.074 0.101 6.9 3.46 12.11
11/13/2020 6:15:00 AM 3.88 38.984 0.101 6.9 3.11 12.13
11/13/2020 6:30:00 AM 3.85 38.93 0.101 6.9 3.22 12.15
11/13/2020 6:45:00 AM 3.81 38.858 0.101 6.91 2.47 12.17
11/13/2020 7:00:00 AM 3.78 38.804 0.101 6.91 2.43 12.18
11/13/2020 7:15:00 AM 3.75 38.75 0.101 6.92 2.35 12.2
11/13/2020 7:30:00 AM 3.73 38.714 0.101 6.92 2.27 12.23
11/13/2020 7:45:00 AM 3.72 38.696 0.101 6.92 2.16 12.26
11/13/2020 8:00:00 AM 3.71 38.678 0.101 6.93 2.21 12.31
11/13/2020 8:15:00 AM 3.68 38.624 0.1 6.92 2.14 12.34
11/13/2020 8:30:00 AM 3.66 38.588 0.1 6.94 2.29 12.36
11/13/2020 8:45:00 AM 3.67 38.606 0.1 6.93 2.14 12.39
11/13/2020 9:00:00 AM 3.7 38.66 0.1 6.96 2.09 12.41
11/13/2020 9:15:00 AM 3.76 38.768 0.1 6.96 2.15 12.43
11/13/2020 9:30:00 AM 3.79 38.822 0.1 6.97 2.14 12.44
11/13/2020 9:45:00 AM 3.84 38.912 0.1 6.95 2.02 12.44
11/13/2020 10:00:00 AM 3.91